<?xml version="1.0" encoding="UTF-8" standalone="no" ?>
<gpx xmlns="http://www.topografix.com/GPX/1/1" xmlns:xsi="http://www.w3.org/2001/XMLSchema-instance" xsi:schemaLocation="http://www.topografix.com/GPX/1/1 http://www.topografix.com/GPX/1/1/gpx.xsd" version="1.1" creator="VisuGPX - https://www.visugpx.com">
  <metadata>
    <name>Boucle technique au dessus de Mandelieu la Napoule (VTT) V2</name>
    <desc><![CDATA[Boucle technique, génial pour entrainement.
3 fois la boucle.]]></desc>
  </metadata>
  <wpt lat="49.00243" lon="1.08928">
    <ele>120.77</ele>
    <name><![CDATA[001]]></name>
  </wpt>
  <wpt lat="38.85555" lon="-94.79902">
    <ele>3.01</ele>
    <name><![CDATA[GARMIN]]></name>
  </wpt>
  <wpt lat="50.98288" lon="-1.4639">
    <ele>3.01</ele>
    <name><![CDATA[GRMEUR]]></name>
  </wpt>
  <wpt lat="25.06178" lon="121.64027">
    <ele>3.01</ele>
    <name><![CDATA[GRMTWN]]></name>
  </wpt>
  <wpt lat="43.57746" lon="1.45163">
    <ele>97.22</ele>
    <name><![CDATA[MAP]]></name>
  </wpt>
  <trk>
    <name><![CDATA[ACTIVE LOG: 24 MAI 2011 08:22]]></name>
    <trkseg>
      <trkpt lat="43.55498" lon="6.91886">
        <ele>254.89</ele>
        <time>2011-05-24T06:22:52Z</time>
      </trkpt>
      <trkpt lat="43.55499" lon="6.91889">
        <ele>253.93</ele>
        <time>2011-05-24T06:23:11Z</time>
      </trkpt>
      <trkpt lat="43.55498" lon="6.91887">
        <ele>253.44</ele>
        <time>2011-05-24T06:23:25Z</time>
      </trkpt>
      <trkpt lat="43.55497" lon="6.9188">
        <ele>254.89</ele>
        <time>2011-05-24T06:23:43Z</time>
      </trkpt>
      <trkpt lat="43.555" lon="6.91873">
        <ele>255.85</ele>
        <time>2011-05-24T06:23:49Z</time>
      </trkpt>
      <trkpt lat="43.55502" lon="6.91866">
        <ele>255.85</ele>
        <time>2011-05-24T06:23:52Z</time>
      </trkpt>
      <trkpt lat="43.55505" lon="6.91858">
        <ele>257.29</ele>
        <time>2011-05-24T06:23:56Z</time>
      </trkpt>
      <trkpt lat="43.55502" lon="6.91837">
        <ele>257.29</ele>
        <time>2011-05-24T06:24:07Z</time>
      </trkpt>
      <trkpt lat="43.55504" lon="6.91828">
        <ele>256.81</ele>
        <time>2011-05-24T06:24:20Z</time>
      </trkpt>
      <trkpt lat="43.55509" lon="6.91803">
        <ele>257.29</ele>
        <time>2011-05-24T06:24:32Z</time>
      </trkpt>
      <trkpt lat="43.5552" lon="6.91745">
        <ele>259.69</ele>
        <time>2011-05-24T06:24:50Z</time>
      </trkpt>
      <trkpt lat="43.55522" lon="6.91728">
        <ele>260.65</ele>
        <time>2011-05-24T06:24:57Z</time>
      </trkpt>
      <trkpt lat="43.55539" lon="6.91711">
        <ele>263.06</ele>
        <time>2011-05-24T06:25:10Z</time>
      </trkpt>
      <trkpt lat="43.55566" lon="6.91683">
        <ele>265.94</ele>
        <time>2011-05-24T06:25:28Z</time>
      </trkpt>
      <trkpt lat="43.55597" lon="6.91663">
        <ele>267.86</ele>
        <time>2011-05-24T06:25:47Z</time>
      </trkpt>
      <trkpt lat="43.55628" lon="6.91667">
        <ele>268.83</ele>
        <time>2011-05-24T06:26:02Z</time>
      </trkpt>
      <trkpt lat="43.55666" lon="6.9166">
        <ele>268.83</ele>
        <time>2011-05-24T06:26:16Z</time>
      </trkpt>
      <trkpt lat="43.55667" lon="6.91617">
        <ele>269.31</ele>
        <time>2011-05-24T06:26:29Z</time>
      </trkpt>
      <trkpt lat="43.5566" lon="6.91573">
        <ele>272.67</ele>
        <time>2011-05-24T06:26:44Z</time>
      </trkpt>
      <trkpt lat="43.55659" lon="6.91541">
        <ele>275.07</ele>
        <time>2011-05-24T06:26:56Z</time>
      </trkpt>
      <trkpt lat="43.55671" lon="6.91535">
        <ele>276.04</ele>
        <time>2011-05-24T06:27:02Z</time>
      </trkpt>
      <trkpt lat="43.55686" lon="6.91513">
        <ele>278.44</ele>
        <time>2011-05-24T06:27:15Z</time>
      </trkpt>
      <trkpt lat="43.55696" lon="6.91494">
        <ele>281.8</ele>
        <time>2011-05-24T06:27:25Z</time>
      </trkpt>
      <trkpt lat="43.55718" lon="6.91464">
        <ele>285.17</ele>
        <time>2011-05-24T06:27:43Z</time>
      </trkpt>
      <trkpt lat="43.55738" lon="6.9145">
        <ele>286.61</ele>
        <time>2011-05-24T06:27:58Z</time>
      </trkpt>
      <trkpt lat="43.55769" lon="6.91436">
        <ele>287.57</ele>
        <time>2011-05-24T06:28:12Z</time>
      </trkpt>
      <trkpt lat="43.55802" lon="6.91391">
        <ele>289.49</ele>
        <time>2011-05-24T06:28:30Z</time>
      </trkpt>
      <trkpt lat="43.55795" lon="6.91362">
        <ele>289.49</ele>
        <time>2011-05-24T06:28:40Z</time>
      </trkpt>
      <trkpt lat="43.55789" lon="6.91356">
        <ele>289.01</ele>
        <time>2011-05-24T06:28:42Z</time>
      </trkpt>
      <trkpt lat="43.55779" lon="6.91326">
        <ele>288.53</ele>
        <time>2011-05-24T06:28:48Z</time>
      </trkpt>
      <trkpt lat="43.55784" lon="6.91299">
        <ele>288.53</ele>
        <time>2011-05-24T06:28:54Z</time>
      </trkpt>
      <trkpt lat="43.55773" lon="6.91284">
        <ele>289.97</ele>
        <time>2011-05-24T06:29:01Z</time>
      </trkpt>
      <trkpt lat="43.55736" lon="6.91267">
        <ele>291.9</ele>
        <time>2011-05-24T06:29:16Z</time>
      </trkpt>
      <trkpt lat="43.55732" lon="6.91254">
        <ele>292.38</ele>
        <time>2011-05-24T06:29:20Z</time>
      </trkpt>
      <trkpt lat="43.55729" lon="6.91219">
        <ele>295.74</ele>
        <time>2011-05-24T06:29:32Z</time>
      </trkpt>
      <trkpt lat="43.55721" lon="6.91188">
        <ele>299.59</ele>
        <time>2011-05-24T06:29:44Z</time>
      </trkpt>
      <trkpt lat="43.55721" lon="6.91186">
        <ele>299.59</ele>
        <time>2011-05-24T06:29:45Z</time>
      </trkpt>
      <trkpt lat="43.55726" lon="6.91144">
        <ele>302.95</ele>
        <time>2011-05-24T06:30:03Z</time>
      </trkpt>
      <trkpt lat="43.55729" lon="6.9111">
        <ele>305.36</ele>
        <time>2011-05-24T06:30:19Z</time>
      </trkpt>
      <trkpt lat="43.5573" lon="6.91074">
        <ele>308.24</ele>
        <time>2011-05-24T06:30:37Z</time>
      </trkpt>
      <trkpt lat="43.55729" lon="6.91068">
        <ele>308.24</ele>
        <time>2011-05-24T06:30:40Z</time>
      </trkpt>
      <trkpt lat="43.55723" lon="6.91063">
        <ele>309.2</ele>
        <time>2011-05-24T06:30:45Z</time>
      </trkpt>
      <trkpt lat="43.55694" lon="6.91074">
        <ele>311.12</ele>
        <time>2011-05-24T06:31:04Z</time>
      </trkpt>
      <trkpt lat="43.55675" lon="6.91069">
        <ele>313.05</ele>
        <time>2011-05-24T06:31:20Z</time>
      </trkpt>
      <trkpt lat="43.55672" lon="6.91067">
        <ele>313.05</ele>
        <time>2011-05-24T06:31:35Z</time>
      </trkpt>
      <trkpt lat="43.55672" lon="6.91066">
        <ele>313.05</ele>
        <time>2011-05-24T06:31:48Z</time>
      </trkpt>
      <trkpt lat="43.55665" lon="6.91038">
        <ele>315.45</ele>
        <time>2011-05-24T06:32:03Z</time>
      </trkpt>
      <trkpt lat="43.55658" lon="6.90998">
        <ele>318.81</ele>
        <time>2011-05-24T06:32:20Z</time>
      </trkpt>
      <trkpt lat="43.55637" lon="6.9096">
        <ele>321.7</ele>
        <time>2011-05-24T06:32:39Z</time>
      </trkpt>
      <trkpt lat="43.55613" lon="6.90942">
        <ele>324.58</ele>
        <time>2011-05-24T06:32:56Z</time>
      </trkpt>
      <trkpt lat="43.55589" lon="6.90925">
        <ele>327.47</ele>
        <time>2011-05-24T06:33:12Z</time>
      </trkpt>
      <trkpt lat="43.55578" lon="6.90886">
        <ele>327.95</ele>
        <time>2011-05-24T06:33:29Z</time>
      </trkpt>
      <trkpt lat="43.55577" lon="6.90843">
        <ele>328.91</ele>
        <time>2011-05-24T06:33:47Z</time>
      </trkpt>
      <trkpt lat="43.55582" lon="6.90837">
        <ele>329.87</ele>
        <time>2011-05-24T06:33:51Z</time>
      </trkpt>
      <trkpt lat="43.55602" lon="6.90816">
        <ele>333.23</ele>
        <time>2011-05-24T06:34:07Z</time>
      </trkpt>
      <trkpt lat="43.55607" lon="6.9081">
        <ele>334.2</ele>
        <time>2011-05-24T06:34:11Z</time>
      </trkpt>
      <trkpt lat="43.55616" lon="6.90798">
        <ele>336.12</ele>
        <time>2011-05-24T06:34:19Z</time>
      </trkpt>
      <trkpt lat="43.55631" lon="6.90786">
        <ele>339.48</ele>
        <time>2011-05-24T06:34:30Z</time>
      </trkpt>
      <trkpt lat="43.55653" lon="6.90768">
        <ele>341.89</ele>
        <time>2011-05-24T06:34:47Z</time>
      </trkpt>
      <trkpt lat="43.55677" lon="6.90763">
        <ele>344.77</ele>
        <time>2011-05-24T06:35:03Z</time>
      </trkpt>
      <trkpt lat="43.55712" lon="6.9076">
        <ele>348.13</ele>
        <time>2011-05-24T06:35:25Z</time>
      </trkpt>
      <trkpt lat="43.5574" lon="6.90764">
        <ele>351.02</ele>
        <time>2011-05-24T06:35:43Z</time>
      </trkpt>
      <trkpt lat="43.55751" lon="6.9077">
        <ele>352.94</ele>
        <time>2011-05-24T06:35:51Z</time>
      </trkpt>
      <trkpt lat="43.55768" lon="6.90779">
        <ele>355.83</ele>
        <time>2011-05-24T06:36:03Z</time>
      </trkpt>
      <trkpt lat="43.55774" lon="6.90782">
        <ele>357.27</ele>
        <time>2011-05-24T06:36:07Z</time>
      </trkpt>
      <trkpt lat="43.55787" lon="6.90784">
        <ele>359.67</ele>
        <time>2011-05-24T06:36:16Z</time>
      </trkpt>
      <trkpt lat="43.55804" lon="6.90793">
        <ele>362.55</ele>
        <time>2011-05-24T06:36:29Z</time>
      </trkpt>
      <trkpt lat="43.55824" lon="6.90803">
        <ele>365.44</ele>
        <time>2011-05-24T06:36:45Z</time>
      </trkpt>
      <trkpt lat="43.55826" lon="6.90806">
        <ele>366.88</ele>
        <time>2011-05-24T06:36:47Z</time>
      </trkpt>
      <trkpt lat="43.55837" lon="6.90832">
        <ele>369.76</ele>
        <time>2011-05-24T06:37:02Z</time>
      </trkpt>
      <trkpt lat="43.55839" lon="6.90843">
        <ele>370.73</ele>
        <time>2011-05-24T06:37:08Z</time>
      </trkpt>
      <trkpt lat="43.55852" lon="6.90861">
        <ele>373.13</ele>
        <time>2011-05-24T06:37:23Z</time>
      </trkpt>
      <trkpt lat="43.55876" lon="6.90862">
        <ele>375.53</ele>
        <time>2011-05-24T06:37:41Z</time>
      </trkpt>
      <trkpt lat="43.55898" lon="6.90872">
        <ele>378.42</ele>
        <time>2011-05-24T06:37:58Z</time>
      </trkpt>
      <trkpt lat="43.55915" lon="6.90893">
        <ele>380.34</ele>
        <time>2011-05-24T06:38:14Z</time>
      </trkpt>
      <trkpt lat="43.55935" lon="6.90913">
        <ele>383.7</ele>
        <time>2011-05-24T06:38:31Z</time>
      </trkpt>
      <trkpt lat="43.55953" lon="6.90923">
        <ele>387.07</ele>
        <time>2011-05-24T06:38:44Z</time>
      </trkpt>
      <trkpt lat="43.55977" lon="6.90931">
        <ele>388.99</ele>
        <time>2011-05-24T06:39:03Z</time>
      </trkpt>
      <trkpt lat="43.5599" lon="6.90935">
        <ele>389.95</ele>
        <time>2011-05-24T06:39:12Z</time>
      </trkpt>
      <trkpt lat="43.55998" lon="6.90937">
        <ele>389.95</ele>
        <time>2011-05-24T06:39:27Z</time>
      </trkpt>
      <trkpt lat="43.55998" lon="6.90932">
        <ele>389.95</ele>
        <time>2011-05-24T06:39:36Z</time>
      </trkpt>
      <trkpt lat="43.55997" lon="6.90936">
        <ele>390.43</ele>
        <time>2011-05-24T06:40:09Z</time>
      </trkpt>
      <trkpt lat="43.55998" lon="6.90936">
        <ele>389.95</ele>
        <time>2011-05-24T06:40:31Z</time>
      </trkpt>
      <trkpt lat="43.55997" lon="6.90936">
        <ele>390.43</ele>
        <time>2011-05-24T06:40:51Z</time>
      </trkpt>
      <trkpt lat="43.55997" lon="6.90934">
        <ele>390.91</ele>
        <time>2011-05-24T06:41:01Z</time>
      </trkpt>
      <trkpt lat="43.56007" lon="6.90931">
        <ele>390.91</ele>
        <time>2011-05-24T06:41:20Z</time>
      </trkpt>
      <trkpt lat="43.56046" lon="6.90942">
        <ele>391.87</ele>
        <time>2011-05-24T06:41:39Z</time>
      </trkpt>
      <trkpt lat="43.5606" lon="6.90944">
        <ele>390.43</ele>
        <time>2011-05-24T06:41:44Z</time>
      </trkpt>
      <trkpt lat="43.56069" lon="6.90944">
        <ele>388.99</ele>
        <time>2011-05-24T06:41:46Z</time>
      </trkpt>
      <trkpt lat="43.56088" lon="6.90943">
        <ele>388.03</ele>
        <time>2011-05-24T06:41:48Z</time>
      </trkpt>
      <trkpt lat="43.56114" lon="6.90958">
        <ele>391.39</ele>
        <time>2011-05-24T06:41:56Z</time>
      </trkpt>
      <trkpt lat="43.56128" lon="6.90971">
        <ele>394.76</ele>
        <time>2011-05-24T06:42:04Z</time>
      </trkpt>
      <trkpt lat="43.56146" lon="6.90988">
        <ele>398.12</ele>
        <time>2011-05-24T06:42:15Z</time>
      </trkpt>
      <trkpt lat="43.56152" lon="6.90993">
        <ele>399.57</ele>
        <time>2011-05-24T06:42:19Z</time>
      </trkpt>
      <trkpt lat="43.56181" lon="6.91005">
        <ele>401.49</ele>
        <time>2011-05-24T06:42:36Z</time>
      </trkpt>
      <trkpt lat="43.56218" lon="6.91008">
        <ele>403.41</ele>
        <time>2011-05-24T06:42:55Z</time>
      </trkpt>
      <trkpt lat="43.56247" lon="6.91012">
        <ele>406.77</ele>
        <time>2011-05-24T06:43:13Z</time>
      </trkpt>
      <trkpt lat="43.56266" lon="6.9102">
        <ele>410.14</ele>
        <time>2011-05-24T06:43:26Z</time>
      </trkpt>
      <trkpt lat="43.5627" lon="6.91021">
        <ele>409.66</ele>
        <time>2011-05-24T06:43:29Z</time>
      </trkpt>
      <trkpt lat="43.56289" lon="6.90998">
        <ele>409.66</ele>
        <time>2011-05-24T06:43:43Z</time>
      </trkpt>
      <trkpt lat="43.56295" lon="6.90985">
        <ele>411.1</ele>
        <time>2011-05-24T06:43:47Z</time>
      </trkpt>
      <trkpt lat="43.56309" lon="6.9096">
        <ele>413.98</ele>
        <time>2011-05-24T06:44:01Z</time>
      </trkpt>
      <trkpt lat="43.56331" lon="6.90946">
        <ele>417.35</ele>
        <time>2011-05-24T06:44:18Z</time>
      </trkpt>
      <trkpt lat="43.56339" lon="6.90946">
        <ele>418.31</ele>
        <time>2011-05-24T06:44:25Z</time>
      </trkpt>
      <trkpt lat="43.56349" lon="6.90945">
        <ele>420.71</ele>
        <time>2011-05-24T06:44:35Z</time>
      </trkpt>
      <trkpt lat="43.5635" lon="6.90947">
        <ele>420.71</ele>
        <time>2011-05-24T06:44:50Z</time>
      </trkpt>
      <trkpt lat="43.56356" lon="6.9095">
        <ele>420.71</ele>
        <time>2011-05-24T06:44:58Z</time>
      </trkpt>
      <trkpt lat="43.56364" lon="6.90941">
        <ele>422.16</ele>
        <time>2011-05-24T06:45:14Z</time>
      </trkpt>
      <trkpt lat="43.56366" lon="6.90935">
        <ele>422.64</ele>
        <time>2011-05-24T06:45:28Z</time>
      </trkpt>
      <trkpt lat="43.56379" lon="6.90905">
        <ele>424.08</ele>
        <time>2011-05-24T06:45:43Z</time>
      </trkpt>
      <trkpt lat="43.56385" lon="6.90833">
        <ele>426.96</ele>
        <time>2011-05-24T06:46:05Z</time>
      </trkpt>
      <trkpt lat="43.56371" lon="6.90784">
        <ele>428.89</ele>
        <time>2011-05-24T06:46:22Z</time>
      </trkpt>
      <trkpt lat="43.56336" lon="6.90775">
        <ele>430.33</ele>
        <time>2011-05-24T06:46:37Z</time>
      </trkpt>
      <trkpt lat="43.56303" lon="6.90795">
        <ele>431.77</ele>
        <time>2011-05-24T06:46:57Z</time>
      </trkpt>
      <trkpt lat="43.56269" lon="6.90766">
        <ele>434.17</ele>
        <time>2011-05-24T06:47:17Z</time>
      </trkpt>
      <trkpt lat="43.56232" lon="6.90715">
        <ele>435.61</ele>
        <time>2011-05-24T06:47:41Z</time>
      </trkpt>
      <trkpt lat="43.56236" lon="6.90677">
        <ele>438.02</ele>
        <time>2011-05-24T06:47:55Z</time>
      </trkpt>
      <trkpt lat="43.56265" lon="6.9067">
        <ele>439.94</ele>
        <time>2011-05-24T06:48:11Z</time>
      </trkpt>
      <trkpt lat="43.56289" lon="6.90674">
        <ele>441.38</ele>
        <time>2011-05-24T06:48:28Z</time>
      </trkpt>
      <trkpt lat="43.5629" lon="6.90674">
        <ele>440.42</ele>
        <time>2011-05-24T06:48:29Z</time>
      </trkpt>
      <trkpt lat="43.56298" lon="6.90657">
        <ele>441.86</ele>
        <time>2011-05-24T06:48:41Z</time>
      </trkpt>
      <trkpt lat="43.56299" lon="6.90655">
        <ele>441.86</ele>
        <time>2011-05-24T06:48:42Z</time>
      </trkpt>
      <trkpt lat="43.56304" lon="6.90632">
        <ele>442.34</ele>
        <time>2011-05-24T06:48:55Z</time>
      </trkpt>
      <trkpt lat="43.56308" lon="6.90622">
        <ele>442.82</ele>
        <time>2011-05-24T06:49:09Z</time>
      </trkpt>
      <trkpt lat="43.56308" lon="6.90622">
        <ele>443.31</ele>
        <time>2011-05-24T06:49:12Z</time>
      </trkpt>
      <trkpt lat="43.56311" lon="6.90616">
        <ele>439.94</ele>
        <time>2011-05-24T06:49:17Z</time>
      </trkpt>
      <trkpt lat="43.56317" lon="6.90607">
        <ele>438.5</ele>
        <time>2011-05-24T06:49:20Z</time>
      </trkpt>
      <trkpt lat="43.56321" lon="6.90604">
        <ele>437.54</ele>
        <time>2011-05-24T06:49:21Z</time>
      </trkpt>
      <trkpt lat="43.56337" lon="6.90597">
        <ele>434.17</ele>
        <time>2011-05-24T06:49:24Z</time>
      </trkpt>
      <trkpt lat="43.56344" lon="6.90596">
        <ele>436.58</ele>
        <time>2011-05-24T06:49:25Z</time>
      </trkpt>
      <trkpt lat="43.56355" lon="6.90594">
        <ele>437.54</ele>
        <time>2011-05-24T06:49:27Z</time>
      </trkpt>
      <trkpt lat="43.56357" lon="6.90589">
        <ele>433.69</ele>
        <time>2011-05-24T06:49:29Z</time>
      </trkpt>
      <trkpt lat="43.56358" lon="6.90584">
        <ele>432.25</ele>
        <time>2011-05-24T06:49:30Z</time>
      </trkpt>
      <trkpt lat="43.56364" lon="6.90566">
        <ele>435.61</ele>
        <time>2011-05-24T06:49:33Z</time>
      </trkpt>
      <trkpt lat="43.56366" lon="6.90559">
        <ele>432.25</ele>
        <time>2011-05-24T06:49:34Z</time>
      </trkpt>
      <trkpt lat="43.56369" lon="6.90548">
        <ele>432.25</ele>
        <time>2011-05-24T06:49:36Z</time>
      </trkpt>
      <trkpt lat="43.56385" lon="6.90522">
        <ele>429.37</ele>
        <time>2011-05-24T06:49:43Z</time>
      </trkpt>
      <trkpt lat="43.56396" lon="6.90499">
        <ele>432.25</ele>
        <time>2011-05-24T06:49:48Z</time>
      </trkpt>
      <trkpt lat="43.56397" lon="6.90496">
        <ele>425.04</ele>
        <time>2011-05-24T06:49:49Z</time>
      </trkpt>
      <trkpt lat="43.56399" lon="6.90494">
        <ele>427.92</ele>
        <time>2011-05-24T06:49:50Z</time>
      </trkpt>
      <trkpt lat="43.564" lon="6.90487">
        <ele>429.85</ele>
        <time>2011-05-24T06:49:53Z</time>
      </trkpt>
      <trkpt lat="43.564" lon="6.9048">
        <ele>426.48</ele>
        <time>2011-05-24T06:49:55Z</time>
      </trkpt>
      <trkpt lat="43.564" lon="6.90476">
        <ele>429.37</ele>
        <time>2011-05-24T06:49:56Z</time>
      </trkpt>
      <trkpt lat="43.56398" lon="6.90468">
        <ele>422.16</ele>
        <time>2011-05-24T06:49:59Z</time>
      </trkpt>
      <trkpt lat="43.56397" lon="6.90465">
        <ele>433.69</ele>
        <time>2011-05-24T06:50:00Z</time>
      </trkpt>
      <trkpt lat="43.56397" lon="6.90464">
        <ele>423.6</ele>
        <time>2011-05-24T06:50:01Z</time>
      </trkpt>
      <trkpt lat="43.56398" lon="6.90461">
        <ele>430.33</ele>
        <time>2011-05-24T06:50:02Z</time>
      </trkpt>
      <trkpt lat="43.564" lon="6.90456">
        <ele>426</ele>
        <time>2011-05-24T06:50:05Z</time>
      </trkpt>
      <trkpt lat="43.564" lon="6.90455">
        <ele>427.44</ele>
        <time>2011-05-24T06:50:06Z</time>
      </trkpt>
      <trkpt lat="43.564" lon="6.90455">
        <ele>424.56</ele>
        <time>2011-05-24T06:50:08Z</time>
      </trkpt>
      <trkpt lat="43.564" lon="6.90455">
        <ele>425.52</ele>
        <time>2011-05-24T06:50:09Z</time>
      </trkpt>
      <trkpt lat="43.56399" lon="6.90454">
        <ele>426</ele>
        <time>2011-05-24T06:50:13Z</time>
      </trkpt>
      <trkpt lat="43.56401" lon="6.9045">
        <ele>429.85</ele>
        <time>2011-05-24T06:50:18Z</time>
      </trkpt>
      <trkpt lat="43.56401" lon="6.90449">
        <ele>425.04</ele>
        <time>2011-05-24T06:50:19Z</time>
      </trkpt>
      <trkpt lat="43.56402" lon="6.90446">
        <ele>424.08</ele>
        <time>2011-05-24T06:50:21Z</time>
      </trkpt>
      <trkpt lat="43.56403" lon="6.90438">
        <ele>423.6</ele>
        <time>2011-05-24T06:50:26Z</time>
      </trkpt>
      <trkpt lat="43.56408" lon="6.90434">
        <ele>422.16</ele>
        <time>2011-05-24T06:50:31Z</time>
      </trkpt>
      <trkpt lat="43.56409" lon="6.90433">
        <ele>423.12</ele>
        <time>2011-05-24T06:50:32Z</time>
      </trkpt>
      <trkpt lat="43.56412" lon="6.90429">
        <ele>424.08</ele>
        <time>2011-05-24T06:50:38Z</time>
      </trkpt>
      <trkpt lat="43.56414" lon="6.90428">
        <ele>429.37</ele>
        <time>2011-05-24T06:50:39Z</time>
      </trkpt>
      <trkpt lat="43.56416" lon="6.90426">
        <ele>425.04</ele>
        <time>2011-05-24T06:50:40Z</time>
      </trkpt>
      <trkpt lat="43.56425" lon="6.90409">
        <ele>419.27</ele>
        <time>2011-05-24T06:50:45Z</time>
      </trkpt>
      <trkpt lat="43.56427" lon="6.90405">
        <ele>425.52</ele>
        <time>2011-05-24T06:50:46Z</time>
      </trkpt>
      <trkpt lat="43.5644" lon="6.90369">
        <ele>419.27</ele>
        <time>2011-05-24T06:50:52Z</time>
      </trkpt>
      <trkpt lat="43.56443" lon="6.90363">
        <ele>420.23</ele>
        <time>2011-05-24T06:50:53Z</time>
      </trkpt>
      <trkpt lat="43.56448" lon="6.90352">
        <ele>421.19</ele>
        <time>2011-05-24T06:50:55Z</time>
      </trkpt>
      <trkpt lat="43.56458" lon="6.90338">
        <ele>415.91</ele>
        <time>2011-05-24T06:51:00Z</time>
      </trkpt>
      <trkpt lat="43.56459" lon="6.90337">
        <ele>420.71</ele>
        <time>2011-05-24T06:51:01Z</time>
      </trkpt>
      <trkpt lat="43.5646" lon="6.90329">
        <ele>418.31</ele>
        <time>2011-05-24T06:51:06Z</time>
      </trkpt>
      <trkpt lat="43.5646" lon="6.90325">
        <ele>421.19</ele>
        <time>2011-05-24T06:51:08Z</time>
      </trkpt>
      <trkpt lat="43.56459" lon="6.90322">
        <ele>421.68</ele>
        <time>2011-05-24T06:51:10Z</time>
      </trkpt>
      <trkpt lat="43.56458" lon="6.90321">
        <ele>418.31</ele>
        <time>2011-05-24T06:51:11Z</time>
      </trkpt>
      <trkpt lat="43.56432" lon="6.90299">
        <ele>415.43</ele>
        <time>2011-05-24T06:51:21Z</time>
      </trkpt>
      <trkpt lat="43.56429" lon="6.90297">
        <ele>420.23</ele>
        <time>2011-05-24T06:51:22Z</time>
      </trkpt>
      <trkpt lat="43.56425" lon="6.90296">
        <ele>416.87</ele>
        <time>2011-05-24T06:51:23Z</time>
      </trkpt>
      <trkpt lat="43.56422" lon="6.90295">
        <ele>413.02</ele>
        <time>2011-05-24T06:51:24Z</time>
      </trkpt>
      <trkpt lat="43.56419" lon="6.90294">
        <ele>417.83</ele>
        <time>2011-05-24T06:51:25Z</time>
      </trkpt>
      <trkpt lat="43.56414" lon="6.9029">
        <ele>414.47</ele>
        <time>2011-05-24T06:51:27Z</time>
      </trkpt>
      <trkpt lat="43.56403" lon="6.90277">
        <ele>413.02</ele>
        <time>2011-05-24T06:51:31Z</time>
      </trkpt>
      <trkpt lat="43.56399" lon="6.90271">
        <ele>414.47</ele>
        <time>2011-05-24T06:51:33Z</time>
      </trkpt>
      <trkpt lat="43.56385" lon="6.90257">
        <ele>408.7</ele>
        <time>2011-05-24T06:51:41Z</time>
      </trkpt>
      <trkpt lat="43.56383" lon="6.90255">
        <ele>413.98</ele>
        <time>2011-05-24T06:51:42Z</time>
      </trkpt>
      <trkpt lat="43.56381" lon="6.90253">
        <ele>410.62</ele>
        <time>2011-05-24T06:51:43Z</time>
      </trkpt>
      <trkpt lat="43.56378" lon="6.90251">
        <ele>413.98</ele>
        <time>2011-05-24T06:51:44Z</time>
      </trkpt>
      <trkpt lat="43.56375" lon="6.90248">
        <ele>410.62</ele>
        <time>2011-05-24T06:51:45Z</time>
      </trkpt>
      <trkpt lat="43.56373" lon="6.90244">
        <ele>411.1</ele>
        <time>2011-05-24T06:51:46Z</time>
      </trkpt>
      <trkpt lat="43.56367" lon="6.90227">
        <ele>413.98</ele>
        <time>2011-05-24T06:51:49Z</time>
      </trkpt>
      <trkpt lat="43.56365" lon="6.9022">
        <ele>412.06</ele>
        <time>2011-05-24T06:51:50Z</time>
      </trkpt>
      <trkpt lat="43.56363" lon="6.90213">
        <ele>408.7</ele>
        <time>2011-05-24T06:51:51Z</time>
      </trkpt>
      <trkpt lat="43.56359" lon="6.902">
        <ele>408.22</ele>
        <time>2011-05-24T06:51:53Z</time>
      </trkpt>
      <trkpt lat="43.56339" lon="6.90174">
        <ele>405.81</ele>
        <time>2011-05-24T06:51:59Z</time>
      </trkpt>
      <trkpt lat="43.56327" lon="6.90171">
        <ele>404.85</ele>
        <time>2011-05-24T06:52:02Z</time>
      </trkpt>
      <trkpt lat="43.56318" lon="6.90172">
        <ele>403.41</ele>
        <time>2011-05-24T06:52:04Z</time>
      </trkpt>
      <trkpt lat="43.56306" lon="6.90178">
        <ele>403.89</ele>
        <time>2011-05-24T06:52:07Z</time>
      </trkpt>
      <trkpt lat="43.56296" lon="6.90188">
        <ele>404.85</ele>
        <time>2011-05-24T06:52:10Z</time>
      </trkpt>
      <trkpt lat="43.56288" lon="6.90194">
        <ele>402.45</ele>
        <time>2011-05-24T06:52:12Z</time>
      </trkpt>
      <trkpt lat="43.56274" lon="6.90187">
        <ele>403.41</ele>
        <time>2011-05-24T06:52:16Z</time>
      </trkpt>
      <trkpt lat="43.56263" lon="6.90178">
        <ele>400.05</ele>
        <time>2011-05-24T06:52:19Z</time>
      </trkpt>
      <trkpt lat="43.56254" lon="6.90176">
        <ele>401.01</ele>
        <time>2011-05-24T06:52:21Z</time>
      </trkpt>
      <trkpt lat="43.5625" lon="6.90178">
        <ele>403.41</ele>
        <time>2011-05-24T06:52:22Z</time>
      </trkpt>
      <trkpt lat="43.5623" lon="6.90179">
        <ele>397.64</ele>
        <time>2011-05-24T06:52:27Z</time>
      </trkpt>
      <trkpt lat="43.56214" lon="6.90163">
        <ele>396.68</ele>
        <time>2011-05-24T06:52:31Z</time>
      </trkpt>
      <trkpt lat="43.56205" lon="6.90149">
        <ele>395.24</ele>
        <time>2011-05-24T06:52:34Z</time>
      </trkpt>
      <trkpt lat="43.56191" lon="6.90145">
        <ele>393.32</ele>
        <time>2011-05-24T06:52:37Z</time>
      </trkpt>
      <trkpt lat="43.56169" lon="6.9015">
        <ele>393.32</ele>
        <time>2011-05-24T06:52:42Z</time>
      </trkpt>
      <trkpt lat="43.56157" lon="6.90146">
        <ele>394.28</ele>
        <time>2011-05-24T06:52:45Z</time>
      </trkpt>
      <trkpt lat="43.56148" lon="6.90141">
        <ele>389.95</ele>
        <time>2011-05-24T06:52:47Z</time>
      </trkpt>
      <trkpt lat="43.56144" lon="6.90138">
        <ele>393.32</ele>
        <time>2011-05-24T06:52:48Z</time>
      </trkpt>
      <trkpt lat="43.56126" lon="6.90131">
        <ele>388.51</ele>
        <time>2011-05-24T06:52:52Z</time>
      </trkpt>
      <trkpt lat="43.56113" lon="6.90125">
        <ele>386.59</ele>
        <time>2011-05-24T06:52:55Z</time>
      </trkpt>
      <trkpt lat="43.56109" lon="6.90122">
        <ele>389.47</ele>
        <time>2011-05-24T06:52:56Z</time>
      </trkpt>
      <trkpt lat="43.56096" lon="6.90107">
        <ele>384.18</ele>
        <time>2011-05-24T06:53:00Z</time>
      </trkpt>
      <trkpt lat="43.56091" lon="6.90104">
        <ele>388.03</ele>
        <time>2011-05-24T06:53:01Z</time>
      </trkpt>
      <trkpt lat="43.56081" lon="6.90103">
        <ele>387.07</ele>
        <time>2011-05-24T06:53:03Z</time>
      </trkpt>
      <trkpt lat="43.56065" lon="6.90104">
        <ele>385.63</ele>
        <time>2011-05-24T06:53:06Z</time>
      </trkpt>
      <trkpt lat="43.56048" lon="6.90108">
        <ele>379.38</ele>
        <time>2011-05-24T06:53:10Z</time>
      </trkpt>
      <trkpt lat="43.56044" lon="6.90109">
        <ele>381.3</ele>
        <time>2011-05-24T06:53:11Z</time>
      </trkpt>
      <trkpt lat="43.56028" lon="6.90106">
        <ele>381.3</ele>
        <time>2011-05-24T06:53:15Z</time>
      </trkpt>
      <trkpt lat="43.56021" lon="6.901">
        <ele>380.82</ele>
        <time>2011-05-24T06:53:17Z</time>
      </trkpt>
      <trkpt lat="43.56002" lon="6.90081">
        <ele>378.42</ele>
        <time>2011-05-24T06:53:22Z</time>
      </trkpt>
      <trkpt lat="43.55989" lon="6.90065">
        <ele>375.53</ele>
        <time>2011-05-24T06:53:26Z</time>
      </trkpt>
      <trkpt lat="43.55974" lon="6.90053">
        <ele>376.97</ele>
        <time>2011-05-24T06:53:30Z</time>
      </trkpt>
      <trkpt lat="43.55967" lon="6.90047">
        <ele>374.09</ele>
        <time>2011-05-24T06:53:32Z</time>
      </trkpt>
      <trkpt lat="43.55963" lon="6.90045">
        <ele>373.13</ele>
        <time>2011-05-24T06:53:33Z</time>
      </trkpt>
      <trkpt lat="43.55951" lon="6.9003">
        <ele>371.21</ele>
        <time>2011-05-24T06:53:37Z</time>
      </trkpt>
      <trkpt lat="43.5595" lon="6.90025">
        <ele>374.09</ele>
        <time>2011-05-24T06:53:38Z</time>
      </trkpt>
      <trkpt lat="43.55946" lon="6.9001">
        <ele>372.17</ele>
        <time>2011-05-24T06:53:41Z</time>
      </trkpt>
      <trkpt lat="43.55936" lon="6.90002">
        <ele>371.21</ele>
        <time>2011-05-24T06:53:44Z</time>
      </trkpt>
      <trkpt lat="43.55919" lon="6.90006">
        <ele>372.17</ele>
        <time>2011-05-24T06:53:48Z</time>
      </trkpt>
      <trkpt lat="43.55911" lon="6.90016">
        <ele>368.32</ele>
        <time>2011-05-24T06:53:50Z</time>
      </trkpt>
      <trkpt lat="43.55895" lon="6.90034">
        <ele>361.59</ele>
        <time>2011-05-24T06:53:54Z</time>
      </trkpt>
      <trkpt lat="43.55891" lon="6.90039">
        <ele>364.96</ele>
        <time>2011-05-24T06:53:55Z</time>
      </trkpt>
      <trkpt lat="43.55879" lon="6.90058">
        <ele>364.48</ele>
        <time>2011-05-24T06:53:59Z</time>
      </trkpt>
      <trkpt lat="43.55876" lon="6.90088">
        <ele>360.15</ele>
        <time>2011-05-24T06:54:03Z</time>
      </trkpt>
      <trkpt lat="43.55872" lon="6.90102">
        <ele>361.11</ele>
        <time>2011-05-24T06:54:05Z</time>
      </trkpt>
      <trkpt lat="43.55868" lon="6.90115">
        <ele>359.67</ele>
        <time>2011-05-24T06:54:07Z</time>
      </trkpt>
      <trkpt lat="43.55863" lon="6.90128">
        <ele>360.15</ele>
        <time>2011-05-24T06:54:09Z</time>
      </trkpt>
      <trkpt lat="43.5585" lon="6.90143">
        <ele>354.86</ele>
        <time>2011-05-24T06:54:13Z</time>
      </trkpt>
      <trkpt lat="43.55846" lon="6.90145">
        <ele>356.31</ele>
        <time>2011-05-24T06:54:14Z</time>
      </trkpt>
      <trkpt lat="43.55829" lon="6.9015">
        <ele>355.34</ele>
        <time>2011-05-24T06:54:18Z</time>
      </trkpt>
      <trkpt lat="43.55808" lon="6.90141">
        <ele>352.94</ele>
        <time>2011-05-24T06:54:22Z</time>
      </trkpt>
      <trkpt lat="43.55786" lon="6.90127">
        <ele>351.5</ele>
        <time>2011-05-24T06:54:26Z</time>
      </trkpt>
      <trkpt lat="43.55775" lon="6.9012">
        <ele>352.46</ele>
        <time>2011-05-24T06:54:28Z</time>
      </trkpt>
      <trkpt lat="43.55769" lon="6.90118">
        <ele>349.58</ele>
        <time>2011-05-24T06:54:29Z</time>
      </trkpt>
      <trkpt lat="43.55765" lon="6.90117">
        <ele>354.38</ele>
        <time>2011-05-24T06:54:30Z</time>
      </trkpt>
      <trkpt lat="43.55761" lon="6.90115">
        <ele>347.65</ele>
        <time>2011-05-24T06:54:31Z</time>
      </trkpt>
      <trkpt lat="43.55759" lon="6.90114">
        <ele>347.65</ele>
        <time>2011-05-24T06:54:32Z</time>
      </trkpt>
      <trkpt lat="43.55757" lon="6.90112">
        <ele>344.29</ele>
        <time>2011-05-24T06:54:33Z</time>
      </trkpt>
      <trkpt lat="43.55755" lon="6.9011">
        <ele>348.62</ele>
        <time>2011-05-24T06:54:34Z</time>
      </trkpt>
      <trkpt lat="43.5575" lon="6.90104">
        <ele>345.73</ele>
        <time>2011-05-24T06:54:37Z</time>
      </trkpt>
      <trkpt lat="43.55744" lon="6.90111">
        <ele>351.02</ele>
        <time>2011-05-24T06:54:42Z</time>
      </trkpt>
      <trkpt lat="43.55745" lon="6.90113">
        <ele>344.77</ele>
        <time>2011-05-24T06:54:43Z</time>
      </trkpt>
      <trkpt lat="43.55748" lon="6.90118">
        <ele>345.25</ele>
        <time>2011-05-24T06:54:46Z</time>
      </trkpt>
      <trkpt lat="43.55748" lon="6.90118">
        <ele>345.25</ele>
        <time>2011-05-24T06:54:47Z</time>
      </trkpt>
      <trkpt lat="43.55748" lon="6.90119">
        <ele>346.21</ele>
        <time>2011-05-24T06:54:49Z</time>
      </trkpt>
      <trkpt lat="43.55746" lon="6.9012">
        <ele>342.37</ele>
        <time>2011-05-24T06:55:03Z</time>
      </trkpt>
      <trkpt lat="43.55746" lon="6.9012">
        <ele>347.17</ele>
        <time>2011-05-24T06:55:04Z</time>
      </trkpt>
      <trkpt lat="43.55746" lon="6.9012">
        <ele>343.81</ele>
        <time>2011-05-24T06:55:05Z</time>
      </trkpt>
      <trkpt lat="43.55746" lon="6.9012">
        <ele>347.17</ele>
        <time>2011-05-24T06:55:08Z</time>
      </trkpt>
      <trkpt lat="43.55746" lon="6.9012">
        <ele>342.37</ele>
        <time>2011-05-24T06:55:12Z</time>
      </trkpt>
      <trkpt lat="43.55746" lon="6.9012">
        <ele>344.29</ele>
        <time>2011-05-24T06:55:13Z</time>
      </trkpt>
      <trkpt lat="43.55746" lon="6.9012">
        <ele>348.13</ele>
        <time>2011-05-24T06:55:14Z</time>
      </trkpt>
      <trkpt lat="43.55746" lon="6.9012">
        <ele>344.29</ele>
        <time>2011-05-24T06:55:15Z</time>
      </trkpt>
      <trkpt lat="43.55747" lon="6.9012">
        <ele>347.17</ele>
        <time>2011-05-24T06:55:17Z</time>
      </trkpt>
      <trkpt lat="43.55748" lon="6.9012">
        <ele>346.69</ele>
        <time>2011-05-24T06:55:18Z</time>
      </trkpt>
      <trkpt lat="43.5575" lon="6.9012">
        <ele>343.33</ele>
        <time>2011-05-24T06:55:21Z</time>
      </trkpt>
      <trkpt lat="43.55751" lon="6.9012">
        <ele>347.65</ele>
        <time>2011-05-24T06:55:22Z</time>
      </trkpt>
      <trkpt lat="43.55752" lon="6.9012">
        <ele>343.81</ele>
        <time>2011-05-24T06:55:26Z</time>
      </trkpt>
      <trkpt lat="43.55751" lon="6.9012">
        <ele>346.21</ele>
        <time>2011-05-24T06:55:27Z</time>
      </trkpt>
      <trkpt lat="43.55751" lon="6.90119">
        <ele>347.17</ele>
        <time>2011-05-24T06:55:29Z</time>
      </trkpt>
      <trkpt lat="43.55752" lon="6.90119">
        <ele>344.29</ele>
        <time>2011-05-24T06:55:30Z</time>
      </trkpt>
      <trkpt lat="43.55752" lon="6.90119">
        <ele>344.77</ele>
        <time>2011-05-24T06:55:31Z</time>
      </trkpt>
      <trkpt lat="43.55751" lon="6.90119">
        <ele>346.69</ele>
        <time>2011-05-24T06:55:38Z</time>
      </trkpt>
      <trkpt lat="43.55751" lon="6.90119">
        <ele>350.54</ele>
        <time>2011-05-24T06:55:52Z</time>
      </trkpt>
      <trkpt lat="43.55751" lon="6.90119">
        <ele>343.81</ele>
        <time>2011-05-24T06:55:53Z</time>
      </trkpt>
      <trkpt lat="43.55751" lon="6.90119">
        <ele>346.21</ele>
        <time>2011-05-24T06:55:54Z</time>
      </trkpt>
      <trkpt lat="43.55751" lon="6.90119">
        <ele>347.65</ele>
        <time>2011-05-24T06:56:18Z</time>
      </trkpt>
      <trkpt lat="43.55751" lon="6.90119">
        <ele>350.54</ele>
        <time>2011-05-24T06:56:32Z</time>
      </trkpt>
      <trkpt lat="43.55751" lon="6.90119">
        <ele>346.21</ele>
        <time>2011-05-24T06:56:33Z</time>
      </trkpt>
      <trkpt lat="43.55751" lon="6.90119">
        <ele>341.89</ele>
        <time>2011-05-24T06:56:36Z</time>
      </trkpt>
      <trkpt lat="43.55751" lon="6.90119">
        <ele>347.17</ele>
        <time>2011-05-24T06:56:37Z</time>
      </trkpt>
      <trkpt lat="43.55751" lon="6.90119">
        <ele>343.81</ele>
        <time>2011-05-24T06:56:43Z</time>
      </trkpt>
      <trkpt lat="43.55751" lon="6.90119">
        <ele>349.1</ele>
        <time>2011-05-24T06:56:44Z</time>
      </trkpt>
      <trkpt lat="43.55751" lon="6.90119">
        <ele>349.1</ele>
        <time>2011-05-24T06:56:45Z</time>
      </trkpt>
      <trkpt lat="43.55751" lon="6.90119">
        <ele>345.25</ele>
        <time>2011-05-24T06:56:48Z</time>
      </trkpt>
      <trkpt lat="43.55751" lon="6.90119">
        <ele>348.62</ele>
        <time>2011-05-24T06:56:54Z</time>
      </trkpt>
      <trkpt lat="43.55751" lon="6.90119">
        <ele>346.21</ele>
        <time>2011-05-24T06:56:57Z</time>
      </trkpt>
      <trkpt lat="43.55751" lon="6.90119">
        <ele>347.65</ele>
        <time>2011-05-24T06:57:05Z</time>
      </trkpt>
      <trkpt lat="43.55751" lon="6.90119">
        <ele>346.21</ele>
        <time>2011-05-24T06:57:07Z</time>
      </trkpt>
      <trkpt lat="43.55751" lon="6.90119">
        <ele>348.62</ele>
        <time>2011-05-24T06:57:13Z</time>
      </trkpt>
      <trkpt lat="43.55774" lon="6.90131">
        <ele>347.65</ele>
        <time>2011-05-24T06:57:24Z</time>
      </trkpt>
      <trkpt lat="43.55777" lon="6.90134">
        <ele>343.81</ele>
        <time>2011-05-24T06:57:25Z</time>
      </trkpt>
      <trkpt lat="43.55781" lon="6.90136">
        <ele>346.21</ele>
        <time>2011-05-24T06:57:26Z</time>
      </trkpt>
      <trkpt lat="43.55805" lon="6.90158">
        <ele>341.41</ele>
        <time>2011-05-24T06:57:33Z</time>
      </trkpt>
      <trkpt lat="43.55809" lon="6.90161">
        <ele>346.21</ele>
        <time>2011-05-24T06:57:34Z</time>
      </trkpt>
      <trkpt lat="43.55818" lon="6.90168">
        <ele>338.52</ele>
        <time>2011-05-24T06:57:36Z</time>
      </trkpt>
      <trkpt lat="43.55822" lon="6.90171">
        <ele>343.81</ele>
        <time>2011-05-24T06:57:37Z</time>
      </trkpt>
      <trkpt lat="43.55829" lon="6.90177">
        <ele>339.96</ele>
        <time>2011-05-24T06:57:39Z</time>
      </trkpt>
      <trkpt lat="43.55833" lon="6.90179">
        <ele>340.92</ele>
        <time>2011-05-24T06:57:40Z</time>
      </trkpt>
      <trkpt lat="43.55852" lon="6.90179">
        <ele>340.92</ele>
        <time>2011-05-24T06:57:46Z</time>
      </trkpt>
      <trkpt lat="43.55882" lon="6.90142">
        <ele>336.6</ele>
        <time>2011-05-24T06:57:54Z</time>
      </trkpt>
      <trkpt lat="43.55891" lon="6.90122">
        <ele>336.6</ele>
        <time>2011-05-24T06:57:57Z</time>
      </trkpt>
      <trkpt lat="43.55903" lon="6.90099">
        <ele>335.64</ele>
        <time>2011-05-24T06:58:01Z</time>
      </trkpt>
      <trkpt lat="43.5591" lon="6.9009">
        <ele>334.2</ele>
        <time>2011-05-24T06:58:03Z</time>
      </trkpt>
      <trkpt lat="43.55918" lon="6.90091">
        <ele>337.56</ele>
        <time>2011-05-24T06:58:05Z</time>
      </trkpt>
      <trkpt lat="43.55924" lon="6.901">
        <ele>334.68</ele>
        <time>2011-05-24T06:58:07Z</time>
      </trkpt>
      <trkpt lat="43.55926" lon="6.90107">
        <ele>334.2</ele>
        <time>2011-05-24T06:58:08Z</time>
      </trkpt>
      <trkpt lat="43.55924" lon="6.90128">
        <ele>335.64</ele>
        <time>2011-05-24T06:58:11Z</time>
      </trkpt>
      <trkpt lat="43.55926" lon="6.90141">
        <ele>331.31</ele>
        <time>2011-05-24T06:58:13Z</time>
      </trkpt>
      <trkpt lat="43.55929" lon="6.90148">
        <ele>331.31</ele>
        <time>2011-05-24T06:58:14Z</time>
      </trkpt>
      <trkpt lat="43.55947" lon="6.90183">
        <ele>330.35</ele>
        <time>2011-05-24T06:58:20Z</time>
      </trkpt>
      <trkpt lat="43.55949" lon="6.90196">
        <ele>330.83</ele>
        <time>2011-05-24T06:58:22Z</time>
      </trkpt>
      <trkpt lat="43.55969" lon="6.90235">
        <ele>328.91</ele>
        <time>2011-05-24T06:58:28Z</time>
      </trkpt>
      <trkpt lat="43.55974" lon="6.90239">
        <ele>325.06</ele>
        <time>2011-05-24T06:58:29Z</time>
      </trkpt>
      <trkpt lat="43.55984" lon="6.90246">
        <ele>326.99</ele>
        <time>2011-05-24T06:58:31Z</time>
      </trkpt>
      <trkpt lat="43.56001" lon="6.90254">
        <ele>325.54</ele>
        <time>2011-05-24T06:58:34Z</time>
      </trkpt>
      <trkpt lat="43.56012" lon="6.90258">
        <ele>323.62</ele>
        <time>2011-05-24T06:58:36Z</time>
      </trkpt>
      <trkpt lat="43.56017" lon="6.90259">
        <ele>323.62</ele>
        <time>2011-05-24T06:58:37Z</time>
      </trkpt>
      <trkpt lat="43.56033" lon="6.90258">
        <ele>322.18</ele>
        <time>2011-05-24T06:58:40Z</time>
      </trkpt>
      <trkpt lat="43.56037" lon="6.90255">
        <ele>322.18</ele>
        <time>2011-05-24T06:58:41Z</time>
      </trkpt>
      <trkpt lat="43.56043" lon="6.90248">
        <ele>324.1</ele>
        <time>2011-05-24T06:58:43Z</time>
      </trkpt>
      <trkpt lat="43.5605" lon="6.90246">
        <ele>321.7</ele>
        <time>2011-05-24T06:58:45Z</time>
      </trkpt>
      <trkpt lat="43.56059" lon="6.90276">
        <ele>317.85</ele>
        <time>2011-05-24T06:58:50Z</time>
      </trkpt>
      <trkpt lat="43.56061" lon="6.90281">
        <ele>322.18</ele>
        <time>2011-05-24T06:58:51Z</time>
      </trkpt>
      <trkpt lat="43.56074" lon="6.90289">
        <ele>319.3</ele>
        <time>2011-05-24T06:58:54Z</time>
      </trkpt>
      <trkpt lat="43.56079" lon="6.90289">
        <ele>322.18</ele>
        <time>2011-05-24T06:58:55Z</time>
      </trkpt>
      <trkpt lat="43.56089" lon="6.90288">
        <ele>321.22</ele>
        <time>2011-05-24T06:58:57Z</time>
      </trkpt>
      <trkpt lat="43.56107" lon="6.90299">
        <ele>316.41</ele>
        <time>2011-05-24T06:59:01Z</time>
      </trkpt>
      <trkpt lat="43.5611" lon="6.90304">
        <ele>317.37</ele>
        <time>2011-05-24T06:59:02Z</time>
      </trkpt>
      <trkpt lat="43.56116" lon="6.90311">
        <ele>317.37</ele>
        <time>2011-05-24T06:59:04Z</time>
      </trkpt>
      <trkpt lat="43.56124" lon="6.90314">
        <ele>315.93</ele>
        <time>2011-05-24T06:59:06Z</time>
      </trkpt>
      <trkpt lat="43.56137" lon="6.90317">
        <ele>319.78</ele>
        <time>2011-05-24T06:59:09Z</time>
      </trkpt>
      <trkpt lat="43.56145" lon="6.9032">
        <ele>312.57</ele>
        <time>2011-05-24T06:59:11Z</time>
      </trkpt>
      <trkpt lat="43.56148" lon="6.90324">
        <ele>314.97</ele>
        <time>2011-05-24T06:59:12Z</time>
      </trkpt>
      <trkpt lat="43.56143" lon="6.90347">
        <ele>319.3</ele>
        <time>2011-05-24T06:59:17Z</time>
      </trkpt>
      <trkpt lat="43.5614" lon="6.90349">
        <ele>315.45</ele>
        <time>2011-05-24T06:59:18Z</time>
      </trkpt>
      <trkpt lat="43.56128" lon="6.90358">
        <ele>312.57</ele>
        <time>2011-05-24T06:59:24Z</time>
      </trkpt>
      <trkpt lat="43.56126" lon="6.90361">
        <ele>314.97</ele>
        <time>2011-05-24T06:59:25Z</time>
      </trkpt>
      <trkpt lat="43.56124" lon="6.90365">
        <ele>318.33</ele>
        <time>2011-05-24T06:59:27Z</time>
      </trkpt>
      <trkpt lat="43.56123" lon="6.90367">
        <ele>318.33</ele>
        <time>2011-05-24T06:59:28Z</time>
      </trkpt>
      <trkpt lat="43.56101" lon="6.90378">
        <ele>314.97</ele>
        <time>2011-05-24T06:59:39Z</time>
      </trkpt>
      <trkpt lat="43.56098" lon="6.90378">
        <ele>318.81</ele>
        <time>2011-05-24T06:59:40Z</time>
      </trkpt>
      <trkpt lat="43.56095" lon="6.90378">
        <ele>319.3</ele>
        <time>2011-05-24T06:59:41Z</time>
      </trkpt>
      <trkpt lat="43.56085" lon="6.90381">
        <ele>317.85</ele>
        <time>2011-05-24T06:59:44Z</time>
      </trkpt>
      <trkpt lat="43.56057" lon="6.90414">
        <ele>316.41</ele>
        <time>2011-05-24T06:59:53Z</time>
      </trkpt>
      <trkpt lat="43.56028" lon="6.90433">
        <ele>314.97</ele>
        <time>2011-05-24T07:00:02Z</time>
      </trkpt>
      <trkpt lat="43.56024" lon="6.90434">
        <ele>316.89</ele>
        <time>2011-05-24T07:00:03Z</time>
      </trkpt>
      <trkpt lat="43.5602" lon="6.90435">
        <ele>320.74</ele>
        <time>2011-05-24T07:00:04Z</time>
      </trkpt>
      <trkpt lat="43.56017" lon="6.90437">
        <ele>320.74</ele>
        <time>2011-05-24T07:00:05Z</time>
      </trkpt>
      <trkpt lat="43.56003" lon="6.90444">
        <ele>315.93</ele>
        <time>2011-05-24T07:00:09Z</time>
      </trkpt>
      <trkpt lat="43.56" lon="6.90445">
        <ele>320.74</ele>
        <time>2011-05-24T07:00:10Z</time>
      </trkpt>
      <trkpt lat="43.55958" lon="6.90461">
        <ele>322.66</ele>
        <time>2011-05-24T07:00:22Z</time>
      </trkpt>
      <trkpt lat="43.55955" lon="6.90463">
        <ele>319.3</ele>
        <time>2011-05-24T07:00:23Z</time>
      </trkpt>
      <trkpt lat="43.55945" lon="6.90471">
        <ele>322.66</ele>
        <time>2011-05-24T07:00:26Z</time>
      </trkpt>
      <trkpt lat="43.55942" lon="6.90474">
        <ele>318.81</ele>
        <time>2011-05-24T07:00:27Z</time>
      </trkpt>
      <trkpt lat="43.55933" lon="6.90491">
        <ele>321.7</ele>
        <time>2011-05-24T07:00:31Z</time>
      </trkpt>
      <trkpt lat="43.55928" lon="6.90518">
        <ele>315.93</ele>
        <time>2011-05-24T07:00:36Z</time>
      </trkpt>
      <trkpt lat="43.55927" lon="6.90524">
        <ele>317.85</ele>
        <time>2011-05-24T07:00:37Z</time>
      </trkpt>
      <trkpt lat="43.55923" lon="6.90543">
        <ele>321.22</ele>
        <time>2011-05-24T07:00:40Z</time>
      </trkpt>
      <trkpt lat="43.55918" lon="6.90562">
        <ele>317.85</ele>
        <time>2011-05-24T07:00:43Z</time>
      </trkpt>
      <trkpt lat="43.55916" lon="6.90568">
        <ele>318.33</ele>
        <time>2011-05-24T07:00:44Z</time>
      </trkpt>
      <trkpt lat="43.55911" lon="6.9058">
        <ele>319.78</ele>
        <time>2011-05-24T07:00:46Z</time>
      </trkpt>
      <trkpt lat="43.55901" lon="6.90602">
        <ele>315.93</ele>
        <time>2011-05-24T07:00:50Z</time>
      </trkpt>
      <trkpt lat="43.55885" lon="6.90634">
        <ele>320.74</ele>
        <time>2011-05-24T07:00:58Z</time>
      </trkpt>
      <trkpt lat="43.55876" lon="6.90608">
        <ele>317.37</ele>
        <time>2011-05-24T07:01:03Z</time>
      </trkpt>
      <trkpt lat="43.55876" lon="6.90603">
        <ele>316.89</ele>
        <time>2011-05-24T07:01:04Z</time>
      </trkpt>
      <trkpt lat="43.55878" lon="6.90592">
        <ele>318.81</ele>
        <time>2011-05-24T07:01:06Z</time>
      </trkpt>
      <trkpt lat="43.55879" lon="6.90587">
        <ele>318.33</ele>
        <time>2011-05-24T07:01:07Z</time>
      </trkpt>
      <trkpt lat="43.55881" lon="6.90576">
        <ele>316.89</ele>
        <time>2011-05-24T07:01:09Z</time>
      </trkpt>
      <trkpt lat="43.55873" lon="6.90558">
        <ele>320.74</ele>
        <time>2011-05-24T07:01:13Z</time>
      </trkpt>
      <trkpt lat="43.55859" lon="6.9055">
        <ele>317.37</ele>
        <time>2011-05-24T07:01:16Z</time>
      </trkpt>
      <trkpt lat="43.55854" lon="6.90547">
        <ele>317.37</ele>
        <time>2011-05-24T07:01:17Z</time>
      </trkpt>
      <trkpt lat="43.55844" lon="6.90543">
        <ele>314.49</ele>
        <time>2011-05-24T07:01:19Z</time>
      </trkpt>
      <trkpt lat="43.55821" lon="6.90555">
        <ele>315.93</ele>
        <time>2011-05-24T07:01:26Z</time>
      </trkpt>
      <trkpt lat="43.55815" lon="6.90569">
        <ele>313.53</ele>
        <time>2011-05-24T07:01:29Z</time>
      </trkpt>
      <trkpt lat="43.55808" lon="6.90573">
        <ele>308.72</ele>
        <time>2011-05-24T07:01:31Z</time>
      </trkpt>
      <trkpt lat="43.55798" lon="6.90575">
        <ele>311.12</ele>
        <time>2011-05-24T07:01:33Z</time>
      </trkpt>
      <trkpt lat="43.55777" lon="6.90583">
        <ele>307.28</ele>
        <time>2011-05-24T07:01:37Z</time>
      </trkpt>
      <trkpt lat="43.55767" lon="6.90588">
        <ele>303.43</ele>
        <time>2011-05-24T07:01:39Z</time>
      </trkpt>
      <trkpt lat="43.55762" lon="6.90592">
        <ele>307.76</ele>
        <time>2011-05-24T07:01:40Z</time>
      </trkpt>
      <trkpt lat="43.55754" lon="6.90597">
        <ele>302.47</ele>
        <time>2011-05-24T07:01:42Z</time>
      </trkpt>
      <trkpt lat="43.55749" lon="6.90596">
        <ele>304.39</ele>
        <time>2011-05-24T07:01:43Z</time>
      </trkpt>
      <trkpt lat="43.55737" lon="6.90583">
        <ele>301.03</ele>
        <time>2011-05-24T07:01:46Z</time>
      </trkpt>
      <trkpt lat="43.55734" lon="6.90577">
        <ele>301.51</ele>
        <time>2011-05-24T07:01:47Z</time>
      </trkpt>
      <trkpt lat="43.55727" lon="6.90568">
        <ele>297.67</ele>
        <time>2011-05-24T07:01:49Z</time>
      </trkpt>
      <trkpt lat="43.55723" lon="6.90566">
        <ele>299.59</ele>
        <time>2011-05-24T07:01:50Z</time>
      </trkpt>
      <trkpt lat="43.55708" lon="6.90567">
        <ele>296.7</ele>
        <time>2011-05-24T07:01:53Z</time>
      </trkpt>
      <trkpt lat="43.55699" lon="6.90571">
        <ele>291.9</ele>
        <time>2011-05-24T07:01:55Z</time>
      </trkpt>
      <trkpt lat="43.55695" lon="6.90573">
        <ele>295.74</ele>
        <time>2011-05-24T07:01:56Z</time>
      </trkpt>
      <trkpt lat="43.5568" lon="6.90577">
        <ele>291.9</ele>
        <time>2011-05-24T07:02:00Z</time>
      </trkpt>
      <trkpt lat="43.55676" lon="6.90574">
        <ele>292.86</ele>
        <time>2011-05-24T07:02:01Z</time>
      </trkpt>
      <trkpt lat="43.55669" lon="6.90563">
        <ele>290.46</ele>
        <time>2011-05-24T07:02:03Z</time>
      </trkpt>
      <trkpt lat="43.55654" lon="6.9054">
        <ele>286.13</ele>
        <time>2011-05-24T07:02:07Z</time>
      </trkpt>
      <trkpt lat="43.55639" lon="6.90526">
        <ele>284.69</ele>
        <time>2011-05-24T07:02:11Z</time>
      </trkpt>
      <trkpt lat="43.55628" lon="6.90517">
        <ele>281.8</ele>
        <time>2011-05-24T07:02:14Z</time>
      </trkpt>
      <trkpt lat="43.55602" lon="6.905">
        <ele>278.92</ele>
        <time>2011-05-24T07:02:21Z</time>
      </trkpt>
      <trkpt lat="43.55598" lon="6.90501">
        <ele>278.44</ele>
        <time>2011-05-24T07:02:22Z</time>
      </trkpt>
      <trkpt lat="43.55584" lon="6.90509">
        <ele>278.44</ele>
        <time>2011-05-24T07:02:25Z</time>
      </trkpt>
      <trkpt lat="43.55577" lon="6.90517">
        <ele>272.67</ele>
        <time>2011-05-24T07:02:27Z</time>
      </trkpt>
      <trkpt lat="43.55573" lon="6.90522">
        <ele>276.52</ele>
        <time>2011-05-24T07:02:28Z</time>
      </trkpt>
      <trkpt lat="43.55565" lon="6.90537">
        <ele>272.19</ele>
        <time>2011-05-24T07:02:31Z</time>
      </trkpt>
      <trkpt lat="43.55545" lon="6.90549">
        <ele>272.19</ele>
        <time>2011-05-24T07:02:38Z</time>
      </trkpt>
      <trkpt lat="43.55537" lon="6.90531">
        <ele>266.9</ele>
        <time>2011-05-24T07:02:41Z</time>
      </trkpt>
      <trkpt lat="43.55533" lon="6.90517">
        <ele>270.27</ele>
        <time>2011-05-24T07:02:43Z</time>
      </trkpt>
      <trkpt lat="43.55512" lon="6.90485">
        <ele>265.46</ele>
        <time>2011-05-24T07:02:49Z</time>
      </trkpt>
      <trkpt lat="43.55508" lon="6.9048">
        <ele>264.98</ele>
        <time>2011-05-24T07:02:50Z</time>
      </trkpt>
      <trkpt lat="43.55486" lon="6.90462">
        <ele>262.58</ele>
        <time>2011-05-24T07:02:55Z</time>
      </trkpt>
      <trkpt lat="43.55469" lon="6.90445">
        <ele>260.17</ele>
        <time>2011-05-24T07:02:59Z</time>
      </trkpt>
      <trkpt lat="43.5546" lon="6.90438">
        <ele>258.25</ele>
        <time>2011-05-24T07:03:01Z</time>
      </trkpt>
      <trkpt lat="43.55443" lon="6.90427">
        <ele>255.85</ele>
        <time>2011-05-24T07:03:04Z</time>
      </trkpt>
      <trkpt lat="43.55423" lon="6.90419">
        <ele>257.29</ele>
        <time>2011-05-24T07:03:07Z</time>
      </trkpt>
      <trkpt lat="43.55398" lon="6.9041">
        <ele>256.81</ele>
        <time>2011-05-24T07:03:11Z</time>
      </trkpt>
      <trkpt lat="43.55356" lon="6.90385">
        <ele>253.44</ele>
        <time>2011-05-24T07:03:19Z</time>
      </trkpt>
      <trkpt lat="43.5533" lon="6.90347">
        <ele>259.69</ele>
        <time>2011-05-24T07:03:29Z</time>
      </trkpt>
      <trkpt lat="43.55328" lon="6.90337">
        <ele>256.33</ele>
        <time>2011-05-24T07:03:32Z</time>
      </trkpt>
      <trkpt lat="43.55327" lon="6.90334">
        <ele>260.65</ele>
        <time>2011-05-24T07:03:33Z</time>
      </trkpt>
      <trkpt lat="43.55328" lon="6.90323">
        <ele>256.81</ele>
        <time>2011-05-24T07:03:36Z</time>
      </trkpt>
      <trkpt lat="43.55328" lon="6.9032">
        <ele>262.1</ele>
        <time>2011-05-24T07:03:37Z</time>
      </trkpt>
      <trkpt lat="43.55328" lon="6.90317">
        <ele>259.21</ele>
        <time>2011-05-24T07:03:38Z</time>
      </trkpt>
      <trkpt lat="43.55326" lon="6.90312">
        <ele>257.29</ele>
        <time>2011-05-24T07:03:40Z</time>
      </trkpt>
      <trkpt lat="43.55324" lon="6.90311">
        <ele>262.1</ele>
        <time>2011-05-24T07:03:41Z</time>
      </trkpt>
      <trkpt lat="43.55321" lon="6.9031">
        <ele>258.73</ele>
        <time>2011-05-24T07:03:42Z</time>
      </trkpt>
      <trkpt lat="43.55319" lon="6.9031">
        <ele>259.69</ele>
        <time>2011-05-24T07:03:43Z</time>
      </trkpt>
      <trkpt lat="43.55313" lon="6.90315">
        <ele>258.73</ele>
        <time>2011-05-24T07:03:47Z</time>
      </trkpt>
      <trkpt lat="43.5531" lon="6.90322">
        <ele>258.25</ele>
        <time>2011-05-24T07:04:04Z</time>
      </trkpt>
      <trkpt lat="43.5531" lon="6.90322">
        <ele>261.62</ele>
        <time>2011-05-24T07:04:08Z</time>
      </trkpt>
      <trkpt lat="43.55309" lon="6.90324">
        <ele>262.58</ele>
        <time>2011-05-24T07:04:16Z</time>
      </trkpt>
      <trkpt lat="43.5531" lon="6.90324">
        <ele>257.29</ele>
        <time>2011-05-24T07:04:17Z</time>
      </trkpt>
      <trkpt lat="43.5531" lon="6.90324">
        <ele>258.25</ele>
        <time>2011-05-24T07:04:18Z</time>
      </trkpt>
      <trkpt lat="43.55309" lon="6.90324">
        <ele>259.69</ele>
        <time>2011-05-24T07:04:20Z</time>
      </trkpt>
      <trkpt lat="43.55307" lon="6.90328">
        <ele>257.77</ele>
        <time>2011-05-24T07:04:44Z</time>
      </trkpt>
      <trkpt lat="43.55306" lon="6.90343">
        <ele>257.77</ele>
        <time>2011-05-24T07:04:49Z</time>
      </trkpt>
      <trkpt lat="43.55306" lon="6.90346">
        <ele>257.77</ele>
        <time>2011-05-24T07:04:50Z</time>
      </trkpt>
      <trkpt lat="43.55306" lon="6.90349">
        <ele>262.1</ele>
        <time>2011-05-24T07:04:51Z</time>
      </trkpt>
      <trkpt lat="43.55305" lon="6.90354">
        <ele>261.14</ele>
        <time>2011-05-24T07:04:52Z</time>
      </trkpt>
      <trkpt lat="43.55303" lon="6.90369">
        <ele>258.25</ele>
        <time>2011-05-24T07:04:55Z</time>
      </trkpt>
      <trkpt lat="43.55302" lon="6.90374">
        <ele>263.06</ele>
        <time>2011-05-24T07:04:56Z</time>
      </trkpt>
      <trkpt lat="43.55301" lon="6.90383">
        <ele>259.69</ele>
        <time>2011-05-24T07:04:58Z</time>
      </trkpt>
      <trkpt lat="43.55297" lon="6.90409">
        <ele>264.02</ele>
        <time>2011-05-24T07:05:05Z</time>
      </trkpt>
      <trkpt lat="43.55296" lon="6.90412">
        <ele>264.02</ele>
        <time>2011-05-24T07:05:06Z</time>
      </trkpt>
      <trkpt lat="43.55296" lon="6.90415">
        <ele>259.21</ele>
        <time>2011-05-24T07:05:07Z</time>
      </trkpt>
      <trkpt lat="43.55295" lon="6.90418">
        <ele>260.17</ele>
        <time>2011-05-24T07:05:08Z</time>
      </trkpt>
      <trkpt lat="43.55294" lon="6.90425">
        <ele>262.58</ele>
        <time>2011-05-24T07:05:10Z</time>
      </trkpt>
      <trkpt lat="43.55285" lon="6.90471">
        <ele>265.46</ele>
        <time>2011-05-24T07:05:25Z</time>
      </trkpt>
      <trkpt lat="43.5528" lon="6.90474">
        <ele>263.06</ele>
        <time>2011-05-24T07:05:27Z</time>
      </trkpt>
      <trkpt lat="43.55277" lon="6.90474">
        <ele>266.42</ele>
        <time>2011-05-24T07:05:28Z</time>
      </trkpt>
      <trkpt lat="43.55261" lon="6.90478">
        <ele>263.06</ele>
        <time>2011-05-24T07:05:33Z</time>
      </trkpt>
      <trkpt lat="43.55258" lon="6.9048">
        <ele>267.86</ele>
        <time>2011-05-24T07:05:34Z</time>
      </trkpt>
      <trkpt lat="43.55255" lon="6.90481">
        <ele>265.46</ele>
        <time>2011-05-24T07:05:35Z</time>
      </trkpt>
      <trkpt lat="43.5523" lon="6.90492">
        <ele>269.31</ele>
        <time>2011-05-24T07:05:44Z</time>
      </trkpt>
      <trkpt lat="43.55224" lon="6.90498">
        <ele>265.94</ele>
        <time>2011-05-24T07:05:47Z</time>
      </trkpt>
      <trkpt lat="43.55222" lon="6.905">
        <ele>270.27</ele>
        <time>2011-05-24T07:05:48Z</time>
      </trkpt>
      <trkpt lat="43.55221" lon="6.90502">
        <ele>265.46</ele>
        <time>2011-05-24T07:05:49Z</time>
      </trkpt>
      <trkpt lat="43.5522" lon="6.90504">
        <ele>268.83</ele>
        <time>2011-05-24T07:05:50Z</time>
      </trkpt>
      <trkpt lat="43.55216" lon="6.90512">
        <ele>267.86</ele>
        <time>2011-05-24T07:05:54Z</time>
      </trkpt>
      <trkpt lat="43.55215" lon="6.90517">
        <ele>270.27</ele>
        <time>2011-05-24T07:05:56Z</time>
      </trkpt>
      <trkpt lat="43.55219" lon="6.90522">
        <ele>266.9</ele>
        <time>2011-05-24T07:05:59Z</time>
      </trkpt>
      <trkpt lat="43.5522" lon="6.90523">
        <ele>271.23</ele>
        <time>2011-05-24T07:06:00Z</time>
      </trkpt>
      <trkpt lat="43.55224" lon="6.90526">
        <ele>275.07</ele>
        <time>2011-05-24T07:06:02Z</time>
      </trkpt>
      <trkpt lat="43.55225" lon="6.90527">
        <ele>270.27</ele>
        <time>2011-05-24T07:06:03Z</time>
      </trkpt>
      <trkpt lat="43.55235" lon="6.90534">
        <ele>273.15</ele>
        <time>2011-05-24T07:06:09Z</time>
      </trkpt>
      <trkpt lat="43.55247" lon="6.90548">
        <ele>277.48</ele>
        <time>2011-05-24T07:06:18Z</time>
      </trkpt>
      <trkpt lat="43.55248" lon="6.9055">
        <ele>273.15</ele>
        <time>2011-05-24T07:06:19Z</time>
      </trkpt>
      <trkpt lat="43.55249" lon="6.90551">
        <ele>276.52</ele>
        <time>2011-05-24T07:06:20Z</time>
      </trkpt>
      <trkpt lat="43.55256" lon="6.9057">
        <ele>272.67</ele>
        <time>2011-05-24T07:06:30Z</time>
      </trkpt>
      <trkpt lat="43.55256" lon="6.90572">
        <ele>279.88</ele>
        <time>2011-05-24T07:06:31Z</time>
      </trkpt>
      <trkpt lat="43.55257" lon="6.90574">
        <ele>275.07</ele>
        <time>2011-05-24T07:06:32Z</time>
      </trkpt>
      <trkpt lat="43.55257" lon="6.90587">
        <ele>278.44</ele>
        <time>2011-05-24T07:06:39Z</time>
      </trkpt>
      <trkpt lat="43.55257" lon="6.90589">
        <ele>277.48</ele>
        <time>2011-05-24T07:06:40Z</time>
      </trkpt>
      <trkpt lat="43.55249" lon="6.90614">
        <ele>280.84</ele>
        <time>2011-05-24T07:06:54Z</time>
      </trkpt>
      <trkpt lat="43.55249" lon="6.90616">
        <ele>279.4</ele>
        <time>2011-05-24T07:06:55Z</time>
      </trkpt>
      <trkpt lat="43.55248" lon="6.90619">
        <ele>276.04</ele>
        <time>2011-05-24T07:06:57Z</time>
      </trkpt>
      <trkpt lat="43.55247" lon="6.90621">
        <ele>277.48</ele>
        <time>2011-05-24T07:06:58Z</time>
      </trkpt>
      <trkpt lat="43.55247" lon="6.90622">
        <ele>281.8</ele>
        <time>2011-05-24T07:06:59Z</time>
      </trkpt>
      <trkpt lat="43.55246" lon="6.90624">
        <ele>279.4</ele>
        <time>2011-05-24T07:07:00Z</time>
      </trkpt>
      <trkpt lat="43.55245" lon="6.90626">
        <ele>282.77</ele>
        <time>2011-05-24T07:07:01Z</time>
      </trkpt>
      <trkpt lat="43.55243" lon="6.9063">
        <ele>276.52</ele>
        <time>2011-05-24T07:07:04Z</time>
      </trkpt>
      <trkpt lat="43.55242" lon="6.90632">
        <ele>285.17</ele>
        <time>2011-05-24T07:07:05Z</time>
      </trkpt>
      <trkpt lat="43.55241" lon="6.90633">
        <ele>283.73</ele>
        <time>2011-05-24T07:07:06Z</time>
      </trkpt>
      <trkpt lat="43.55239" lon="6.90636">
        <ele>281.32</ele>
        <time>2011-05-24T07:07:08Z</time>
      </trkpt>
      <trkpt lat="43.55235" lon="6.9065">
        <ele>285.17</ele>
        <time>2011-05-24T07:07:16Z</time>
      </trkpt>
      <trkpt lat="43.55234" lon="6.90655">
        <ele>280.84</ele>
        <time>2011-05-24T07:07:19Z</time>
      </trkpt>
      <trkpt lat="43.55234" lon="6.90656">
        <ele>285.65</ele>
        <time>2011-05-24T07:07:20Z</time>
      </trkpt>
      <trkpt lat="43.55234" lon="6.90658">
        <ele>282.28</ele>
        <time>2011-05-24T07:07:21Z</time>
      </trkpt>
      <trkpt lat="43.55233" lon="6.9066">
        <ele>278.44</ele>
        <time>2011-05-24T07:07:23Z</time>
      </trkpt>
      <trkpt lat="43.55232" lon="6.90662">
        <ele>283.73</ele>
        <time>2011-05-24T07:07:24Z</time>
      </trkpt>
      <trkpt lat="43.55222" lon="6.90668">
        <ele>286.13</ele>
        <time>2011-05-24T07:07:30Z</time>
      </trkpt>
      <trkpt lat="43.55216" lon="6.90665">
        <ele>281.8</ele>
        <time>2011-05-24T07:07:34Z</time>
      </trkpt>
      <trkpt lat="43.55213" lon="6.90663">
        <ele>284.21</ele>
        <time>2011-05-24T07:07:35Z</time>
      </trkpt>
      <trkpt lat="43.5521" lon="6.90661">
        <ele>280.84</ele>
        <time>2011-05-24T07:07:36Z</time>
      </trkpt>
      <trkpt lat="43.55201" lon="6.90656">
        <ele>283.25</ele>
        <time>2011-05-24T07:07:39Z</time>
      </trkpt>
      <trkpt lat="43.55161" lon="6.90661">
        <ele>279.4</ele>
        <time>2011-05-24T07:07:49Z</time>
      </trkpt>
      <trkpt lat="43.55158" lon="6.90662">
        <ele>289.01</ele>
        <time>2011-05-24T07:07:50Z</time>
      </trkpt>
      <trkpt lat="43.55154" lon="6.90663">
        <ele>284.21</ele>
        <time>2011-05-24T07:07:51Z</time>
      </trkpt>
      <trkpt lat="43.5514" lon="6.90671">
        <ele>285.17</ele>
        <time>2011-05-24T07:07:56Z</time>
      </trkpt>
      <trkpt lat="43.55137" lon="6.90679">
        <ele>288.05</ele>
        <time>2011-05-24T07:08:00Z</time>
      </trkpt>
      <trkpt lat="43.55136" lon="6.90682">
        <ele>287.57</ele>
        <time>2011-05-24T07:08:01Z</time>
      </trkpt>
      <trkpt lat="43.55135" lon="6.90695">
        <ele>287.57</ele>
        <time>2011-05-24T07:08:06Z</time>
      </trkpt>
      <trkpt lat="43.55132" lon="6.90714">
        <ele>291.9</ele>
        <time>2011-05-24T07:08:13Z</time>
      </trkpt>
      <trkpt lat="43.55131" lon="6.90717">
        <ele>287.09</ele>
        <time>2011-05-24T07:08:14Z</time>
      </trkpt>
      <trkpt lat="43.5513" lon="6.90719">
        <ele>293.82</ele>
        <time>2011-05-24T07:08:15Z</time>
      </trkpt>
      <trkpt lat="43.55128" lon="6.90722">
        <ele>288.05</ele>
        <time>2011-05-24T07:08:16Z</time>
      </trkpt>
      <trkpt lat="43.55127" lon="6.90724">
        <ele>295.26</ele>
        <time>2011-05-24T07:08:17Z</time>
      </trkpt>
      <trkpt lat="43.55125" lon="6.90726">
        <ele>289.49</ele>
        <time>2011-05-24T07:08:18Z</time>
      </trkpt>
      <trkpt lat="43.55121" lon="6.90728">
        <ele>293.34</ele>
        <time>2011-05-24T07:08:20Z</time>
      </trkpt>
      <trkpt lat="43.55119" lon="6.90729">
        <ele>290.94</ele>
        <time>2011-05-24T07:08:21Z</time>
      </trkpt>
      <trkpt lat="43.55117" lon="6.90729">
        <ele>286.13</ele>
        <time>2011-05-24T07:08:22Z</time>
      </trkpt>
      <trkpt lat="43.55115" lon="6.90729">
        <ele>290.94</ele>
        <time>2011-05-24T07:08:23Z</time>
      </trkpt>
      <trkpt lat="43.55097" lon="6.90737">
        <ele>294.3</ele>
        <time>2011-05-24T07:08:34Z</time>
      </trkpt>
      <trkpt lat="43.55093" lon="6.90742">
        <ele>290.46</ele>
        <time>2011-05-24T07:08:37Z</time>
      </trkpt>
      <trkpt lat="43.55092" lon="6.90743">
        <ele>294.3</ele>
        <time>2011-05-24T07:08:38Z</time>
      </trkpt>
      <trkpt lat="43.5509" lon="6.90746">
        <ele>289.97</ele>
        <time>2011-05-24T07:08:40Z</time>
      </trkpt>
      <trkpt lat="43.55088" lon="6.90748">
        <ele>293.34</ele>
        <time>2011-05-24T07:08:41Z</time>
      </trkpt>
      <trkpt lat="43.55083" lon="6.90753">
        <ele>298.15</ele>
        <time>2011-05-24T07:08:45Z</time>
      </trkpt>
      <trkpt lat="43.55081" lon="6.90756">
        <ele>293.34</ele>
        <time>2011-05-24T07:08:47Z</time>
      </trkpt>
      <trkpt lat="43.55079" lon="6.90757">
        <ele>293.34</ele>
        <time>2011-05-24T07:08:48Z</time>
      </trkpt>
      <trkpt lat="43.55077" lon="6.9076">
        <ele>299.59</ele>
        <time>2011-05-24T07:08:50Z</time>
      </trkpt>
      <trkpt lat="43.55075" lon="6.90762">
        <ele>292.38</ele>
        <time>2011-05-24T07:08:51Z</time>
      </trkpt>
      <trkpt lat="43.55074" lon="6.90763">
        <ele>296.22</ele>
        <time>2011-05-24T07:08:52Z</time>
      </trkpt>
      <trkpt lat="43.55058" lon="6.90792">
        <ele>299.11</ele>
        <time>2011-05-24T07:09:10Z</time>
      </trkpt>
      <trkpt lat="43.55046" lon="6.90802">
        <ele>300.07</ele>
        <time>2011-05-24T07:09:19Z</time>
      </trkpt>
      <trkpt lat="43.55036" lon="6.90803">
        <ele>303.43</ele>
        <time>2011-05-24T07:09:25Z</time>
      </trkpt>
      <trkpt lat="43.55035" lon="6.90803">
        <ele>301.99</ele>
        <time>2011-05-24T07:09:26Z</time>
      </trkpt>
      <trkpt lat="43.55017" lon="6.90807">
        <ele>301.99</ele>
        <time>2011-05-24T07:09:41Z</time>
      </trkpt>
      <trkpt lat="43.55017" lon="6.90808">
        <ele>302.95</ele>
        <time>2011-05-24T07:09:42Z</time>
      </trkpt>
      <trkpt lat="43.55019" lon="6.9081">
        <ele>305.84</ele>
        <time>2011-05-24T07:09:44Z</time>
      </trkpt>
      <trkpt lat="43.5502" lon="6.90811">
        <ele>301.51</ele>
        <time>2011-05-24T07:09:45Z</time>
      </trkpt>
      <trkpt lat="43.55021" lon="6.90811">
        <ele>302.47</ele>
        <time>2011-05-24T07:09:46Z</time>
      </trkpt>
      <trkpt lat="43.55025" lon="6.90813">
        <ele>302.47</ele>
        <time>2011-05-24T07:09:49Z</time>
      </trkpt>
      <trkpt lat="43.55028" lon="6.90819">
        <ele>305.84</ele>
        <time>2011-05-24T07:09:53Z</time>
      </trkpt>
      <trkpt lat="43.55027" lon="6.90821">
        <ele>304.88</ele>
        <time>2011-05-24T07:09:54Z</time>
      </trkpt>
      <trkpt lat="43.55017" lon="6.90847">
        <ele>305.84</ele>
        <time>2011-05-24T07:10:03Z</time>
      </trkpt>
      <trkpt lat="43.55016" lon="6.90852">
        <ele>305.36</ele>
        <time>2011-05-24T07:10:06Z</time>
      </trkpt>
      <trkpt lat="43.55017" lon="6.90853">
        <ele>301.03</ele>
        <time>2011-05-24T07:10:07Z</time>
      </trkpt>
      <trkpt lat="43.55017" lon="6.90854">
        <ele>306.8</ele>
        <time>2011-05-24T07:10:08Z</time>
      </trkpt>
      <trkpt lat="43.55019" lon="6.90853">
        <ele>302.47</ele>
        <time>2011-05-24T07:10:09Z</time>
      </trkpt>
      <trkpt lat="43.5502" lon="6.90852">
        <ele>306.8</ele>
        <time>2011-05-24T07:10:10Z</time>
      </trkpt>
      <trkpt lat="43.55021" lon="6.9084">
        <ele>302.95</ele>
        <time>2011-05-24T07:10:16Z</time>
      </trkpt>
      <trkpt lat="43.55013" lon="6.90847">
        <ele>300.07</ele>
        <time>2011-05-24T07:10:25Z</time>
      </trkpt>
      <trkpt lat="43.55018" lon="6.90848">
        <ele>302.95</ele>
        <time>2011-05-24T07:10:29Z</time>
      </trkpt>
      <trkpt lat="43.55019" lon="6.90846">
        <ele>304.39</ele>
        <time>2011-05-24T07:10:30Z</time>
      </trkpt>
      <trkpt lat="43.55027" lon="6.90824">
        <ele>301.03</ele>
        <time>2011-05-24T07:10:39Z</time>
      </trkpt>
      <trkpt lat="43.55036" lon="6.90825">
        <ele>305.36</ele>
        <time>2011-05-24T07:10:44Z</time>
      </trkpt>
      <trkpt lat="43.55052" lon="6.90834">
        <ele>303.91</ele>
        <time>2011-05-24T07:10:53Z</time>
      </trkpt>
      <trkpt lat="43.55058" lon="6.90835">
        <ele>305.84</ele>
        <time>2011-05-24T07:10:56Z</time>
      </trkpt>
      <trkpt lat="43.55062" lon="6.90835">
        <ele>308.72</ele>
        <time>2011-05-24T07:10:58Z</time>
      </trkpt>
      <trkpt lat="43.55064" lon="6.90836">
        <ele>305.36</ele>
        <time>2011-05-24T07:10:59Z</time>
      </trkpt>
      <trkpt lat="43.55069" lon="6.90836">
        <ele>308.72</ele>
        <time>2011-05-24T07:11:02Z</time>
      </trkpt>
      <trkpt lat="43.5507" lon="6.90836">
        <ele>309.2</ele>
        <time>2011-05-24T07:11:03Z</time>
      </trkpt>
      <trkpt lat="43.55091" lon="6.90829">
        <ele>307.76</ele>
        <time>2011-05-24T07:11:15Z</time>
      </trkpt>
      <trkpt lat="43.55094" lon="6.90828">
        <ele>310.16</ele>
        <time>2011-05-24T07:11:17Z</time>
      </trkpt>
      <trkpt lat="43.55102" lon="6.90824">
        <ele>311.12</ele>
        <time>2011-05-24T07:11:22Z</time>
      </trkpt>
      <trkpt lat="43.55109" lon="6.90821">
        <ele>313.05</ele>
        <time>2011-05-24T07:11:26Z</time>
      </trkpt>
      <trkpt lat="43.55111" lon="6.90821">
        <ele>309.2</ele>
        <time>2011-05-24T07:11:27Z</time>
      </trkpt>
      <trkpt lat="43.55112" lon="6.90821">
        <ele>311.12</ele>
        <time>2011-05-24T07:11:28Z</time>
      </trkpt>
      <trkpt lat="43.55124" lon="6.90825">
        <ele>310.16</ele>
        <time>2011-05-24T07:11:35Z</time>
      </trkpt>
      <trkpt lat="43.55127" lon="6.90826">
        <ele>313.53</ele>
        <time>2011-05-24T07:11:37Z</time>
      </trkpt>
      <trkpt lat="43.55132" lon="6.90828">
        <ele>310.16</ele>
        <time>2011-05-24T07:11:40Z</time>
      </trkpt>
      <trkpt lat="43.55133" lon="6.90829">
        <ele>313.05</ele>
        <time>2011-05-24T07:11:41Z</time>
      </trkpt>
      <trkpt lat="43.55145" lon="6.90839">
        <ele>316.89</ele>
        <time>2011-05-24T07:11:50Z</time>
      </trkpt>
      <trkpt lat="43.55146" lon="6.9084">
        <ele>313.53</ele>
        <time>2011-05-24T07:11:51Z</time>
      </trkpt>
      <trkpt lat="43.55148" lon="6.90841">
        <ele>313.53</ele>
        <time>2011-05-24T07:11:52Z</time>
      </trkpt>
      <trkpt lat="43.55149" lon="6.90841">
        <ele>314.97</ele>
        <time>2011-05-24T07:11:53Z</time>
      </trkpt>
      <trkpt lat="43.55155" lon="6.9084">
        <ele>316.89</ele>
        <time>2011-05-24T07:11:58Z</time>
      </trkpt>
      <trkpt lat="43.55163" lon="6.90838">
        <ele>318.81</ele>
        <time>2011-05-24T07:12:03Z</time>
      </trkpt>
      <trkpt lat="43.55177" lon="6.90831">
        <ele>319.78</ele>
        <time>2011-05-24T07:12:13Z</time>
      </trkpt>
      <trkpt lat="43.55179" lon="6.90831">
        <ele>316.41</ele>
        <time>2011-05-24T07:12:14Z</time>
      </trkpt>
      <trkpt lat="43.55181" lon="6.90831">
        <ele>316.89</ele>
        <time>2011-05-24T07:12:15Z</time>
      </trkpt>
      <trkpt lat="43.55184" lon="6.90831">
        <ele>318.33</ele>
        <time>2011-05-24T07:12:17Z</time>
      </trkpt>
      <trkpt lat="43.55193" lon="6.90833">
        <ele>318.33</ele>
        <time>2011-05-24T07:12:23Z</time>
      </trkpt>
      <trkpt lat="43.55198" lon="6.90834">
        <ele>321.7</ele>
        <time>2011-05-24T07:12:27Z</time>
      </trkpt>
      <trkpt lat="43.55212" lon="6.90832">
        <ele>320.74</ele>
        <time>2011-05-24T07:12:38Z</time>
      </trkpt>
      <trkpt lat="43.5522" lon="6.90828">
        <ele>322.66</ele>
        <time>2011-05-24T07:12:44Z</time>
      </trkpt>
      <trkpt lat="43.55224" lon="6.90826">
        <ele>319.78</ele>
        <time>2011-05-24T07:12:47Z</time>
      </trkpt>
      <trkpt lat="43.55228" lon="6.90825">
        <ele>323.14</ele>
        <time>2011-05-24T07:12:49Z</time>
      </trkpt>
      <trkpt lat="43.55233" lon="6.90822">
        <ele>319.3</ele>
        <time>2011-05-24T07:12:51Z</time>
      </trkpt>
      <trkpt lat="43.55241" lon="6.9082">
        <ele>318.33</ele>
        <time>2011-05-24T07:12:53Z</time>
      </trkpt>
      <trkpt lat="43.5525" lon="6.90817">
        <ele>321.22</ele>
        <time>2011-05-24T07:12:55Z</time>
      </trkpt>
      <trkpt lat="43.55261" lon="6.90813">
        <ele>319.78</ele>
        <time>2011-05-24T07:12:57Z</time>
      </trkpt>
      <trkpt lat="43.55288" lon="6.90798">
        <ele>322.18</ele>
        <time>2011-05-24T07:13:05Z</time>
      </trkpt>
      <trkpt lat="43.55294" lon="6.9079">
        <ele>319.78</ele>
        <time>2011-05-24T07:13:10Z</time>
      </trkpt>
      <trkpt lat="43.55306" lon="6.90782">
        <ele>325.06</ele>
        <time>2011-05-24T07:13:18Z</time>
      </trkpt>
      <trkpt lat="43.55311" lon="6.90783">
        <ele>320.74</ele>
        <time>2011-05-24T07:13:22Z</time>
      </trkpt>
      <trkpt lat="43.55316" lon="6.90784">
        <ele>326.5</ele>
        <time>2011-05-24T07:13:26Z</time>
      </trkpt>
      <trkpt lat="43.55321" lon="6.90787">
        <ele>326.5</ele>
        <time>2011-05-24T07:13:30Z</time>
      </trkpt>
      <trkpt lat="43.55323" lon="6.9079">
        <ele>325.06</ele>
        <time>2011-05-24T07:13:32Z</time>
      </trkpt>
      <trkpt lat="43.55329" lon="6.90796">
        <ele>328.91</ele>
        <time>2011-05-24T07:13:37Z</time>
      </trkpt>
      <trkpt lat="43.5533" lon="6.90797">
        <ele>325.06</ele>
        <time>2011-05-24T07:13:38Z</time>
      </trkpt>
      <trkpt lat="43.55331" lon="6.90798">
        <ele>328.91</ele>
        <time>2011-05-24T07:13:39Z</time>
      </trkpt>
      <trkpt lat="43.55335" lon="6.908">
        <ele>325.54</ele>
        <time>2011-05-24T07:13:42Z</time>
      </trkpt>
      <trkpt lat="43.55336" lon="6.90801">
        <ele>328.91</ele>
        <time>2011-05-24T07:13:43Z</time>
      </trkpt>
      <trkpt lat="43.55342" lon="6.90798">
        <ele>331.79</ele>
        <time>2011-05-24T07:13:48Z</time>
      </trkpt>
      <trkpt lat="43.55343" lon="6.90798">
        <ele>327.95</ele>
        <time>2011-05-24T07:13:49Z</time>
      </trkpt>
      <trkpt lat="43.55346" lon="6.908">
        <ele>331.79</ele>
        <time>2011-05-24T07:13:51Z</time>
      </trkpt>
      <trkpt lat="43.55357" lon="6.90803">
        <ele>330.83</ele>
        <time>2011-05-24T07:14:00Z</time>
      </trkpt>
      <trkpt lat="43.55381" lon="6.90807">
        <ele>334.68</ele>
        <time>2011-05-24T07:14:17Z</time>
      </trkpt>
      <trkpt lat="43.55405" lon="6.90806">
        <ele>334.68</ele>
        <time>2011-05-24T07:14:34Z</time>
      </trkpt>
      <trkpt lat="43.55415" lon="6.90806">
        <ele>333.23</ele>
        <time>2011-05-24T07:14:41Z</time>
      </trkpt>
      <trkpt lat="43.55418" lon="6.90804">
        <ele>335.64</ele>
        <time>2011-05-24T07:14:43Z</time>
      </trkpt>
      <trkpt lat="43.55431" lon="6.90799">
        <ele>339</ele>
        <time>2011-05-24T07:14:53Z</time>
      </trkpt>
      <trkpt lat="43.55432" lon="6.90798">
        <ele>335.64</ele>
        <time>2011-05-24T07:14:54Z</time>
      </trkpt>
      <trkpt lat="43.55435" lon="6.90795">
        <ele>339.48</ele>
        <time>2011-05-24T07:14:57Z</time>
      </trkpt>
      <trkpt lat="43.55438" lon="6.90794">
        <ele>335.64</ele>
        <time>2011-05-24T07:14:59Z</time>
      </trkpt>
      <trkpt lat="43.55441" lon="6.90792">
        <ele>339.96</ele>
        <time>2011-05-24T07:15:02Z</time>
      </trkpt>
      <trkpt lat="43.55454" lon="6.90789">
        <ele>339.96</ele>
        <time>2011-05-24T07:15:11Z</time>
      </trkpt>
      <trkpt lat="43.55462" lon="6.9079">
        <ele>341.41</ele>
        <time>2011-05-24T07:15:17Z</time>
      </trkpt>
      <trkpt lat="43.5547" lon="6.90792">
        <ele>339.96</ele>
        <time>2011-05-24T07:15:22Z</time>
      </trkpt>
      <trkpt lat="43.55475" lon="6.90793">
        <ele>343.81</ele>
        <time>2011-05-24T07:15:25Z</time>
      </trkpt>
      <trkpt lat="43.55476" lon="6.90793">
        <ele>340.92</ele>
        <time>2011-05-24T07:15:26Z</time>
      </trkpt>
      <trkpt lat="43.55482" lon="6.90795">
        <ele>344.77</ele>
        <time>2011-05-24T07:15:31Z</time>
      </trkpt>
      <trkpt lat="43.55484" lon="6.90795">
        <ele>340.44</ele>
        <time>2011-05-24T07:15:32Z</time>
      </trkpt>
      <trkpt lat="43.55486" lon="6.90795">
        <ele>342.37</ele>
        <time>2011-05-24T07:15:33Z</time>
      </trkpt>
      <trkpt lat="43.55492" lon="6.90797">
        <ele>345.25</ele>
        <time>2011-05-24T07:15:37Z</time>
      </trkpt>
      <trkpt lat="43.55493" lon="6.90798">
        <ele>341.89</ele>
        <time>2011-05-24T07:15:38Z</time>
      </trkpt>
      <trkpt lat="43.55495" lon="6.90798">
        <ele>341.89</ele>
        <time>2011-05-24T07:15:39Z</time>
      </trkpt>
      <trkpt lat="43.555" lon="6.90799">
        <ele>345.73</ele>
        <time>2011-05-24T07:15:42Z</time>
      </trkpt>
      <trkpt lat="43.55502" lon="6.908">
        <ele>344.77</ele>
        <time>2011-05-24T07:15:43Z</time>
      </trkpt>
      <trkpt lat="43.55524" lon="6.90804">
        <ele>343.81</ele>
        <time>2011-05-24T07:16:00Z</time>
      </trkpt>
      <trkpt lat="43.55532" lon="6.90805">
        <ele>348.62</ele>
        <time>2011-05-24T07:16:05Z</time>
      </trkpt>
      <trkpt lat="43.55537" lon="6.908">
        <ele>347.65</ele>
        <time>2011-05-24T07:16:10Z</time>
      </trkpt>
      <trkpt lat="43.55541" lon="6.90792">
        <ele>349.1</ele>
        <time>2011-05-24T07:16:15Z</time>
      </trkpt>
      <trkpt lat="43.55544" lon="6.90791">
        <ele>348.62</ele>
        <time>2011-05-24T07:16:17Z</time>
      </trkpt>
      <trkpt lat="43.55549" lon="6.90794">
        <ele>345.25</ele>
        <time>2011-05-24T07:16:21Z</time>
      </trkpt>
      <trkpt lat="43.55549" lon="6.90796">
        <ele>350.06</ele>
        <time>2011-05-24T07:16:22Z</time>
      </trkpt>
      <trkpt lat="43.55549" lon="6.90798">
        <ele>349.1</ele>
        <time>2011-05-24T07:16:23Z</time>
      </trkpt>
      <trkpt lat="43.55548" lon="6.90799">
        <ele>348.13</ele>
        <time>2011-05-24T07:16:26Z</time>
      </trkpt>
      <trkpt lat="43.55548" lon="6.908">
        <ele>347.17</ele>
        <time>2011-05-24T07:16:53Z</time>
      </trkpt>
      <trkpt lat="43.55548" lon="6.90799">
        <ele>350.54</ele>
        <time>2011-05-24T07:16:54Z</time>
      </trkpt>
      <trkpt lat="43.55549" lon="6.90799">
        <ele>348.13</ele>
        <time>2011-05-24T07:16:57Z</time>
      </trkpt>
      <trkpt lat="43.55549" lon="6.90799">
        <ele>351.5</ele>
        <time>2011-05-24T07:16:58Z</time>
      </trkpt>
      <trkpt lat="43.55549" lon="6.90799">
        <ele>349.1</ele>
        <time>2011-05-24T07:16:59Z</time>
      </trkpt>
      <trkpt lat="43.55548" lon="6.90799">
        <ele>349.58</ele>
        <time>2011-05-24T07:17:11Z</time>
      </trkpt>
      <trkpt lat="43.55549" lon="6.90798">
        <ele>348.13</ele>
        <time>2011-05-24T07:17:22Z</time>
      </trkpt>
      <trkpt lat="43.55549" lon="6.90798">
        <ele>347.65</ele>
        <time>2011-05-24T07:17:33Z</time>
      </trkpt>
      <trkpt lat="43.55549" lon="6.90798">
        <ele>348.62</ele>
        <time>2011-05-24T07:17:35Z</time>
      </trkpt>
      <trkpt lat="43.55549" lon="6.90798">
        <ele>345.25</ele>
        <time>2011-05-24T07:17:56Z</time>
      </trkpt>
      <trkpt lat="43.55549" lon="6.90798">
        <ele>349.1</ele>
        <time>2011-05-24T07:17:57Z</time>
      </trkpt>
      <trkpt lat="43.55549" lon="6.90799">
        <ele>349.1</ele>
        <time>2011-05-24T07:18:14Z</time>
      </trkpt>
      <trkpt lat="43.5555" lon="6.90799">
        <ele>347.17</ele>
        <time>2011-05-24T07:18:52Z</time>
      </trkpt>
      <trkpt lat="43.5555" lon="6.90799">
        <ele>350.54</ele>
        <time>2011-05-24T07:18:56Z</time>
      </trkpt>
      <trkpt lat="43.5555" lon="6.90799">
        <ele>346.21</ele>
        <time>2011-05-24T07:18:57Z</time>
      </trkpt>
      <trkpt lat="43.5555" lon="6.90799">
        <ele>349.1</ele>
        <time>2011-05-24T07:19:00Z</time>
      </trkpt>
      <trkpt lat="43.5555" lon="6.90799">
        <ele>352.94</ele>
        <time>2011-05-24T07:19:11Z</time>
      </trkpt>
      <trkpt lat="43.5555" lon="6.90799">
        <ele>349.1</ele>
        <time>2011-05-24T07:19:12Z</time>
      </trkpt>
      <trkpt lat="43.5555" lon="6.90799">
        <ele>345.73</ele>
        <time>2011-05-24T07:19:19Z</time>
      </trkpt>
      <trkpt lat="43.5555" lon="6.90799">
        <ele>349.58</ele>
        <time>2011-05-24T07:19:20Z</time>
      </trkpt>
      <trkpt lat="43.5555" lon="6.90799">
        <ele>346.21</ele>
        <time>2011-05-24T07:19:28Z</time>
      </trkpt>
      <trkpt lat="43.5555" lon="6.90799">
        <ele>350.06</ele>
        <time>2011-05-24T07:19:30Z</time>
      </trkpt>
      <trkpt lat="43.5555" lon="6.90799">
        <ele>348.62</ele>
        <time>2011-05-24T07:19:33Z</time>
      </trkpt>
      <trkpt lat="43.5555" lon="6.90799">
        <ele>345.25</ele>
        <time>2011-05-24T07:19:43Z</time>
      </trkpt>
      <trkpt lat="43.5555" lon="6.90799">
        <ele>348.13</ele>
        <time>2011-05-24T07:19:44Z</time>
      </trkpt>
      <trkpt lat="43.5555" lon="6.90799">
        <ele>346.21</ele>
        <time>2011-05-24T07:19:50Z</time>
      </trkpt>
      <trkpt lat="43.5555" lon="6.90799">
        <ele>350.06</ele>
        <time>2011-05-24T07:19:55Z</time>
      </trkpt>
      <trkpt lat="43.5555" lon="6.90799">
        <ele>348.13</ele>
        <time>2011-05-24T07:19:58Z</time>
      </trkpt>
      <trkpt lat="43.5555" lon="6.90799">
        <ele>351.02</ele>
        <time>2011-05-24T07:20:06Z</time>
      </trkpt>
      <trkpt lat="43.5555" lon="6.90799">
        <ele>347.65</ele>
        <time>2011-05-24T07:20:20Z</time>
      </trkpt>
      <trkpt lat="43.5555" lon="6.90798">
        <ele>349.58</ele>
        <time>2011-05-24T07:20:23Z</time>
      </trkpt>
      <trkpt lat="43.5555" lon="6.90798">
        <ele>350.54</ele>
        <time>2011-05-24T07:20:43Z</time>
      </trkpt>
      <trkpt lat="43.55551" lon="6.90801">
        <ele>347.65</ele>
        <time>2011-05-24T07:21:14Z</time>
      </trkpt>
      <trkpt lat="43.55551" lon="6.90801">
        <ele>351.02</ele>
        <time>2011-05-24T07:21:16Z</time>
      </trkpt>
      <trkpt lat="43.5555" lon="6.90802">
        <ele>347.65</ele>
        <time>2011-05-24T07:21:26Z</time>
      </trkpt>
      <trkpt lat="43.55549" lon="6.90803">
        <ele>349.58</ele>
        <time>2011-05-24T07:21:27Z</time>
      </trkpt>
      <trkpt lat="43.5555" lon="6.9081">
        <ele>348.62</ele>
        <time>2011-05-24T07:21:32Z</time>
      </trkpt>
      <trkpt lat="43.55552" lon="6.9081">
        <ele>349.1</ele>
        <time>2011-05-24T07:21:34Z</time>
      </trkpt>
      <trkpt lat="43.55569" lon="6.90817">
        <ele>352.94</ele>
        <time>2011-05-24T07:21:47Z</time>
      </trkpt>
      <trkpt lat="43.5557" lon="6.90819">
        <ele>348.62</ele>
        <time>2011-05-24T07:21:48Z</time>
      </trkpt>
      <trkpt lat="43.55577" lon="6.90829">
        <ele>351.5</ele>
        <time>2011-05-24T07:21:56Z</time>
      </trkpt>
      <trkpt lat="43.55584" lon="6.90836">
        <ele>351.98</ele>
        <time>2011-05-24T07:22:02Z</time>
      </trkpt>
      <trkpt lat="43.55589" lon="6.90836">
        <ele>352.46</ele>
        <time>2011-05-24T07:22:07Z</time>
      </trkpt>
      <trkpt lat="43.55592" lon="6.9083">
        <ele>353.42</ele>
        <time>2011-05-24T07:22:11Z</time>
      </trkpt>
      <trkpt lat="43.55607" lon="6.90815">
        <ele>356.31</ele>
        <time>2011-05-24T07:22:24Z</time>
      </trkpt>
      <trkpt lat="43.55617" lon="6.90801">
        <ele>357.75</ele>
        <time>2011-05-24T07:22:33Z</time>
      </trkpt>
      <trkpt lat="43.55631" lon="6.90789">
        <ele>360.63</ele>
        <time>2011-05-24T07:22:45Z</time>
      </trkpt>
      <trkpt lat="43.55632" lon="6.90787">
        <ele>360.63</ele>
        <time>2011-05-24T07:22:46Z</time>
      </trkpt>
      <trkpt lat="43.55634" lon="6.90785">
        <ele>357.75</ele>
        <time>2011-05-24T07:22:48Z</time>
      </trkpt>
      <trkpt lat="43.55638" lon="6.90782">
        <ele>361.59</ele>
        <time>2011-05-24T07:22:51Z</time>
      </trkpt>
      <trkpt lat="43.55639" lon="6.90781">
        <ele>361.11</ele>
        <time>2011-05-24T07:22:52Z</time>
      </trkpt>
      <trkpt lat="43.55642" lon="6.90779">
        <ele>363.04</ele>
        <time>2011-05-24T07:22:55Z</time>
      </trkpt>
      <trkpt lat="43.55666" lon="6.90771">
        <ele>364</ele>
        <time>2011-05-24T07:23:11Z</time>
      </trkpt>
      <trkpt lat="43.55687" lon="6.90765">
        <ele>365.92</ele>
        <time>2011-05-24T07:23:24Z</time>
      </trkpt>
      <trkpt lat="43.55707" lon="6.90765">
        <ele>368.8</ele>
        <time>2011-05-24T07:23:37Z</time>
      </trkpt>
      <trkpt lat="43.55734" lon="6.90766">
        <ele>370.73</ele>
        <time>2011-05-24T07:23:54Z</time>
      </trkpt>
      <trkpt lat="43.55737" lon="6.90767">
        <ele>367.36</ele>
        <time>2011-05-24T07:23:56Z</time>
      </trkpt>
      <trkpt lat="43.5574" lon="6.90767">
        <ele>371.69</ele>
        <time>2011-05-24T07:23:58Z</time>
      </trkpt>
      <trkpt lat="43.55741" lon="6.90767">
        <ele>370.73</ele>
        <time>2011-05-24T07:23:59Z</time>
      </trkpt>
      <trkpt lat="43.55751" lon="6.90771">
        <ele>370.73</ele>
        <time>2011-05-24T07:24:05Z</time>
      </trkpt>
      <trkpt lat="43.55754" lon="6.90773">
        <ele>374.09</ele>
        <time>2011-05-24T07:24:07Z</time>
      </trkpt>
      <trkpt lat="43.55755" lon="6.90774">
        <ele>372.17</ele>
        <time>2011-05-24T07:24:08Z</time>
      </trkpt>
      <trkpt lat="43.55761" lon="6.90777">
        <ele>376.01</ele>
        <time>2011-05-24T07:24:12Z</time>
      </trkpt>
      <trkpt lat="43.55775" lon="6.90784">
        <ele>377.94</ele>
        <time>2011-05-24T07:24:21Z</time>
      </trkpt>
      <trkpt lat="43.55778" lon="6.90786">
        <ele>376.49</ele>
        <time>2011-05-24T07:24:23Z</time>
      </trkpt>
      <trkpt lat="43.55793" lon="6.9079">
        <ele>381.3</ele>
        <time>2011-05-24T07:24:33Z</time>
      </trkpt>
      <trkpt lat="43.55795" lon="6.9079">
        <ele>380.34</ele>
        <time>2011-05-24T07:24:34Z</time>
      </trkpt>
      <trkpt lat="43.55816" lon="6.90803">
        <ele>384.18</ele>
        <time>2011-05-24T07:24:50Z</time>
      </trkpt>
      <trkpt lat="43.55833" lon="6.90812">
        <ele>385.63</ele>
        <time>2011-05-24T07:25:04Z</time>
      </trkpt>
      <trkpt lat="43.55838" lon="6.90835">
        <ele>388.03</ele>
        <time>2011-05-24T07:25:17Z</time>
      </trkpt>
      <trkpt lat="43.55844" lon="6.90851">
        <ele>389.95</ele>
        <time>2011-05-24T07:25:26Z</time>
      </trkpt>
      <trkpt lat="43.55846" lon="6.90855">
        <ele>391.39</ele>
        <time>2011-05-24T07:25:29Z</time>
      </trkpt>
      <trkpt lat="43.55848" lon="6.90858">
        <ele>389.95</ele>
        <time>2011-05-24T07:25:31Z</time>
      </trkpt>
      <trkpt lat="43.5585" lon="6.90863">
        <ele>391.39</ele>
        <time>2011-05-24T07:25:35Z</time>
      </trkpt>
      <trkpt lat="43.55861" lon="6.90864">
        <ele>389.47</ele>
        <time>2011-05-24T07:25:44Z</time>
      </trkpt>
      <trkpt lat="43.55869" lon="6.90864">
        <ele>392.84</ele>
        <time>2011-05-24T07:25:50Z</time>
      </trkpt>
      <trkpt lat="43.55894" lon="6.9087">
        <ele>392.36</ele>
        <time>2011-05-24T07:26:08Z</time>
      </trkpt>
      <trkpt lat="43.55903" lon="6.90877">
        <ele>397.64</ele>
        <time>2011-05-24T07:26:14Z</time>
      </trkpt>
      <trkpt lat="43.55904" lon="6.90878">
        <ele>395.24</ele>
        <time>2011-05-24T07:26:15Z</time>
      </trkpt>
      <trkpt lat="43.55905" lon="6.90879">
        <ele>394.28</ele>
        <time>2011-05-24T07:26:16Z</time>
      </trkpt>
      <trkpt lat="43.55924" lon="6.90904">
        <ele>397.64</ele>
        <time>2011-05-24T07:26:33Z</time>
      </trkpt>
      <trkpt lat="43.55939" lon="6.90915">
        <ele>401.01</ele>
        <time>2011-05-24T07:26:44Z</time>
      </trkpt>
      <trkpt lat="43.55942" lon="6.90918">
        <ele>402.45</ele>
        <time>2011-05-24T07:26:46Z</time>
      </trkpt>
      <trkpt lat="43.55953" lon="6.90925">
        <ele>401.49</ele>
        <time>2011-05-24T07:26:54Z</time>
      </trkpt>
      <trkpt lat="43.55954" lon="6.90926">
        <ele>406.29</ele>
        <time>2011-05-24T07:26:55Z</time>
      </trkpt>
      <trkpt lat="43.55955" lon="6.90926">
        <ele>398.6</ele>
        <time>2011-05-24T07:26:56Z</time>
      </trkpt>
      <trkpt lat="43.55957" lon="6.90927">
        <ele>404.37</ele>
        <time>2011-05-24T07:26:57Z</time>
      </trkpt>
      <trkpt lat="43.55972" lon="6.90932">
        <ele>401.01</ele>
        <time>2011-05-24T07:27:08Z</time>
      </trkpt>
      <trkpt lat="43.55973" lon="6.90932">
        <ele>404.37</ele>
        <time>2011-05-24T07:27:09Z</time>
      </trkpt>
      <trkpt lat="43.55975" lon="6.90933">
        <ele>401.01</ele>
        <time>2011-05-24T07:27:10Z</time>
      </trkpt>
      <trkpt lat="43.55976" lon="6.90933">
        <ele>404.37</ele>
        <time>2011-05-24T07:27:11Z</time>
      </trkpt>
      <trkpt lat="43.55986" lon="6.90936">
        <ele>407.74</ele>
        <time>2011-05-24T07:27:18Z</time>
      </trkpt>
      <trkpt lat="43.5599" lon="6.90937">
        <ele>403.41</ele>
        <time>2011-05-24T07:27:20Z</time>
      </trkpt>
      <trkpt lat="43.55992" lon="6.90938">
        <ele>404.85</ele>
        <time>2011-05-24T07:27:21Z</time>
      </trkpt>
      <trkpt lat="43.5601" lon="6.90939">
        <ele>408.22</ele>
        <time>2011-05-24T07:27:28Z</time>
      </trkpt>
      <trkpt lat="43.56013" lon="6.90939">
        <ele>402.45</ele>
        <time>2011-05-24T07:27:29Z</time>
      </trkpt>
      <trkpt lat="43.56017" lon="6.9094">
        <ele>404.37</ele>
        <time>2011-05-24T07:27:30Z</time>
      </trkpt>
      <trkpt lat="43.56026" lon="6.90942">
        <ele>408.22</ele>
        <time>2011-05-24T07:27:33Z</time>
      </trkpt>
      <trkpt lat="43.56029" lon="6.90943">
        <ele>403.89</ele>
        <time>2011-05-24T07:27:34Z</time>
      </trkpt>
      <trkpt lat="43.56043" lon="6.90946">
        <ele>404.85</ele>
        <time>2011-05-24T07:27:38Z</time>
      </trkpt>
      <trkpt lat="43.56056" lon="6.90949">
        <ele>404.85</ele>
        <time>2011-05-24T07:27:42Z</time>
      </trkpt>
      <trkpt lat="43.5606" lon="6.9095">
        <ele>409.18</ele>
        <time>2011-05-24T07:27:43Z</time>
      </trkpt>
      <trkpt lat="43.56064" lon="6.90951">
        <ele>404.85</ele>
        <time>2011-05-24T07:27:44Z</time>
      </trkpt>
      <trkpt lat="43.56067" lon="6.90951">
        <ele>405.33</ele>
        <time>2011-05-24T07:27:45Z</time>
      </trkpt>
      <trkpt lat="43.56081" lon="6.90952">
        <ele>404.37</ele>
        <time>2011-05-24T07:27:48Z</time>
      </trkpt>
      <trkpt lat="43.56118" lon="6.90967">
        <ele>405.33</ele>
        <time>2011-05-24T07:27:59Z</time>
      </trkpt>
      <trkpt lat="43.56123" lon="6.90971">
        <ele>409.66</ele>
        <time>2011-05-24T07:28:02Z</time>
      </trkpt>
      <trkpt lat="43.56125" lon="6.90972">
        <ele>407.26</ele>
        <time>2011-05-24T07:28:03Z</time>
      </trkpt>
      <trkpt lat="43.56131" lon="6.90978">
        <ele>408.7</ele>
        <time>2011-05-24T07:28:07Z</time>
      </trkpt>
      <trkpt lat="43.5614" lon="6.90987">
        <ele>411.58</ele>
        <time>2011-05-24T07:28:14Z</time>
      </trkpt>
      <trkpt lat="43.56147" lon="6.90992">
        <ele>408.7</ele>
        <time>2011-05-24T07:28:18Z</time>
      </trkpt>
      <trkpt lat="43.56148" lon="6.90993">
        <ele>412.06</ele>
        <time>2011-05-24T07:28:19Z</time>
      </trkpt>
      <trkpt lat="43.56159" lon="6.91002">
        <ele>414.95</ele>
        <time>2011-05-24T07:28:27Z</time>
      </trkpt>
      <trkpt lat="43.56168" lon="6.91005">
        <ele>415.91</ele>
        <time>2011-05-24T07:28:34Z</time>
      </trkpt>
      <trkpt lat="43.56194" lon="6.91009">
        <ele>415.43</ele>
        <time>2011-05-24T07:28:51Z</time>
      </trkpt>
      <trkpt lat="43.56202" lon="6.91009">
        <ele>416.87</ele>
        <time>2011-05-24T07:28:55Z</time>
      </trkpt>
      <trkpt lat="43.5623" lon="6.91012">
        <ele>417.83</ele>
        <time>2011-05-24T07:29:11Z</time>
      </trkpt>
      <trkpt lat="43.56236" lon="6.91013">
        <ele>421.68</ele>
        <time>2011-05-24T07:29:14Z</time>
      </trkpt>
      <trkpt lat="43.56238" lon="6.91013">
        <ele>417.83</ele>
        <time>2011-05-24T07:29:15Z</time>
      </trkpt>
      <trkpt lat="43.56243" lon="6.91014">
        <ele>419.75</ele>
        <time>2011-05-24T07:29:18Z</time>
      </trkpt>
      <trkpt lat="43.56263" lon="6.91023">
        <ele>423.12</ele>
        <time>2011-05-24T07:29:31Z</time>
      </trkpt>
      <trkpt lat="43.56264" lon="6.91024">
        <ele>421.68</ele>
        <time>2011-05-24T07:29:32Z</time>
      </trkpt>
      <trkpt lat="43.56268" lon="6.91026">
        <ele>423.12</ele>
        <time>2011-05-24T07:29:35Z</time>
      </trkpt>
      <trkpt lat="43.56274" lon="6.91026">
        <ele>424.08</ele>
        <time>2011-05-24T07:29:39Z</time>
      </trkpt>
      <trkpt lat="43.56281" lon="6.91026">
        <ele>421.19</ele>
        <time>2011-05-24T07:29:43Z</time>
      </trkpt>
      <trkpt lat="43.56285" lon="6.91022">
        <ele>424.08</ele>
        <time>2011-05-24T07:29:46Z</time>
      </trkpt>
      <trkpt lat="43.56303" lon="6.90982">
        <ele>423.6</ele>
        <time>2011-05-24T07:29:58Z</time>
      </trkpt>
      <trkpt lat="43.56308" lon="6.90972">
        <ele>427.92</ele>
        <time>2011-05-24T07:30:04Z</time>
      </trkpt>
      <trkpt lat="43.56309" lon="6.90968">
        <ele>424.56</ele>
        <time>2011-05-24T07:30:06Z</time>
      </trkpt>
      <trkpt lat="43.56311" lon="6.90965">
        <ele>428.89</ele>
        <time>2011-05-24T07:30:08Z</time>
      </trkpt>
      <trkpt lat="43.56312" lon="6.90963">
        <ele>426</ele>
        <time>2011-05-24T07:30:10Z</time>
      </trkpt>
      <trkpt lat="43.56314" lon="6.90962">
        <ele>426</ele>
        <time>2011-05-24T07:30:11Z</time>
      </trkpt>
      <trkpt lat="43.56316" lon="6.90959">
        <ele>427.92</ele>
        <time>2011-05-24T07:30:13Z</time>
      </trkpt>
      <trkpt lat="43.56334" lon="6.90948">
        <ele>431.29</ele>
        <time>2011-05-24T07:30:28Z</time>
      </trkpt>
      <trkpt lat="43.56342" lon="6.90949">
        <ele>430.81</ele>
        <time>2011-05-24T07:30:34Z</time>
      </trkpt>
      <trkpt lat="43.56344" lon="6.90948">
        <ele>431.29</ele>
        <time>2011-05-24T07:30:36Z</time>
      </trkpt>
      <trkpt lat="43.56346" lon="6.90947">
        <ele>432.73</ele>
        <time>2011-05-24T07:30:38Z</time>
      </trkpt>
      <trkpt lat="43.5635" lon="6.90947">
        <ele>433.21</ele>
        <time>2011-05-24T07:30:41Z</time>
      </trkpt>
      <trkpt lat="43.56351" lon="6.90949">
        <ele>432.25</ele>
        <time>2011-05-24T07:30:43Z</time>
      </trkpt>
      <trkpt lat="43.56357" lon="6.90954">
        <ele>432.25</ele>
        <time>2011-05-24T07:30:48Z</time>
      </trkpt>
      <trkpt lat="43.56367" lon="6.90942">
        <ele>432.73</ele>
        <time>2011-05-24T07:30:56Z</time>
      </trkpt>
      <trkpt lat="43.56373" lon="6.90934">
        <ele>437.06</ele>
        <time>2011-05-24T07:31:01Z</time>
      </trkpt>
      <trkpt lat="43.56374" lon="6.90932">
        <ele>435.13</ele>
        <time>2011-05-24T07:31:02Z</time>
      </trkpt>
      <trkpt lat="43.56384" lon="6.90889">
        <ele>439.46</ele>
        <time>2011-05-24T07:31:18Z</time>
      </trkpt>
      <trkpt lat="43.56384" lon="6.90886">
        <ele>436.1</ele>
        <time>2011-05-24T07:31:19Z</time>
      </trkpt>
      <trkpt lat="43.56385" lon="6.90876">
        <ele>437.54</ele>
        <time>2011-05-24T07:31:22Z</time>
      </trkpt>
      <trkpt lat="43.56382" lon="6.90804">
        <ele>439.94</ele>
        <time>2011-05-24T07:31:45Z</time>
      </trkpt>
      <trkpt lat="43.5635" lon="6.90774">
        <ele>442.82</ele>
        <time>2011-05-24T07:32:02Z</time>
      </trkpt>
      <trkpt lat="43.56316" lon="6.90794">
        <ele>442.82</ele>
        <time>2011-05-24T07:32:16Z</time>
      </trkpt>
      <trkpt lat="43.56285" lon="6.9079">
        <ele>447.63</ele>
        <time>2011-05-24T07:32:27Z</time>
      </trkpt>
      <trkpt lat="43.56283" lon="6.90789">
        <ele>446.19</ele>
        <time>2011-05-24T07:32:28Z</time>
      </trkpt>
      <trkpt lat="43.56235" lon="6.90723">
        <ele>447.63</ele>
        <time>2011-05-24T07:32:54Z</time>
      </trkpt>
      <trkpt lat="43.56231" lon="6.90702">
        <ele>448.11</ele>
        <time>2011-05-24T07:33:00Z</time>
      </trkpt>
      <trkpt lat="43.56244" lon="6.90673">
        <ele>448.59</ele>
        <time>2011-05-24T07:33:10Z</time>
      </trkpt>
      <trkpt lat="43.56252" lon="6.90671">
        <ele>450.03</ele>
        <time>2011-05-24T07:33:13Z</time>
      </trkpt>
      <trkpt lat="43.5626" lon="6.90671">
        <ele>448.11</ele>
        <time>2011-05-24T07:33:16Z</time>
      </trkpt>
      <trkpt lat="43.56265" lon="6.90672">
        <ele>450.03</ele>
        <time>2011-05-24T07:33:18Z</time>
      </trkpt>
      <trkpt lat="43.56292" lon="6.90673">
        <ele>451.48</ele>
        <time>2011-05-24T07:33:29Z</time>
      </trkpt>
      <trkpt lat="43.56297" lon="6.90668">
        <ele>451</ele>
        <time>2011-05-24T07:33:32Z</time>
      </trkpt>
      <trkpt lat="43.56302" lon="6.90656">
        <ele>451</ele>
        <time>2011-05-24T07:33:36Z</time>
      </trkpt>
      <trkpt lat="43.56303" lon="6.90652">
        <ele>451.48</ele>
        <time>2011-05-24T07:33:37Z</time>
      </trkpt>
      <trkpt lat="43.56314" lon="6.90621">
        <ele>453.88</ele>
        <time>2011-05-24T07:33:51Z</time>
      </trkpt>
      <trkpt lat="43.56325" lon="6.90607">
        <ele>448.59</ele>
        <time>2011-05-24T07:33:57Z</time>
      </trkpt>
      <trkpt lat="43.56329" lon="6.90605">
        <ele>449.55</ele>
        <time>2011-05-24T07:33:58Z</time>
      </trkpt>
      <trkpt lat="43.56332" lon="6.90603">
        <ele>448.11</ele>
        <time>2011-05-24T07:33:59Z</time>
      </trkpt>
      <trkpt lat="43.56348" lon="6.90601">
        <ele>447.15</ele>
        <time>2011-05-24T07:34:03Z</time>
      </trkpt>
      <trkpt lat="43.56361" lon="6.90593">
        <ele>447.15</ele>
        <time>2011-05-24T07:34:08Z</time>
      </trkpt>
      <trkpt lat="43.5637" lon="6.90564">
        <ele>442.34</ele>
        <time>2011-05-24T07:34:15Z</time>
      </trkpt>
      <trkpt lat="43.56382" lon="6.90537">
        <ele>441.86</ele>
        <time>2011-05-24T07:34:23Z</time>
      </trkpt>
      <trkpt lat="43.56396" lon="6.90509">
        <ele>438.5</ele>
        <time>2011-05-24T07:34:32Z</time>
      </trkpt>
      <trkpt lat="43.56404" lon="6.90491">
        <ele>439.94</ele>
        <time>2011-05-24T07:34:46Z</time>
      </trkpt>
      <trkpt lat="43.56404" lon="6.90491">
        <ele>438.02</ele>
        <time>2011-05-24T07:34:49Z</time>
      </trkpt>
      <trkpt lat="43.56405" lon="6.90481">
        <ele>439.94</ele>
        <time>2011-05-24T07:34:59Z</time>
      </trkpt>
      <trkpt lat="43.56405" lon="6.90476">
        <ele>437.06</ele>
        <time>2011-05-24T07:35:02Z</time>
      </trkpt>
      <trkpt lat="43.56404" lon="6.90473">
        <ele>436.58</ele>
        <time>2011-05-24T07:35:04Z</time>
      </trkpt>
      <trkpt lat="43.56401" lon="6.90466">
        <ele>438.02</ele>
        <time>2011-05-24T07:35:08Z</time>
      </trkpt>
      <trkpt lat="43.564" lon="6.90462">
        <ele>437.06</ele>
        <time>2011-05-24T07:35:10Z</time>
      </trkpt>
      <trkpt lat="43.56405" lon="6.90447">
        <ele>436.58</ele>
        <time>2011-05-24T07:35:20Z</time>
      </trkpt>
      <trkpt lat="43.56412" lon="6.90439">
        <ele>434.65</ele>
        <time>2011-05-24T07:35:28Z</time>
      </trkpt>
      <trkpt lat="43.56412" lon="6.9044">
        <ele>435.13</ele>
        <time>2011-05-24T07:35:33Z</time>
      </trkpt>
      <trkpt lat="43.56421" lon="6.90425">
        <ele>434.65</ele>
        <time>2011-05-24T07:35:46Z</time>
      </trkpt>
      <trkpt lat="43.56438" lon="6.9039">
        <ele>430.81</ele>
        <time>2011-05-24T07:35:56Z</time>
      </trkpt>
      <trkpt lat="43.56462" lon="6.90336">
        <ele>433.21</ele>
        <time>2011-05-24T07:36:09Z</time>
      </trkpt>
      <trkpt lat="43.56462" lon="6.90335">
        <ele>428.89</ele>
        <time>2011-05-24T07:36:10Z</time>
      </trkpt>
      <trkpt lat="43.56462" lon="6.90332">
        <ele>429.37</ele>
        <time>2011-05-24T07:36:11Z</time>
      </trkpt>
      <trkpt lat="43.56453" lon="6.90314">
        <ele>427.92</ele>
        <time>2011-05-24T07:36:18Z</time>
      </trkpt>
      <trkpt lat="43.56443" lon="6.90305">
        <ele>426.96</ele>
        <time>2011-05-24T07:36:21Z</time>
      </trkpt>
      <trkpt lat="43.56426" lon="6.90295">
        <ele>424.08</ele>
        <time>2011-05-24T07:36:25Z</time>
      </trkpt>
      <trkpt lat="43.56392" lon="6.9027">
        <ele>421.19</ele>
        <time>2011-05-24T07:36:33Z</time>
      </trkpt>
      <trkpt lat="43.56376" lon="6.90255">
        <ele>423.12</ele>
        <time>2011-05-24T07:36:36Z</time>
      </trkpt>
      <trkpt lat="43.56373" lon="6.90252">
        <ele>421.68</ele>
        <time>2011-05-24T07:36:37Z</time>
      </trkpt>
      <trkpt lat="43.56356" lon="6.90198">
        <ele>418.31</ele>
        <time>2011-05-24T07:36:46Z</time>
      </trkpt>
      <trkpt lat="43.56345" lon="6.90181">
        <ele>415.43</ele>
        <time>2011-05-24T07:36:50Z</time>
      </trkpt>
      <trkpt lat="43.56334" lon="6.90178">
        <ele>418.31</ele>
        <time>2011-05-24T07:36:53Z</time>
      </trkpt>
      <trkpt lat="43.56326" lon="6.90176">
        <ele>413.98</ele>
        <time>2011-05-24T07:36:55Z</time>
      </trkpt>
      <trkpt lat="43.56306" lon="6.90181">
        <ele>413.98</ele>
        <time>2011-05-24T07:37:00Z</time>
      </trkpt>
      <trkpt lat="43.56296" lon="6.90196">
        <ele>410.62</ele>
        <time>2011-05-24T07:37:04Z</time>
      </trkpt>
      <trkpt lat="43.56292" lon="6.90198">
        <ele>413.5</ele>
        <time>2011-05-24T07:37:05Z</time>
      </trkpt>
      <trkpt lat="43.56268" lon="6.90188">
        <ele>411.1</ele>
        <time>2011-05-24T07:37:10Z</time>
      </trkpt>
      <trkpt lat="43.56252" lon="6.9018">
        <ele>408.7</ele>
        <time>2011-05-24T07:37:14Z</time>
      </trkpt>
      <trkpt lat="43.56221" lon="6.90173">
        <ele>407.26</ele>
        <time>2011-05-24T07:37:21Z</time>
      </trkpt>
      <trkpt lat="43.5621" lon="6.90158">
        <ele>404.85</ele>
        <time>2011-05-24T07:37:24Z</time>
      </trkpt>
      <trkpt lat="43.56204" lon="6.90149">
        <ele>402.93</ele>
        <time>2011-05-24T07:37:26Z</time>
      </trkpt>
      <trkpt lat="43.5618" lon="6.9015">
        <ele>401.97</ele>
        <time>2011-05-24T07:37:31Z</time>
      </trkpt>
      <trkpt lat="43.56156" lon="6.90147">
        <ele>400.53</ele>
        <time>2011-05-24T07:37:36Z</time>
      </trkpt>
      <trkpt lat="43.56142" lon="6.90136">
        <ele>400.53</ele>
        <time>2011-05-24T07:37:39Z</time>
      </trkpt>
      <trkpt lat="43.56123" lon="6.90132">
        <ele>398.12</ele>
        <time>2011-05-24T07:37:43Z</time>
      </trkpt>
      <trkpt lat="43.56114" lon="6.90129">
        <ele>397.16</ele>
        <time>2011-05-24T07:37:45Z</time>
      </trkpt>
      <trkpt lat="43.56103" lon="6.90115">
        <ele>395.24</ele>
        <time>2011-05-24T07:37:48Z</time>
      </trkpt>
      <trkpt lat="43.56075" lon="6.90106">
        <ele>392.84</ele>
        <time>2011-05-24T07:37:54Z</time>
      </trkpt>
      <trkpt lat="43.56063" lon="6.90107">
        <ele>392.84</ele>
        <time>2011-05-24T07:37:56Z</time>
      </trkpt>
      <trkpt lat="43.56052" lon="6.9011">
        <ele>390.91</ele>
        <time>2011-05-24T07:37:58Z</time>
      </trkpt>
      <trkpt lat="43.56047" lon="6.90112">
        <ele>390.43</ele>
        <time>2011-05-24T07:37:59Z</time>
      </trkpt>
      <trkpt lat="43.56024" lon="6.90107">
        <ele>389.47</ele>
        <time>2011-05-24T07:38:04Z</time>
      </trkpt>
      <trkpt lat="43.55996" lon="6.90076">
        <ele>385.15</ele>
        <time>2011-05-24T07:38:11Z</time>
      </trkpt>
      <trkpt lat="43.55969" lon="6.90053">
        <ele>382.74</ele>
        <time>2011-05-24T07:38:18Z</time>
      </trkpt>
      <trkpt lat="43.5596" lon="6.90045">
        <ele>384.18</ele>
        <time>2011-05-24T07:38:21Z</time>
      </trkpt>
      <trkpt lat="43.55954" lon="6.90038">
        <ele>381.78</ele>
        <time>2011-05-24T07:38:23Z</time>
      </trkpt>
      <trkpt lat="43.5595" lon="6.90028">
        <ele>380.34</ele>
        <time>2011-05-24T07:38:25Z</time>
      </trkpt>
      <trkpt lat="43.5594" lon="6.90006">
        <ele>378.42</ele>
        <time>2011-05-24T07:38:30Z</time>
      </trkpt>
      <trkpt lat="43.5592" lon="6.90009">
        <ele>378.9</ele>
        <time>2011-05-24T07:38:35Z</time>
      </trkpt>
      <trkpt lat="43.55909" lon="6.90022">
        <ele>373.61</ele>
        <time>2011-05-24T07:38:38Z</time>
      </trkpt>
      <trkpt lat="43.55906" lon="6.90026">
        <ele>374.57</ele>
        <time>2011-05-24T07:38:39Z</time>
      </trkpt>
      <trkpt lat="43.55891" lon="6.90047">
        <ele>375.05</ele>
        <time>2011-05-24T07:38:43Z</time>
      </trkpt>
      <trkpt lat="43.55882" lon="6.90072">
        <ele>372.17</ele>
        <time>2011-05-24T07:38:47Z</time>
      </trkpt>
      <trkpt lat="43.55878" lon="6.90093">
        <ele>368.32</ele>
        <time>2011-05-24T07:38:50Z</time>
      </trkpt>
      <trkpt lat="43.55876" lon="6.901">
        <ele>367.84</ele>
        <time>2011-05-24T07:38:51Z</time>
      </trkpt>
      <trkpt lat="43.55872" lon="6.90115">
        <ele>370.24</ele>
        <time>2011-05-24T07:38:53Z</time>
      </trkpt>
      <trkpt lat="43.55867" lon="6.90129">
        <ele>367.84</ele>
        <time>2011-05-24T07:38:55Z</time>
      </trkpt>
      <trkpt lat="43.55831" lon="6.90151">
        <ele>364.48</ele>
        <time>2011-05-24T07:39:03Z</time>
      </trkpt>
      <trkpt lat="43.55825" lon="6.90149">
        <ele>362.55</ele>
        <time>2011-05-24T07:39:04Z</time>
      </trkpt>
      <trkpt lat="43.55813" lon="6.90143">
        <ele>362.55</ele>
        <time>2011-05-24T07:39:06Z</time>
      </trkpt>
      <trkpt lat="43.55786" lon="6.90127">
        <ele>359.19</ele>
        <time>2011-05-24T07:39:11Z</time>
      </trkpt>
      <trkpt lat="43.55751" lon="6.90113">
        <ele>353.9</ele>
        <time>2011-05-24T07:39:20Z</time>
      </trkpt>
      <trkpt lat="43.55751" lon="6.90125">
        <ele>354.38</ele>
        <time>2011-05-24T07:39:24Z</time>
      </trkpt>
      <trkpt lat="43.55784" lon="6.90142">
        <ele>350.54</ele>
        <time>2011-05-24T07:39:37Z</time>
      </trkpt>
      <trkpt lat="43.55795" lon="6.90153">
        <ele>351.5</ele>
        <time>2011-05-24T07:39:40Z</time>
      </trkpt>
      <trkpt lat="43.55812" lon="6.90166">
        <ele>351.5</ele>
        <time>2011-05-24T07:39:44Z</time>
      </trkpt>
      <trkpt lat="43.55824" lon="6.90175">
        <ele>350.54</ele>
        <time>2011-05-24T07:39:47Z</time>
      </trkpt>
      <trkpt lat="43.5584" lon="6.90183">
        <ele>350.54</ele>
        <time>2011-05-24T07:39:51Z</time>
      </trkpt>
      <trkpt lat="43.55858" lon="6.90175">
        <ele>348.13</ele>
        <time>2011-05-24T07:39:56Z</time>
      </trkpt>
      <trkpt lat="43.55875" lon="6.90158">
        <ele>346.69</ele>
        <time>2011-05-24T07:40:00Z</time>
      </trkpt>
      <trkpt lat="43.55893" lon="6.90131">
        <ele>344.77</ele>
        <time>2011-05-24T07:40:05Z</time>
      </trkpt>
      <trkpt lat="43.55903" lon="6.90109">
        <ele>345.25</ele>
        <time>2011-05-24T07:40:09Z</time>
      </trkpt>
      <trkpt lat="43.55924" lon="6.90108">
        <ele>342.37</ele>
        <time>2011-05-24T07:40:16Z</time>
      </trkpt>
      <trkpt lat="43.55928" lon="6.90113">
        <ele>342.37</ele>
        <time>2011-05-24T07:40:17Z</time>
      </trkpt>
      <trkpt lat="43.55936" lon="6.90132">
        <ele>339.96</ele>
        <time>2011-05-24T07:40:20Z</time>
      </trkpt>
      <trkpt lat="43.55938" lon="6.90152">
        <ele>337.08</ele>
        <time>2011-05-24T07:40:23Z</time>
      </trkpt>
      <trkpt lat="43.55953" lon="6.90182">
        <ele>336.6</ele>
        <time>2011-05-24T07:40:28Z</time>
      </trkpt>
      <trkpt lat="43.55956" lon="6.90199">
        <ele>335.16</ele>
        <time>2011-05-24T07:40:30Z</time>
      </trkpt>
      <trkpt lat="43.55963" lon="6.90223">
        <ele>331.79</ele>
        <time>2011-05-24T07:40:33Z</time>
      </trkpt>
      <trkpt lat="43.55967" lon="6.90228">
        <ele>331.79</ele>
        <time>2011-05-24T07:40:34Z</time>
      </trkpt>
      <trkpt lat="43.55976" lon="6.90239">
        <ele>331.79</ele>
        <time>2011-05-24T07:40:36Z</time>
      </trkpt>
      <trkpt lat="43.56" lon="6.90255">
        <ele>334.2</ele>
        <time>2011-05-24T07:40:41Z</time>
      </trkpt>
      <trkpt lat="43.56015" lon="6.90261">
        <ele>332.75</ele>
        <time>2011-05-24T07:40:44Z</time>
      </trkpt>
      <trkpt lat="43.56046" lon="6.90251">
        <ele>326.99</ele>
        <time>2011-05-24T07:40:52Z</time>
      </trkpt>
      <trkpt lat="43.56061" lon="6.90284">
        <ele>326.02</ele>
        <time>2011-05-24T07:40:58Z</time>
      </trkpt>
      <trkpt lat="43.56065" lon="6.90288">
        <ele>326.5</ele>
        <time>2011-05-24T07:40:59Z</time>
      </trkpt>
      <trkpt lat="43.56086" lon="6.90294">
        <ele>325.06</ele>
        <time>2011-05-24T07:41:03Z</time>
      </trkpt>
      <trkpt lat="43.56101" lon="6.90297">
        <ele>326.5</ele>
        <time>2011-05-24T07:41:06Z</time>
      </trkpt>
      <trkpt lat="43.56109" lon="6.90307">
        <ele>322.66</ele>
        <time>2011-05-24T07:41:08Z</time>
      </trkpt>
      <trkpt lat="43.56114" lon="6.90312">
        <ele>323.14</ele>
        <time>2011-05-24T07:41:09Z</time>
      </trkpt>
      <trkpt lat="43.56137" lon="6.90319">
        <ele>323.14</ele>
        <time>2011-05-24T07:41:14Z</time>
      </trkpt>
      <trkpt lat="43.56146" lon="6.9035">
        <ele>320.74</ele>
        <time>2011-05-24T07:41:21Z</time>
      </trkpt>
      <trkpt lat="43.56139" lon="6.90355">
        <ele>323.14</ele>
        <time>2011-05-24T07:41:24Z</time>
      </trkpt>
      <trkpt lat="43.56129" lon="6.90367">
        <ele>323.14</ele>
        <time>2011-05-24T07:41:30Z</time>
      </trkpt>
      <trkpt lat="43.56126" lon="6.90371">
        <ele>322.18</ele>
        <time>2011-05-24T07:41:32Z</time>
      </trkpt>
      <trkpt lat="43.56108" lon="6.90382">
        <ele>325.54</ele>
        <time>2011-05-24T07:41:40Z</time>
      </trkpt>
      <trkpt lat="43.56092" lon="6.90383">
        <ele>326.02</ele>
        <time>2011-05-24T07:41:45Z</time>
      </trkpt>
      <trkpt lat="43.56088" lon="6.90384">
        <ele>324.58</ele>
        <time>2011-05-24T07:41:46Z</time>
      </trkpt>
      <trkpt lat="43.5607" lon="6.90398">
        <ele>322.66</ele>
        <time>2011-05-24T07:41:51Z</time>
      </trkpt>
      <trkpt lat="43.56065" lon="6.90406">
        <ele>324.58</ele>
        <time>2011-05-24T07:41:53Z</time>
      </trkpt>
      <trkpt lat="43.56048" lon="6.90424">
        <ele>325.06</ele>
        <time>2011-05-24T07:41:58Z</time>
      </trkpt>
      <trkpt lat="43.56037" lon="6.90431">
        <ele>327.47</ele>
        <time>2011-05-24T07:42:01Z</time>
      </trkpt>
      <trkpt lat="43.56028" lon="6.90434">
        <ele>326.99</ele>
        <time>2011-05-24T07:42:03Z</time>
      </trkpt>
      <trkpt lat="43.55981" lon="6.90451">
        <ele>329.39</ele>
        <time>2011-05-24T07:42:15Z</time>
      </trkpt>
      <trkpt lat="43.55977" lon="6.90452">
        <ele>325.54</ele>
        <time>2011-05-24T07:42:16Z</time>
      </trkpt>
      <trkpt lat="43.55961" lon="6.90462">
        <ele>326.99</ele>
        <time>2011-05-24T07:42:20Z</time>
      </trkpt>
      <trkpt lat="43.55949" lon="6.90471">
        <ele>325.06</ele>
        <time>2011-05-24T07:42:23Z</time>
      </trkpt>
      <trkpt lat="43.55936" lon="6.90499">
        <ele>326.5</ele>
        <time>2011-05-24T07:42:29Z</time>
      </trkpt>
      <trkpt lat="43.55931" lon="6.90527">
        <ele>327.95</ele>
        <time>2011-05-24T07:42:33Z</time>
      </trkpt>
      <trkpt lat="43.55926" lon="6.90548">
        <ele>323.62</ele>
        <time>2011-05-24T07:42:36Z</time>
      </trkpt>
      <trkpt lat="43.5592" lon="6.90567">
        <ele>326.5</ele>
        <time>2011-05-24T07:42:39Z</time>
      </trkpt>
      <trkpt lat="43.55914" lon="6.9058">
        <ele>326.5</ele>
        <time>2011-05-24T07:42:41Z</time>
      </trkpt>
      <trkpt lat="43.55902" lon="6.90604">
        <ele>325.54</ele>
        <time>2011-05-24T07:42:45Z</time>
      </trkpt>
      <trkpt lat="43.55896" lon="6.90627">
        <ele>326.5</ele>
        <time>2011-05-24T07:42:49Z</time>
      </trkpt>
      <trkpt lat="43.5588" lon="6.90627">
        <ele>326.99</ele>
        <time>2011-05-24T07:42:55Z</time>
      </trkpt>
      <trkpt lat="43.55879" lon="6.9062">
        <ele>326.02</ele>
        <time>2011-05-24T07:42:56Z</time>
      </trkpt>
      <trkpt lat="43.55879" lon="6.90603">
        <ele>323.62</ele>
        <time>2011-05-24T07:42:59Z</time>
      </trkpt>
      <trkpt lat="43.55881" lon="6.90585">
        <ele>326.99</ele>
        <time>2011-05-24T07:43:02Z</time>
      </trkpt>
      <trkpt lat="43.55884" lon="6.90569">
        <ele>325.54</ele>
        <time>2011-05-24T07:43:05Z</time>
      </trkpt>
      <trkpt lat="43.55879" lon="6.90559">
        <ele>326.5</ele>
        <time>2011-05-24T07:43:08Z</time>
      </trkpt>
      <trkpt lat="43.55856" lon="6.90545">
        <ele>322.18</ele>
        <time>2011-05-24T07:43:12Z</time>
      </trkpt>
      <trkpt lat="43.55843" lon="6.90543">
        <ele>320.74</ele>
        <time>2011-05-24T07:43:14Z</time>
      </trkpt>
      <trkpt lat="43.55818" lon="6.90566">
        <ele>319.3</ele>
        <time>2011-05-24T07:43:21Z</time>
      </trkpt>
      <trkpt lat="43.55809" lon="6.90572">
        <ele>318.81</ele>
        <time>2011-05-24T07:43:23Z</time>
      </trkpt>
      <trkpt lat="43.55785" lon="6.90578">
        <ele>312.57</ele>
        <time>2011-05-24T07:43:27Z</time>
      </trkpt>
      <trkpt lat="43.55762" lon="6.90595">
        <ele>311.12</ele>
        <time>2011-05-24T07:43:31Z</time>
      </trkpt>
      <trkpt lat="43.55739" lon="6.90587">
        <ele>307.28</ele>
        <time>2011-05-24T07:43:36Z</time>
      </trkpt>
      <trkpt lat="43.55726" lon="6.90567">
        <ele>303.91</ele>
        <time>2011-05-24T07:43:40Z</time>
      </trkpt>
      <trkpt lat="43.5571" lon="6.90568">
        <ele>302.95</ele>
        <time>2011-05-24T07:43:43Z</time>
      </trkpt>
      <trkpt lat="43.55699" lon="6.90574">
        <ele>302.95</ele>
        <time>2011-05-24T07:43:45Z</time>
      </trkpt>
      <trkpt lat="43.55673" lon="6.90562">
        <ele>295.26</ele>
        <time>2011-05-24T07:43:52Z</time>
      </trkpt>
      <trkpt lat="43.55663" lon="6.90545">
        <ele>294.78</ele>
        <time>2011-05-24T07:43:55Z</time>
      </trkpt>
      <trkpt lat="43.5564" lon="6.90528">
        <ele>291.42</ele>
        <time>2011-05-24T07:44:00Z</time>
      </trkpt>
      <trkpt lat="43.55635" lon="6.90526">
        <ele>291.42</ele>
        <time>2011-05-24T07:44:01Z</time>
      </trkpt>
      <trkpt lat="43.55625" lon="6.90515">
        <ele>289.49</ele>
        <time>2011-05-24T07:44:04Z</time>
      </trkpt>
      <trkpt lat="43.55617" lon="6.90504">
        <ele>288.05</ele>
        <time>2011-05-24T07:44:07Z</time>
      </trkpt>
      <trkpt lat="43.55593" lon="6.90506">
        <ele>285.17</ele>
        <time>2011-05-24T07:44:12Z</time>
      </trkpt>
      <trkpt lat="43.55588" lon="6.90511">
        <ele>284.69</ele>
        <time>2011-05-24T07:44:13Z</time>
      </trkpt>
      <trkpt lat="43.5558" lon="6.90521">
        <ele>283.25</ele>
        <time>2011-05-24T07:44:15Z</time>
      </trkpt>
      <trkpt lat="43.55563" lon="6.90551">
        <ele>279.88</ele>
        <time>2011-05-24T07:44:21Z</time>
      </trkpt>
      <trkpt lat="43.55542" lon="6.90542">
        <ele>275.07</ele>
        <time>2011-05-24T07:44:26Z</time>
      </trkpt>
      <trkpt lat="43.55539" lon="6.90526">
        <ele>277</ele>
        <time>2011-05-24T07:44:28Z</time>
      </trkpt>
      <trkpt lat="43.55536" lon="6.90512">
        <ele>275.07</ele>
        <time>2011-05-24T07:44:30Z</time>
      </trkpt>
      <trkpt lat="43.55529" lon="6.90501">
        <ele>273.15</ele>
        <time>2011-05-24T07:44:32Z</time>
      </trkpt>
      <trkpt lat="43.55521" lon="6.90491">
        <ele>270.75</ele>
        <time>2011-05-24T07:44:34Z</time>
      </trkpt>
      <trkpt lat="43.55514" lon="6.90481">
        <ele>270.75</ele>
        <time>2011-05-24T07:44:36Z</time>
      </trkpt>
      <trkpt lat="43.55496" lon="6.90466">
        <ele>267.38</ele>
        <time>2011-05-24T07:44:40Z</time>
      </trkpt>
      <trkpt lat="43.55491" lon="6.90463">
        <ele>266.42</ele>
        <time>2011-05-24T07:44:41Z</time>
      </trkpt>
      <trkpt lat="43.55481" lon="6.90456">
        <ele>268.83</ele>
        <time>2011-05-24T07:44:43Z</time>
      </trkpt>
      <trkpt lat="43.55474" lon="6.90448">
        <ele>266.42</ele>
        <time>2011-05-24T07:44:45Z</time>
      </trkpt>
      <trkpt lat="43.55465" lon="6.90439">
        <ele>265.46</ele>
        <time>2011-05-24T07:44:47Z</time>
      </trkpt>
      <trkpt lat="43.5545" lon="6.90427">
        <ele>262.1</ele>
        <time>2011-05-24T07:44:50Z</time>
      </trkpt>
      <trkpt lat="43.55431" lon="6.90423">
        <ele>260.65</ele>
        <time>2011-05-24T07:44:53Z</time>
      </trkpt>
      <trkpt lat="43.55406" lon="6.90412">
        <ele>262.58</ele>
        <time>2011-05-24T07:44:57Z</time>
      </trkpt>
      <trkpt lat="43.55402" lon="6.90408">
        <ele>263.06</ele>
        <time>2011-05-24T07:44:58Z</time>
      </trkpt>
      <trkpt lat="43.55358" lon="6.90386">
        <ele>260.17</ele>
        <time>2011-05-24T07:45:06Z</time>
      </trkpt>
      <trkpt lat="43.55347" lon="6.90374">
        <ele>263.06</ele>
        <time>2011-05-24T07:45:09Z</time>
      </trkpt>
      <trkpt lat="43.55339" lon="6.90357">
        <ele>266.42</ele>
        <time>2011-05-24T07:45:13Z</time>
      </trkpt>
      <trkpt lat="43.55337" lon="6.90353">
        <ele>265.46</ele>
        <time>2011-05-24T07:45:14Z</time>
      </trkpt>
      <trkpt lat="43.55334" lon="6.90334">
        <ele>264.5</ele>
        <time>2011-05-24T07:45:18Z</time>
      </trkpt>
      <trkpt lat="43.55334" lon="6.90325">
        <ele>267.38</ele>
        <time>2011-05-24T07:45:20Z</time>
      </trkpt>
      <trkpt lat="43.55333" lon="6.9032">
        <ele>263.06</ele>
        <time>2011-05-24T07:45:21Z</time>
      </trkpt>
      <trkpt lat="43.55331" lon="6.90316">
        <ele>264.98</ele>
        <time>2011-05-24T07:45:22Z</time>
      </trkpt>
      <trkpt lat="43.55314" lon="6.90325">
        <ele>266.9</ele>
        <time>2011-05-24T07:45:28Z</time>
      </trkpt>
      <trkpt lat="43.55312" lon="6.90335">
        <ele>269.79</ele>
        <time>2011-05-24T07:45:30Z</time>
      </trkpt>
      <trkpt lat="43.55311" lon="6.90338">
        <ele>264.98</ele>
        <time>2011-05-24T07:45:31Z</time>
      </trkpt>
      <trkpt lat="43.55309" lon="6.90367">
        <ele>269.31</ele>
        <time>2011-05-24T07:45:39Z</time>
      </trkpt>
      <trkpt lat="43.55309" lon="6.90371">
        <ele>265.46</ele>
        <time>2011-05-24T07:45:40Z</time>
      </trkpt>
      <trkpt lat="43.55306" lon="6.90387">
        <ele>264.5</ele>
        <time>2011-05-24T07:45:44Z</time>
      </trkpt>
      <trkpt lat="43.55304" lon="6.90395">
        <ele>265.94</ele>
        <time>2011-05-24T07:45:46Z</time>
      </trkpt>
      <trkpt lat="43.55301" lon="6.9041">
        <ele>269.31</ele>
        <time>2011-05-24T07:45:50Z</time>
      </trkpt>
      <trkpt lat="43.55301" lon="6.90414">
        <ele>269.31</ele>
        <time>2011-05-24T07:45:51Z</time>
      </trkpt>
      <trkpt lat="43.55296" lon="6.90466">
        <ele>270.27</ele>
        <time>2011-05-24T07:46:06Z</time>
      </trkpt>
      <trkpt lat="43.55289" lon="6.90473">
        <ele>272.67</ele>
        <time>2011-05-24T07:46:09Z</time>
      </trkpt>
      <trkpt lat="43.55273" lon="6.90477">
        <ele>266.9</ele>
        <time>2011-05-24T07:46:14Z</time>
      </trkpt>
      <trkpt lat="43.5527" lon="6.90478">
        <ele>271.23</ele>
        <time>2011-05-24T07:46:15Z</time>
      </trkpt>
      <trkpt lat="43.55264" lon="6.90479">
        <ele>272.19</ele>
        <time>2011-05-24T07:46:17Z</time>
      </trkpt>
      <trkpt lat="43.55249" lon="6.90489">
        <ele>268.35</ele>
        <time>2011-05-24T07:46:22Z</time>
      </trkpt>
      <trkpt lat="43.55243" lon="6.9049">
        <ele>273.63</ele>
        <time>2011-05-24T07:46:24Z</time>
      </trkpt>
      <trkpt lat="43.55222" lon="6.90513">
        <ele>276.52</ele>
        <time>2011-05-24T07:46:36Z</time>
      </trkpt>
      <trkpt lat="43.55222" lon="6.90516">
        <ele>271.23</ele>
        <time>2011-05-24T07:46:37Z</time>
      </trkpt>
      <trkpt lat="43.55223" lon="6.90518">
        <ele>276.52</ele>
        <time>2011-05-24T07:46:38Z</time>
      </trkpt>
      <trkpt lat="43.55225" lon="6.90523">
        <ele>277</ele>
        <time>2011-05-24T07:46:40Z</time>
      </trkpt>
      <trkpt lat="43.55228" lon="6.90526">
        <ele>274.11</ele>
        <time>2011-05-24T07:46:42Z</time>
      </trkpt>
      <trkpt lat="43.55232" lon="6.90529">
        <ele>277.48</ele>
        <time>2011-05-24T07:46:44Z</time>
      </trkpt>
      <trkpt lat="43.55243" lon="6.90538">
        <ele>279.88</ele>
        <time>2011-05-24T07:46:52Z</time>
      </trkpt>
      <trkpt lat="43.55245" lon="6.9054">
        <ele>277.96</ele>
        <time>2011-05-24T07:46:54Z</time>
      </trkpt>
      <trkpt lat="43.55251" lon="6.90549">
        <ele>280.36</ele>
        <time>2011-05-24T07:46:59Z</time>
      </trkpt>
      <trkpt lat="43.55252" lon="6.90551">
        <ele>277</ele>
        <time>2011-05-24T07:47:00Z</time>
      </trkpt>
      <trkpt lat="43.55253" lon="6.90552">
        <ele>279.88</ele>
        <time>2011-05-24T07:47:01Z</time>
      </trkpt>
      <trkpt lat="43.55258" lon="6.90562">
        <ele>281.8</ele>
        <time>2011-05-24T07:47:07Z</time>
      </trkpt>
      <trkpt lat="43.5526" lon="6.90568">
        <ele>279.88</ele>
        <time>2011-05-24T07:47:10Z</time>
      </trkpt>
      <trkpt lat="43.5526" lon="6.90576">
        <ele>277.96</ele>
        <time>2011-05-24T07:47:13Z</time>
      </trkpt>
      <trkpt lat="43.5526" lon="6.90579">
        <ele>281.32</ele>
        <time>2011-05-24T07:47:14Z</time>
      </trkpt>
      <trkpt lat="43.55262" lon="6.90584">
        <ele>285.17</ele>
        <time>2011-05-24T07:47:17Z</time>
      </trkpt>
      <trkpt lat="43.55262" lon="6.90591">
        <ele>280.36</ele>
        <time>2011-05-24T07:47:21Z</time>
      </trkpt>
      <trkpt lat="43.5526" lon="6.90596">
        <ele>284.21</ele>
        <time>2011-05-24T07:47:24Z</time>
      </trkpt>
      <trkpt lat="43.5526" lon="6.90598">
        <ele>284.21</ele>
        <time>2011-05-24T07:47:25Z</time>
      </trkpt>
      <trkpt lat="43.55246" lon="6.90632">
        <ele>285.65</ele>
        <time>2011-05-24T07:47:42Z</time>
      </trkpt>
      <trkpt lat="43.55241" lon="6.90643">
        <ele>287.57</ele>
        <time>2011-05-24T07:47:49Z</time>
      </trkpt>
      <trkpt lat="43.55239" lon="6.90646">
        <ele>282.77</ele>
        <time>2011-05-24T07:47:50Z</time>
      </trkpt>
      <trkpt lat="43.55238" lon="6.90648">
        <ele>288.05</ele>
        <time>2011-05-24T07:47:51Z</time>
      </trkpt>
      <trkpt lat="43.55216" lon="6.90669">
        <ele>287.57</ele>
        <time>2011-05-24T07:48:06Z</time>
      </trkpt>
      <trkpt lat="43.55195" lon="6.90657">
        <ele>285.17</ele>
        <time>2011-05-24T07:48:13Z</time>
      </trkpt>
      <trkpt lat="43.55179" lon="6.9066">
        <ele>289.49</ele>
        <time>2011-05-24T07:48:17Z</time>
      </trkpt>
      <trkpt lat="43.55139" lon="6.9068">
        <ele>289.01</ele>
        <time>2011-05-24T07:48:31Z</time>
      </trkpt>
      <trkpt lat="43.55134" lon="6.90713">
        <ele>292.38</ele>
        <time>2011-05-24T07:48:44Z</time>
      </trkpt>
      <trkpt lat="43.55125" lon="6.90726">
        <ele>293.82</ele>
        <time>2011-05-24T07:48:51Z</time>
      </trkpt>
      <trkpt lat="43.55099" lon="6.90735">
        <ele>295.74</ele>
        <time>2011-05-24T07:49:07Z</time>
      </trkpt>
      <trkpt lat="43.55084" lon="6.90754">
        <ele>299.59</ele>
        <time>2011-05-24T07:49:19Z</time>
      </trkpt>
      <trkpt lat="43.55083" lon="6.90755">
        <ele>298.63</ele>
        <time>2011-05-24T07:49:20Z</time>
      </trkpt>
      <trkpt lat="43.55065" lon="6.90781">
        <ele>301.99</ele>
        <time>2011-05-24T07:49:37Z</time>
      </trkpt>
      <trkpt lat="43.55059" lon="6.90794">
        <ele>301.51</ele>
        <time>2011-05-24T07:49:45Z</time>
      </trkpt>
      <trkpt lat="43.55053" lon="6.90798">
        <ele>305.36</ele>
        <time>2011-05-24T07:49:49Z</time>
      </trkpt>
      <trkpt lat="43.55026" lon="6.90803">
        <ele>306.32</ele>
        <time>2011-05-24T07:50:07Z</time>
      </trkpt>
      <trkpt lat="43.55024" lon="6.90802">
        <ele>307.76</ele>
        <time>2011-05-24T07:50:09Z</time>
      </trkpt>
      <trkpt lat="43.55022" lon="6.90801">
        <ele>304.39</ele>
        <time>2011-05-24T07:50:10Z</time>
      </trkpt>
      <trkpt lat="43.55021" lon="6.90801">
        <ele>305.36</ele>
        <time>2011-05-24T07:50:11Z</time>
      </trkpt>
      <trkpt lat="43.55017" lon="6.90803">
        <ele>307.76</ele>
        <time>2011-05-24T07:50:14Z</time>
      </trkpt>
      <trkpt lat="43.5502" lon="6.90811">
        <ele>306.32</ele>
        <time>2011-05-24T07:50:20Z</time>
      </trkpt>
      <trkpt lat="43.55042" lon="6.9083">
        <ele>309.2</ele>
        <time>2011-05-24T07:50:37Z</time>
      </trkpt>
      <trkpt lat="43.55061" lon="6.90838">
        <ele>312.57</ele>
        <time>2011-05-24T07:50:50Z</time>
      </trkpt>
      <trkpt lat="43.55065" lon="6.90838">
        <ele>311.12</ele>
        <time>2011-05-24T07:50:53Z</time>
      </trkpt>
      <trkpt lat="43.55068" lon="6.90838">
        <ele>313.53</ele>
        <time>2011-05-24T07:50:55Z</time>
      </trkpt>
      <trkpt lat="43.55098" lon="6.9083">
        <ele>315.45</ele>
        <time>2011-05-24T07:51:16Z</time>
      </trkpt>
      <trkpt lat="43.55114" lon="6.90826">
        <ele>316.89</ele>
        <time>2011-05-24T07:51:27Z</time>
      </trkpt>
      <trkpt lat="43.55135" lon="6.90833">
        <ele>319.78</ele>
        <time>2011-05-24T07:51:41Z</time>
      </trkpt>
      <trkpt lat="43.55159" lon="6.90843">
        <ele>322.66</ele>
        <time>2011-05-24T07:51:58Z</time>
      </trkpt>
      <trkpt lat="43.55182" lon="6.90836">
        <ele>323.62</ele>
        <time>2011-05-24T07:52:14Z</time>
      </trkpt>
      <trkpt lat="43.55192" lon="6.90837">
        <ele>324.58</ele>
        <time>2011-05-24T07:52:21Z</time>
      </trkpt>
      <trkpt lat="43.55198" lon="6.90837">
        <ele>325.54</ele>
        <time>2011-05-24T07:52:25Z</time>
      </trkpt>
      <trkpt lat="43.55203" lon="6.90837">
        <ele>326.02</ele>
        <time>2011-05-24T07:52:29Z</time>
      </trkpt>
      <trkpt lat="43.55226" lon="6.90829">
        <ele>326.02</ele>
        <time>2011-05-24T07:52:45Z</time>
      </trkpt>
      <trkpt lat="43.55263" lon="6.90815">
        <ele>324.58</ele>
        <time>2011-05-24T07:52:53Z</time>
      </trkpt>
      <trkpt lat="43.55298" lon="6.90791">
        <ele>326.99</ele>
        <time>2011-05-24T07:53:02Z</time>
      </trkpt>
      <trkpt lat="43.5532" lon="6.90787">
        <ele>330.35</ele>
        <time>2011-05-24T07:53:16Z</time>
      </trkpt>
      <trkpt lat="43.55332" lon="6.90798">
        <ele>331.79</ele>
        <time>2011-05-24T07:53:27Z</time>
      </trkpt>
      <trkpt lat="43.55341" lon="6.908">
        <ele>333.71</ele>
        <time>2011-05-24T07:53:34Z</time>
      </trkpt>
      <trkpt lat="43.55342" lon="6.908">
        <ele>334.68</ele>
        <time>2011-05-24T07:53:35Z</time>
      </trkpt>
      <trkpt lat="43.5535" lon="6.90801">
        <ele>335.16</ele>
        <time>2011-05-24T07:53:41Z</time>
      </trkpt>
      <trkpt lat="43.55377" lon="6.90808">
        <ele>337.08</ele>
        <time>2011-05-24T07:54:02Z</time>
      </trkpt>
      <trkpt lat="43.55401" lon="6.90808">
        <ele>339.96</ele>
        <time>2011-05-24T07:54:16Z</time>
      </trkpt>
      <trkpt lat="43.55413" lon="6.90808">
        <ele>340.92</ele>
        <time>2011-05-24T07:54:24Z</time>
      </trkpt>
      <trkpt lat="43.5544" lon="6.90794">
        <ele>344.29</ele>
        <time>2011-05-24T07:54:42Z</time>
      </trkpt>
      <trkpt lat="43.55446" lon="6.90788">
        <ele>344.77</ele>
        <time>2011-05-24T07:54:47Z</time>
      </trkpt>
      <trkpt lat="43.55477" lon="6.90792">
        <ele>346.69</ele>
        <time>2011-05-24T07:55:06Z</time>
      </trkpt>
      <trkpt lat="43.55506" lon="6.908">
        <ele>349.1</ele>
        <time>2011-05-24T07:55:25Z</time>
      </trkpt>
      <trkpt lat="43.55533" lon="6.90808">
        <ele>351.02</ele>
        <time>2011-05-24T07:55:42Z</time>
      </trkpt>
      <trkpt lat="43.55536" lon="6.90808">
        <ele>351.98</ele>
        <time>2011-05-24T07:55:44Z</time>
      </trkpt>
      <trkpt lat="43.55544" lon="6.90792">
        <ele>353.42</ele>
        <time>2011-05-24T07:55:54Z</time>
      </trkpt>
      <trkpt lat="43.55545" lon="6.90792">
        <ele>353.42</ele>
        <time>2011-05-24T07:55:55Z</time>
      </trkpt>
      <trkpt lat="43.55549" lon="6.90803">
        <ele>352.94</ele>
        <time>2011-05-24T07:56:08Z</time>
      </trkpt>
      <trkpt lat="43.55549" lon="6.90802">
        <ele>352.94</ele>
        <time>2011-05-24T07:56:53Z</time>
      </trkpt>
      <trkpt lat="43.55548" lon="6.90801">
        <ele>352.46</ele>
        <time>2011-05-24T07:57:12Z</time>
      </trkpt>
      <trkpt lat="43.55548" lon="6.90801">
        <ele>351.98</ele>
        <time>2011-05-24T07:57:25Z</time>
      </trkpt>
      <trkpt lat="43.5555" lon="6.908">
        <ele>355.34</ele>
        <time>2011-05-24T07:57:36Z</time>
      </trkpt>
      <trkpt lat="43.5555" lon="6.90799">
        <ele>351.02</ele>
        <time>2011-05-24T07:57:38Z</time>
      </trkpt>
      <trkpt lat="43.5555" lon="6.90799">
        <ele>354.38</ele>
        <time>2011-05-24T07:57:41Z</time>
      </trkpt>
      <trkpt lat="43.5555" lon="6.908">
        <ele>351.5</ele>
        <time>2011-05-24T07:58:15Z</time>
      </trkpt>
      <trkpt lat="43.5555" lon="6.908">
        <ele>354.86</ele>
        <time>2011-05-24T07:58:16Z</time>
      </trkpt>
      <trkpt lat="43.5555" lon="6.908">
        <ele>352.94</ele>
        <time>2011-05-24T07:58:19Z</time>
      </trkpt>
      <trkpt lat="43.5555" lon="6.908">
        <ele>353.9</ele>
        <time>2011-05-24T07:58:21Z</time>
      </trkpt>
      <trkpt lat="43.5555" lon="6.908">
        <ele>352.46</ele>
        <time>2011-05-24T07:58:31Z</time>
      </trkpt>
      <trkpt lat="43.5555" lon="6.90802">
        <ele>354.86</ele>
        <time>2011-05-24T07:58:46Z</time>
      </trkpt>
      <trkpt lat="43.5555" lon="6.90801">
        <ele>353.9</ele>
        <time>2011-05-24T07:58:47Z</time>
      </trkpt>
      <trkpt lat="43.5555" lon="6.90801">
        <ele>354.38</ele>
        <time>2011-05-24T07:58:52Z</time>
      </trkpt>
      <trkpt lat="43.55551" lon="6.90801">
        <ele>354.38</ele>
        <time>2011-05-24T07:59:11Z</time>
      </trkpt>
      <trkpt lat="43.55551" lon="6.90801">
        <ele>350.54</ele>
        <time>2011-05-24T07:59:32Z</time>
      </trkpt>
      <trkpt lat="43.55551" lon="6.90801">
        <ele>354.38</ele>
        <time>2011-05-24T07:59:33Z</time>
      </trkpt>
      <trkpt lat="43.55555" lon="6.90801">
        <ele>352.94</ele>
        <time>2011-05-24T08:00:09Z</time>
      </trkpt>
      <trkpt lat="43.55553" lon="6.90801">
        <ele>353.42</ele>
        <time>2011-05-24T08:00:50Z</time>
      </trkpt>
      <trkpt lat="43.55552" lon="6.908">
        <ele>352.46</ele>
        <time>2011-05-24T08:01:13Z</time>
      </trkpt>
      <trkpt lat="43.55552" lon="6.908">
        <ele>355.83</ele>
        <time>2011-05-24T08:01:42Z</time>
      </trkpt>
      <trkpt lat="43.55552" lon="6.908">
        <ele>352.94</ele>
        <time>2011-05-24T08:01:44Z</time>
      </trkpt>
      <trkpt lat="43.55552" lon="6.908">
        <ele>352.94</ele>
        <time>2011-05-24T08:01:55Z</time>
      </trkpt>
      <trkpt lat="43.55552" lon="6.908">
        <ele>351.98</ele>
        <time>2011-05-24T08:02:17Z</time>
      </trkpt>
      <trkpt lat="43.55552" lon="6.908">
        <ele>355.83</ele>
        <time>2011-05-24T08:02:22Z</time>
      </trkpt>
      <trkpt lat="43.55552" lon="6.908">
        <ele>351.98</ele>
        <time>2011-05-24T08:02:24Z</time>
      </trkpt>
      <trkpt lat="43.55552" lon="6.908">
        <ele>355.83</ele>
        <time>2011-05-24T08:02:27Z</time>
      </trkpt>
      <trkpt lat="43.55552" lon="6.908">
        <ele>354.38</ele>
        <time>2011-05-24T08:02:43Z</time>
      </trkpt>
      <trkpt lat="43.55548" lon="6.90799">
        <ele>354.38</ele>
        <time>2011-05-24T08:03:36Z</time>
      </trkpt>
      <trkpt lat="43.55548" lon="6.90799">
        <ele>351.98</ele>
        <time>2011-05-24T08:03:38Z</time>
      </trkpt>
      <trkpt lat="43.55548" lon="6.90799">
        <ele>351.98</ele>
        <time>2011-05-24T08:03:51Z</time>
      </trkpt>
      <trkpt lat="43.55549" lon="6.90799">
        <ele>355.34</ele>
        <time>2011-05-24T08:04:37Z</time>
      </trkpt>
      <trkpt lat="43.55549" lon="6.90799">
        <ele>350.54</ele>
        <time>2011-05-24T08:04:43Z</time>
      </trkpt>
      <trkpt lat="43.55549" lon="6.90799">
        <ele>355.34</ele>
        <time>2011-05-24T08:04:44Z</time>
      </trkpt>
      <trkpt lat="43.55549" lon="6.90799">
        <ele>354.38</ele>
        <time>2011-05-24T08:04:45Z</time>
      </trkpt>
      <trkpt lat="43.55551" lon="6.90798">
        <ele>352.94</ele>
        <time>2011-05-24T08:05:07Z</time>
      </trkpt>
      <trkpt lat="43.55551" lon="6.90798">
        <ele>355.83</ele>
        <time>2011-05-24T08:05:14Z</time>
      </trkpt>
      <trkpt lat="43.55551" lon="6.90798">
        <ele>353.9</ele>
        <time>2011-05-24T08:05:16Z</time>
      </trkpt>
      <trkpt lat="43.55551" lon="6.90798">
        <ele>352.94</ele>
        <time>2011-05-24T08:05:32Z</time>
      </trkpt>
      <trkpt lat="43.55551" lon="6.90799">
        <ele>355.83</ele>
        <time>2011-05-24T08:05:39Z</time>
      </trkpt>
      <trkpt lat="43.55551" lon="6.908">
        <ele>353.9</ele>
        <time>2011-05-24T08:05:53Z</time>
      </trkpt>
      <trkpt lat="43.55554" lon="6.90803">
        <ele>354.38</ele>
        <time>2011-05-24T08:06:29Z</time>
      </trkpt>
      <trkpt lat="43.55553" lon="6.90803">
        <ele>354.86</ele>
        <time>2011-05-24T08:06:41Z</time>
      </trkpt>
      <trkpt lat="43.55552" lon="6.90804">
        <ele>353.42</ele>
        <time>2011-05-24T08:06:45Z</time>
      </trkpt>
      <trkpt lat="43.5555" lon="6.90805">
        <ele>351.5</ele>
        <time>2011-05-24T08:06:47Z</time>
      </trkpt>
      <trkpt lat="43.55548" lon="6.9081">
        <ele>353.9</ele>
        <time>2011-05-24T08:06:51Z</time>
      </trkpt>
      <trkpt lat="43.55549" lon="6.90808">
        <ele>354.38</ele>
        <time>2011-05-24T08:07:05Z</time>
      </trkpt>
      <trkpt lat="43.55549" lon="6.90807">
        <ele>351.5</ele>
        <time>2011-05-24T08:07:10Z</time>
      </trkpt>
      <trkpt lat="43.55549" lon="6.90806">
        <ele>351.98</ele>
        <time>2011-05-24T08:07:18Z</time>
      </trkpt>
      <trkpt lat="43.55563" lon="6.90813">
        <ele>354.38</ele>
        <time>2011-05-24T08:07:30Z</time>
      </trkpt>
      <trkpt lat="43.55569" lon="6.90821">
        <ele>355.34</ele>
        <time>2011-05-24T08:07:37Z</time>
      </trkpt>
      <trkpt lat="43.5557" lon="6.90822">
        <ele>355.83</ele>
        <time>2011-05-24T08:07:38Z</time>
      </trkpt>
      <trkpt lat="43.55579" lon="6.90835">
        <ele>358.23</ele>
        <time>2011-05-24T08:07:49Z</time>
      </trkpt>
      <trkpt lat="43.5558" lon="6.90838">
        <ele>357.27</ele>
        <time>2011-05-24T08:07:51Z</time>
      </trkpt>
      <trkpt lat="43.55591" lon="6.90831">
        <ele>358.23</ele>
        <time>2011-05-24T08:08:01Z</time>
      </trkpt>
      <trkpt lat="43.55609" lon="6.90812">
        <ele>361.11</ele>
        <time>2011-05-24T08:08:18Z</time>
      </trkpt>
      <trkpt lat="43.55612" lon="6.90808">
        <ele>362.55</ele>
        <time>2011-05-24T08:08:21Z</time>
      </trkpt>
      <trkpt lat="43.55633" lon="6.90787">
        <ele>364.96</ele>
        <time>2011-05-24T08:08:39Z</time>
      </trkpt>
      <trkpt lat="43.55638" lon="6.90782">
        <ele>365.44</ele>
        <time>2011-05-24T08:08:43Z</time>
      </trkpt>
      <trkpt lat="43.55664" lon="6.90772">
        <ele>369.28</ele>
        <time>2011-05-24T08:09:02Z</time>
      </trkpt>
      <trkpt lat="43.55694" lon="6.90766">
        <ele>369.76</ele>
        <time>2011-05-24T08:09:23Z</time>
      </trkpt>
      <trkpt lat="43.55698" lon="6.90766">
        <ele>371.69</ele>
        <time>2011-05-24T08:09:26Z</time>
      </trkpt>
      <trkpt lat="43.55703" lon="6.90766">
        <ele>371.21</ele>
        <time>2011-05-24T08:09:30Z</time>
      </trkpt>
      <trkpt lat="43.5571" lon="6.90766">
        <ele>373.61</ele>
        <time>2011-05-24T08:09:35Z</time>
      </trkpt>
      <trkpt lat="43.55733" lon="6.90765">
        <ele>374.57</ele>
        <time>2011-05-24T08:09:50Z</time>
      </trkpt>
      <trkpt lat="43.55755" lon="6.90774">
        <ele>377.94</ele>
        <time>2011-05-24T08:10:06Z</time>
      </trkpt>
      <trkpt lat="43.55776" lon="6.90785">
        <ele>382.74</ele>
        <time>2011-05-24T08:10:22Z</time>
      </trkpt>
      <trkpt lat="43.55777" lon="6.90785">
        <ele>383.22</ele>
        <time>2011-05-24T08:10:23Z</time>
      </trkpt>
      <trkpt lat="43.55788" lon="6.90788">
        <ele>383.22</ele>
        <time>2011-05-24T08:10:31Z</time>
      </trkpt>
      <trkpt lat="43.55797" lon="6.90794">
        <ele>386.59</ele>
        <time>2011-05-24T08:10:39Z</time>
      </trkpt>
      <trkpt lat="43.5582" lon="6.90807">
        <ele>388.99</ele>
        <time>2011-05-24T08:10:59Z</time>
      </trkpt>
      <trkpt lat="43.55821" lon="6.90807">
        <ele>388.99</ele>
        <time>2011-05-24T08:11:00Z</time>
      </trkpt>
      <trkpt lat="43.55833" lon="6.90814">
        <ele>390.91</ele>
        <time>2011-05-24T08:11:12Z</time>
      </trkpt>
      <trkpt lat="43.55836" lon="6.90821">
        <ele>389.95</ele>
        <time>2011-05-24T08:11:17Z</time>
      </trkpt>
      <trkpt lat="43.55841" lon="6.90836">
        <ele>393.8</ele>
        <time>2011-05-24T08:11:26Z</time>
      </trkpt>
      <trkpt lat="43.55848" lon="6.90861">
        <ele>396.68</ele>
        <time>2011-05-24T08:11:42Z</time>
      </trkpt>
      <trkpt lat="43.5587" lon="6.90863">
        <ele>396.68</ele>
        <time>2011-05-24T08:11:58Z</time>
      </trkpt>
      <trkpt lat="43.55871" lon="6.90864">
        <ele>397.16</ele>
        <time>2011-05-24T08:11:59Z</time>
      </trkpt>
      <trkpt lat="43.55892" lon="6.90871">
        <ele>401.49</ele>
        <time>2011-05-24T08:12:12Z</time>
      </trkpt>
      <trkpt lat="43.559" lon="6.90874">
        <ele>401.01</ele>
        <time>2011-05-24T08:12:17Z</time>
      </trkpt>
      <trkpt lat="43.55902" lon="6.90877">
        <ele>400.05</ele>
        <time>2011-05-24T08:12:19Z</time>
      </trkpt>
      <trkpt lat="43.55912" lon="6.90886">
        <ele>403.89</ele>
        <time>2011-05-24T08:12:26Z</time>
      </trkpt>
      <trkpt lat="43.55935" lon="6.90912">
        <ele>403.41</ele>
        <time>2011-05-24T08:12:45Z</time>
      </trkpt>
      <trkpt lat="43.55945" lon="6.90919">
        <ele>406.77</ele>
        <time>2011-05-24T08:12:52Z</time>
      </trkpt>
      <trkpt lat="43.55965" lon="6.9093">
        <ele>410.62</ele>
        <time>2011-05-24T08:13:05Z</time>
      </trkpt>
      <trkpt lat="43.55993" lon="6.90937">
        <ele>407.26</ele>
        <time>2011-05-24T08:13:23Z</time>
      </trkpt>
      <trkpt lat="43.55996" lon="6.90937">
        <ele>408.7</ele>
        <time>2011-05-24T08:13:24Z</time>
      </trkpt>
      <trkpt lat="43.5603" lon="6.90942">
        <ele>411.1</ele>
        <time>2011-05-24T08:13:34Z</time>
      </trkpt>
      <trkpt lat="43.56036" lon="6.90943">
        <ele>410.14</ele>
        <time>2011-05-24T08:13:36Z</time>
      </trkpt>
      <trkpt lat="43.5606" lon="6.90949">
        <ele>411.1</ele>
        <time>2011-05-24T08:13:43Z</time>
      </trkpt>
      <trkpt lat="43.56068" lon="6.9095">
        <ele>407.26</ele>
        <time>2011-05-24T08:13:45Z</time>
      </trkpt>
      <trkpt lat="43.56074" lon="6.9095">
        <ele>407.74</ele>
        <time>2011-05-24T08:13:46Z</time>
      </trkpt>
      <trkpt lat="43.56087" lon="6.90949">
        <ele>406.29</ele>
        <time>2011-05-24T08:13:47Z</time>
      </trkpt>
      <trkpt lat="43.56119" lon="6.90961">
        <ele>410.62</ele>
        <time>2011-05-24T08:13:54Z</time>
      </trkpt>
      <trkpt lat="43.56121" lon="6.90963">
        <ele>409.66</ele>
        <time>2011-05-24T08:13:55Z</time>
      </trkpt>
      <trkpt lat="43.56128" lon="6.9097">
        <ele>412.06</ele>
        <time>2011-05-24T08:14:00Z</time>
      </trkpt>
      <trkpt lat="43.56146" lon="6.90988">
        <ele>414.95</ele>
        <time>2011-05-24T08:14:14Z</time>
      </trkpt>
      <trkpt lat="43.56152" lon="6.90994">
        <ele>418.31</ele>
        <time>2011-05-24T08:14:19Z</time>
      </trkpt>
      <trkpt lat="43.56153" lon="6.90995">
        <ele>418.31</ele>
        <time>2011-05-24T08:14:20Z</time>
      </trkpt>
      <trkpt lat="43.5616" lon="6.90999">
        <ele>416.87</ele>
        <time>2011-05-24T08:14:25Z</time>
      </trkpt>
      <trkpt lat="43.56161" lon="6.91001">
        <ele>415.91</ele>
        <time>2011-05-24T08:14:26Z</time>
      </trkpt>
      <trkpt lat="43.56164" lon="6.91003">
        <ele>418.79</ele>
        <time>2011-05-24T08:14:29Z</time>
      </trkpt>
      <trkpt lat="43.56178" lon="6.91008">
        <ele>420.23</ele>
        <time>2011-05-24T08:14:40Z</time>
      </trkpt>
      <trkpt lat="43.56181" lon="6.91008">
        <ele>416.87</ele>
        <time>2011-05-24T08:14:42Z</time>
      </trkpt>
      <trkpt lat="43.56183" lon="6.91008">
        <ele>420.71</ele>
        <time>2011-05-24T08:14:43Z</time>
      </trkpt>
      <trkpt lat="43.56184" lon="6.91008">
        <ele>417.83</ele>
        <time>2011-05-24T08:14:44Z</time>
      </trkpt>
      <trkpt lat="43.56193" lon="6.91008">
        <ele>420.71</ele>
        <time>2011-05-24T08:14:49Z</time>
      </trkpt>
      <trkpt lat="43.56201" lon="6.91009">
        <ele>424.08</ele>
        <time>2011-05-24T08:14:53Z</time>
      </trkpt>
      <trkpt lat="43.56203" lon="6.91009">
        <ele>420.23</ele>
        <time>2011-05-24T08:14:54Z</time>
      </trkpt>
      <trkpt lat="43.56205" lon="6.91009">
        <ele>420.23</ele>
        <time>2011-05-24T08:14:55Z</time>
      </trkpt>
      <trkpt lat="43.5622" lon="6.9101">
        <ele>421.68</ele>
        <time>2011-05-24T08:15:03Z</time>
      </trkpt>
      <trkpt lat="43.56247" lon="6.91015">
        <ele>422.16</ele>
        <time>2011-05-24T08:15:17Z</time>
      </trkpt>
      <trkpt lat="43.56268" lon="6.91025">
        <ele>426.96</ele>
        <time>2011-05-24T08:15:30Z</time>
      </trkpt>
      <trkpt lat="43.56288" lon="6.91015">
        <ele>426</ele>
        <time>2011-05-24T08:15:42Z</time>
      </trkpt>
      <trkpt lat="43.56305" lon="6.9098">
        <ele>429.85</ele>
        <time>2011-05-24T08:15:53Z</time>
      </trkpt>
      <trkpt lat="43.56317" lon="6.90956">
        <ele>431.77</ele>
        <time>2011-05-24T08:16:08Z</time>
      </trkpt>
      <trkpt lat="43.56338" lon="6.90947">
        <ele>433.69</ele>
        <time>2011-05-24T08:16:25Z</time>
      </trkpt>
      <trkpt lat="43.56344" lon="6.90944">
        <ele>435.61</ele>
        <time>2011-05-24T08:16:37Z</time>
      </trkpt>
      <trkpt lat="43.56349" lon="6.90945">
        <ele>436.1</ele>
        <time>2011-05-24T08:16:46Z</time>
      </trkpt>
      <trkpt lat="43.5635" lon="6.90949">
        <ele>436.58</ele>
        <time>2011-05-24T08:16:58Z</time>
      </trkpt>
      <trkpt lat="43.56351" lon="6.90955">
        <ele>434.17</ele>
        <time>2011-05-24T08:17:02Z</time>
      </trkpt>
      <trkpt lat="43.56363" lon="6.90945">
        <ele>437.54</ele>
        <time>2011-05-24T08:17:10Z</time>
      </trkpt>
      <trkpt lat="43.5638" lon="6.9091">
        <ele>439.94</ele>
        <time>2011-05-24T08:17:25Z</time>
      </trkpt>
      <trkpt lat="43.56387" lon="6.90824">
        <ele>442.34</ele>
        <time>2011-05-24T08:17:48Z</time>
      </trkpt>
      <trkpt lat="43.56374" lon="6.90785">
        <ele>444.75</ele>
        <time>2011-05-24T08:18:03Z</time>
      </trkpt>
      <trkpt lat="43.56351" lon="6.90775">
        <ele>444.75</ele>
        <time>2011-05-24T08:18:14Z</time>
      </trkpt>
      <trkpt lat="43.56305" lon="6.90798">
        <ele>445.23</ele>
        <time>2011-05-24T08:18:31Z</time>
      </trkpt>
      <trkpt lat="43.56291" lon="6.90794">
        <ele>447.63</ele>
        <time>2011-05-24T08:18:36Z</time>
      </trkpt>
      <trkpt lat="43.56286" lon="6.9079">
        <ele>446.19</ele>
        <time>2011-05-24T08:18:38Z</time>
      </trkpt>
      <trkpt lat="43.56261" lon="6.90757">
        <ele>449.55</ele>
        <time>2011-05-24T08:18:51Z</time>
      </trkpt>
      <trkpt lat="43.56235" lon="6.9072">
        <ele>450.03</ele>
        <time>2011-05-24T08:19:05Z</time>
      </trkpt>
      <trkpt lat="43.56231" lon="6.90699">
        <ele>451</ele>
        <time>2011-05-24T08:19:11Z</time>
      </trkpt>
      <trkpt lat="43.56251" lon="6.90671">
        <ele>452.92</ele>
        <time>2011-05-24T08:19:23Z</time>
      </trkpt>
      <trkpt lat="43.56274" lon="6.90674">
        <ele>454.36</ele>
        <time>2011-05-24T08:19:32Z</time>
      </trkpt>
      <trkpt lat="43.56301" lon="6.9066">
        <ele>455.32</ele>
        <time>2011-05-24T08:19:44Z</time>
      </trkpt>
      <trkpt lat="43.5631" lon="6.90626">
        <ele>455.8</ele>
        <time>2011-05-24T08:19:56Z</time>
      </trkpt>
      <trkpt lat="43.56315" lon="6.90616">
        <ele>451.96</ele>
        <time>2011-05-24T08:20:00Z</time>
      </trkpt>
      <trkpt lat="43.56317" lon="6.90612">
        <ele>451.96</ele>
        <time>2011-05-24T08:20:01Z</time>
      </trkpt>
      <trkpt lat="43.5632" lon="6.90609">
        <ele>451.48</ele>
        <time>2011-05-24T08:20:02Z</time>
      </trkpt>
      <trkpt lat="43.56336" lon="6.906">
        <ele>452.92</ele>
        <time>2011-05-24T08:20:06Z</time>
      </trkpt>
      <trkpt lat="43.56354" lon="6.90598">
        <ele>450.52</ele>
        <time>2011-05-24T08:20:10Z</time>
      </trkpt>
      <trkpt lat="43.56364" lon="6.90586">
        <ele>447.63</ele>
        <time>2011-05-24T08:20:14Z</time>
      </trkpt>
      <trkpt lat="43.56372" lon="6.90554">
        <ele>445.23</ele>
        <time>2011-05-24T08:20:21Z</time>
      </trkpt>
      <trkpt lat="43.56379" lon="6.9054">
        <ele>443.79</ele>
        <time>2011-05-24T08:20:24Z</time>
      </trkpt>
      <trkpt lat="43.56405" lon="6.90484">
        <ele>440.9</ele>
        <time>2011-05-24T08:20:35Z</time>
      </trkpt>
      <trkpt lat="43.56404" lon="6.9045">
        <ele>437.54</ele>
        <time>2011-05-24T08:20:45Z</time>
      </trkpt>
      <trkpt lat="43.56426" lon="6.90419">
        <ele>435.61</ele>
        <time>2011-05-24T08:20:57Z</time>
      </trkpt>
      <trkpt lat="43.56431" lon="6.9041">
        <ele>435.13</ele>
        <time>2011-05-24T08:20:59Z</time>
      </trkpt>
      <trkpt lat="43.56436" lon="6.90392">
        <ele>432.73</ele>
        <time>2011-05-24T08:21:02Z</time>
      </trkpt>
      <trkpt lat="43.56438" lon="6.90387">
        <ele>433.21</ele>
        <time>2011-05-24T08:21:03Z</time>
      </trkpt>
      <trkpt lat="43.56441" lon="6.90375">
        <ele>433.69</ele>
        <time>2011-05-24T08:21:05Z</time>
      </trkpt>
      <trkpt lat="43.5646" lon="6.90338">
        <ele>432.25</ele>
        <time>2011-05-24T08:21:13Z</time>
      </trkpt>
      <trkpt lat="43.56461" lon="6.90323">
        <ele>430.81</ele>
        <time>2011-05-24T08:21:17Z</time>
      </trkpt>
      <trkpt lat="43.56457" lon="6.90315">
        <ele>433.69</ele>
        <time>2011-05-24T08:21:19Z</time>
      </trkpt>
      <trkpt lat="43.56454" lon="6.90312">
        <ele>431.77</ele>
        <time>2011-05-24T08:21:20Z</time>
      </trkpt>
      <trkpt lat="43.56435" lon="6.90298">
        <ele>427.92</ele>
        <time>2011-05-24T08:21:27Z</time>
      </trkpt>
      <trkpt lat="43.56396" lon="6.90269">
        <ele>425.04</ele>
        <time>2011-05-24T08:21:39Z</time>
      </trkpt>
      <trkpt lat="43.56374" lon="6.90251">
        <ele>426</ele>
        <time>2011-05-24T08:21:46Z</time>
      </trkpt>
      <trkpt lat="43.56359" lon="6.90198">
        <ele>420.23</ele>
        <time>2011-05-24T08:21:55Z</time>
      </trkpt>
      <trkpt lat="43.56348" lon="6.9018">
        <ele>420.71</ele>
        <time>2011-05-24T08:21:59Z</time>
      </trkpt>
      <trkpt lat="43.56331" lon="6.90174">
        <ele>419.75</ele>
        <time>2011-05-24T08:22:03Z</time>
      </trkpt>
      <trkpt lat="43.56319" lon="6.90173">
        <ele>417.35</ele>
        <time>2011-05-24T08:22:06Z</time>
      </trkpt>
      <trkpt lat="43.56311" lon="6.90178">
        <ele>417.35</ele>
        <time>2011-05-24T08:22:08Z</time>
      </trkpt>
      <trkpt lat="43.56291" lon="6.90196">
        <ele>414.95</ele>
        <time>2011-05-24T08:22:14Z</time>
      </trkpt>
      <trkpt lat="43.56283" lon="6.90197">
        <ele>413.5</ele>
        <time>2011-05-24T08:22:16Z</time>
      </trkpt>
      <trkpt lat="43.56275" lon="6.90192">
        <ele>413.02</ele>
        <time>2011-05-24T08:22:18Z</time>
      </trkpt>
      <trkpt lat="43.56252" lon="6.9018">
        <ele>413.5</ele>
        <time>2011-05-24T08:22:24Z</time>
      </trkpt>
      <trkpt lat="43.56241" lon="6.90185">
        <ele>408.22</ele>
        <time>2011-05-24T08:22:27Z</time>
      </trkpt>
      <trkpt lat="43.56237" lon="6.90185">
        <ele>410.14</ele>
        <time>2011-05-24T08:22:28Z</time>
      </trkpt>
      <trkpt lat="43.56218" lon="6.90168">
        <ele>408.7</ele>
        <time>2011-05-24T08:22:33Z</time>
      </trkpt>
      <trkpt lat="43.56213" lon="6.90159">
        <ele>406.29</ele>
        <time>2011-05-24T08:22:35Z</time>
      </trkpt>
      <trkpt lat="43.5619" lon="6.90147">
        <ele>404.85</ele>
        <time>2011-05-24T08:22:41Z</time>
      </trkpt>
      <trkpt lat="43.56181" lon="6.9015">
        <ele>403.89</ele>
        <time>2011-05-24T08:22:43Z</time>
      </trkpt>
      <trkpt lat="43.56159" lon="6.90149">
        <ele>403.89</ele>
        <time>2011-05-24T08:22:48Z</time>
      </trkpt>
      <trkpt lat="43.5615" lon="6.90143">
        <ele>401.97</ele>
        <time>2011-05-24T08:22:50Z</time>
      </trkpt>
      <trkpt lat="43.56142" lon="6.90138">
        <ele>401.01</ele>
        <time>2011-05-24T08:22:52Z</time>
      </trkpt>
      <trkpt lat="43.5613" lon="6.90135">
        <ele>401.01</ele>
        <time>2011-05-24T08:22:55Z</time>
      </trkpt>
      <trkpt lat="43.56122" lon="6.90134">
        <ele>396.68</ele>
        <time>2011-05-24T08:22:57Z</time>
      </trkpt>
      <trkpt lat="43.56096" lon="6.90108">
        <ele>396.2</ele>
        <time>2011-05-24T08:23:04Z</time>
      </trkpt>
      <trkpt lat="43.56091" lon="6.90105">
        <ele>395.72</ele>
        <time>2011-05-24T08:23:05Z</time>
      </trkpt>
      <trkpt lat="43.56086" lon="6.90104">
        <ele>393.8</ele>
        <time>2011-05-24T08:23:06Z</time>
      </trkpt>
      <trkpt lat="43.56067" lon="6.90108">
        <ele>394.28</ele>
        <time>2011-05-24T08:23:09Z</time>
      </trkpt>
      <trkpt lat="43.56045" lon="6.90112">
        <ele>392.36</ele>
        <time>2011-05-24T08:23:13Z</time>
      </trkpt>
      <trkpt lat="43.56026" lon="6.9011">
        <ele>391.39</ele>
        <time>2011-05-24T08:23:17Z</time>
      </trkpt>
      <trkpt lat="43.56018" lon="6.90102">
        <ele>387.55</ele>
        <time>2011-05-24T08:23:19Z</time>
      </trkpt>
      <trkpt lat="43.56002" lon="6.90084">
        <ele>388.03</ele>
        <time>2011-05-24T08:23:23Z</time>
      </trkpt>
      <trkpt lat="43.55998" lon="6.90079">
        <ele>388.99</ele>
        <time>2011-05-24T08:23:24Z</time>
      </trkpt>
      <trkpt lat="43.55967" lon="6.90053">
        <ele>384.18</ele>
        <time>2011-05-24T08:23:32Z</time>
      </trkpt>
      <trkpt lat="43.5596" lon="6.90047">
        <ele>384.18</ele>
        <time>2011-05-24T08:23:34Z</time>
      </trkpt>
      <trkpt lat="43.55951" lon="6.9003">
        <ele>384.66</ele>
        <time>2011-05-24T08:23:38Z</time>
      </trkpt>
      <trkpt lat="43.55947" lon="6.90013">
        <ele>381.78</ele>
        <time>2011-05-24T08:23:41Z</time>
      </trkpt>
      <trkpt lat="43.55931" lon="6.90003">
        <ele>378.9</ele>
        <time>2011-05-24T08:23:46Z</time>
      </trkpt>
      <trkpt lat="43.55919" lon="6.9001">
        <ele>379.38</ele>
        <time>2011-05-24T08:23:49Z</time>
      </trkpt>
      <trkpt lat="43.55896" lon="6.90039">
        <ele>374.57</ele>
        <time>2011-05-24T08:23:54Z</time>
      </trkpt>
      <trkpt lat="43.55892" lon="6.90045">
        <ele>374.57</ele>
        <time>2011-05-24T08:23:55Z</time>
      </trkpt>
      <trkpt lat="43.55887" lon="6.9005">
        <ele>376.49</ele>
        <time>2011-05-24T08:23:56Z</time>
      </trkpt>
      <trkpt lat="43.55879" lon="6.90079">
        <ele>372.65</ele>
        <time>2011-05-24T08:24:00Z</time>
      </trkpt>
      <trkpt lat="43.55861" lon="6.90133">
        <ele>369.76</ele>
        <time>2011-05-24T08:24:07Z</time>
      </trkpt>
      <trkpt lat="43.55855" lon="6.90143">
        <ele>367.84</ele>
        <time>2011-05-24T08:24:09Z</time>
      </trkpt>
      <trkpt lat="43.55848" lon="6.90149">
        <ele>364</ele>
        <time>2011-05-24T08:24:11Z</time>
      </trkpt>
      <trkpt lat="43.55845" lon="6.90151">
        <ele>365.44</ele>
        <time>2011-05-24T08:24:12Z</time>
      </trkpt>
      <trkpt lat="43.55825" lon="6.90152">
        <ele>364.48</ele>
        <time>2011-05-24T08:24:17Z</time>
      </trkpt>
      <trkpt lat="43.5581" lon="6.90144">
        <ele>361.59</ele>
        <time>2011-05-24T08:24:20Z</time>
      </trkpt>
      <trkpt lat="43.55805" lon="6.90142">
        <ele>361.11</ele>
        <time>2011-05-24T08:24:21Z</time>
      </trkpt>
      <trkpt lat="43.55786" lon="6.90129">
        <ele>359.19</ele>
        <time>2011-05-24T08:24:25Z</time>
      </trkpt>
      <trkpt lat="43.55768" lon="6.90122">
        <ele>359.67</ele>
        <time>2011-05-24T08:24:29Z</time>
      </trkpt>
      <trkpt lat="43.55764" lon="6.9012">
        <ele>359.19</ele>
        <time>2011-05-24T08:24:30Z</time>
      </trkpt>
      <trkpt lat="43.55755" lon="6.90116">
        <ele>355.83</ele>
        <time>2011-05-24T08:24:33Z</time>
      </trkpt>
      <trkpt lat="43.55753" lon="6.90115">
        <ele>357.27</ele>
        <time>2011-05-24T08:24:34Z</time>
      </trkpt>
      <trkpt lat="43.55749" lon="6.90118">
        <ele>353.9</ele>
        <time>2011-05-24T08:24:36Z</time>
      </trkpt>
      <trkpt lat="43.5575" lon="6.90125">
        <ele>355.83</ele>
        <time>2011-05-24T08:24:39Z</time>
      </trkpt>
      <trkpt lat="43.55754" lon="6.90128">
        <ele>357.27</ele>
        <time>2011-05-24T08:24:41Z</time>
      </trkpt>
      <trkpt lat="43.55782" lon="6.90139">
        <ele>354.38</ele>
        <time>2011-05-24T08:24:50Z</time>
      </trkpt>
      <trkpt lat="43.55809" lon="6.90163">
        <ele>350.54</ele>
        <time>2011-05-24T08:24:57Z</time>
      </trkpt>
      <trkpt lat="43.55814" lon="6.90166">
        <ele>351.5</ele>
        <time>2011-05-24T08:24:58Z</time>
      </trkpt>
      <trkpt lat="43.55826" lon="6.90175">
        <ele>350.06</ele>
        <time>2011-05-24T08:25:01Z</time>
      </trkpt>
      <trkpt lat="43.55842" lon="6.90184">
        <ele>351.02</ele>
        <time>2011-05-24T08:25:05Z</time>
      </trkpt>
      <trkpt lat="43.55872" lon="6.90165">
        <ele>347.65</ele>
        <time>2011-05-24T08:25:12Z</time>
      </trkpt>
      <trkpt lat="43.55876" lon="6.90158">
        <ele>347.65</ele>
        <time>2011-05-24T08:25:13Z</time>
      </trkpt>
      <trkpt lat="43.55888" lon="6.90133">
        <ele>348.62</ele>
        <time>2011-05-24T08:25:17Z</time>
      </trkpt>
      <trkpt lat="43.55898" lon="6.90116">
        <ele>346.69</ele>
        <time>2011-05-24T08:25:20Z</time>
      </trkpt>
      <trkpt lat="43.55902" lon="6.9011">
        <ele>346.21</ele>
        <time>2011-05-24T08:25:21Z</time>
      </trkpt>
      <trkpt lat="43.55908" lon="6.901">
        <ele>345.73</ele>
        <time>2011-05-24T08:25:23Z</time>
      </trkpt>
      <trkpt lat="43.5593" lon="6.90111">
        <ele>343.81</ele>
        <time>2011-05-24T08:25:30Z</time>
      </trkpt>
      <trkpt lat="43.55932" lon="6.90119">
        <ele>342.85</ele>
        <time>2011-05-24T08:25:31Z</time>
      </trkpt>
      <trkpt lat="43.55938" lon="6.9014">
        <ele>340.92</ele>
        <time>2011-05-24T08:25:34Z</time>
      </trkpt>
      <trkpt lat="43.55941" lon="6.90153">
        <ele>340.92</ele>
        <time>2011-05-24T08:25:36Z</time>
      </trkpt>
      <trkpt lat="43.55949" lon="6.90173">
        <ele>338.52</ele>
        <time>2011-05-24T08:25:39Z</time>
      </trkpt>
      <trkpt lat="43.55955" lon="6.90192">
        <ele>337.08</ele>
        <time>2011-05-24T08:25:42Z</time>
      </trkpt>
      <trkpt lat="43.55956" lon="6.90198">
        <ele>337.08</ele>
        <time>2011-05-24T08:25:43Z</time>
      </trkpt>
      <trkpt lat="43.55986" lon="6.90247">
        <ele>334.2</ele>
        <time>2011-05-24T08:25:51Z</time>
      </trkpt>
      <trkpt lat="43.56021" lon="6.9026">
        <ele>333.71</ele>
        <time>2011-05-24T08:25:57Z</time>
      </trkpt>
      <trkpt lat="43.56031" lon="6.90261">
        <ele>331.31</ele>
        <time>2011-05-24T08:25:59Z</time>
      </trkpt>
      <trkpt lat="43.56043" lon="6.90253">
        <ele>329.87</ele>
        <time>2011-05-24T08:26:02Z</time>
      </trkpt>
      <trkpt lat="43.56056" lon="6.9025">
        <ele>330.35</ele>
        <time>2011-05-24T08:26:06Z</time>
      </trkpt>
      <trkpt lat="43.56059" lon="6.90263">
        <ele>329.87</ele>
        <time>2011-05-24T08:26:08Z</time>
      </trkpt>
      <trkpt lat="43.56085" lon="6.90291">
        <ele>325.06</ele>
        <time>2011-05-24T08:26:15Z</time>
      </trkpt>
      <trkpt lat="43.5611" lon="6.90297">
        <ele>327.47</ele>
        <time>2011-05-24T08:26:20Z</time>
      </trkpt>
      <trkpt lat="43.56148" lon="6.90321">
        <ele>324.1</ele>
        <time>2011-05-24T08:26:29Z</time>
      </trkpt>
      <trkpt lat="43.56151" lon="6.90349">
        <ele>323.14</ele>
        <time>2011-05-24T08:26:35Z</time>
      </trkpt>
      <trkpt lat="43.56148" lon="6.90351">
        <ele>321.7</ele>
        <time>2011-05-24T08:26:36Z</time>
      </trkpt>
      <trkpt lat="43.56124" lon="6.90374">
        <ele>325.54</ele>
        <time>2011-05-24T08:26:50Z</time>
      </trkpt>
      <trkpt lat="43.56086" lon="6.90383">
        <ele>326.02</ele>
        <time>2011-05-24T08:27:06Z</time>
      </trkpt>
      <trkpt lat="43.56055" lon="6.90419">
        <ele>324.58</ele>
        <time>2011-05-24T08:27:17Z</time>
      </trkpt>
      <trkpt lat="43.56008" lon="6.90443">
        <ele>326.02</ele>
        <time>2011-05-24T08:27:31Z</time>
      </trkpt>
      <trkpt lat="43.5598" lon="6.90452">
        <ele>327.47</ele>
        <time>2011-05-24T08:27:39Z</time>
      </trkpt>
      <trkpt lat="43.55961" lon="6.90461">
        <ele>326.99</ele>
        <time>2011-05-24T08:27:44Z</time>
      </trkpt>
      <trkpt lat="43.55929" lon="6.90516">
        <ele>325.54</ele>
        <time>2011-05-24T08:27:57Z</time>
      </trkpt>
      <trkpt lat="43.55923" lon="6.90551">
        <ele>326.99</ele>
        <time>2011-05-24T08:28:02Z</time>
      </trkpt>
      <trkpt lat="43.55903" lon="6.906">
        <ele>326.02</ele>
        <time>2011-05-24T08:28:10Z</time>
      </trkpt>
      <trkpt lat="43.55894" lon="6.90626">
        <ele>326.5</ele>
        <time>2011-05-24T08:28:14Z</time>
      </trkpt>
      <trkpt lat="43.55879" lon="6.90628">
        <ele>325.54</ele>
        <time>2011-05-24T08:28:20Z</time>
      </trkpt>
      <trkpt lat="43.55877" lon="6.90611">
        <ele>326.99</ele>
        <time>2011-05-24T08:28:23Z</time>
      </trkpt>
      <trkpt lat="43.55878" lon="6.90606">
        <ele>326.5</ele>
        <time>2011-05-24T08:28:24Z</time>
      </trkpt>
      <trkpt lat="43.5588" lon="6.9059">
        <ele>327.47</ele>
        <time>2011-05-24T08:28:27Z</time>
      </trkpt>
      <trkpt lat="43.55865" lon="6.90548">
        <ele>324.1</ele>
        <time>2011-05-24T08:28:35Z</time>
      </trkpt>
      <trkpt lat="43.5583" lon="6.90548">
        <ele>321.22</ele>
        <time>2011-05-24T08:28:42Z</time>
      </trkpt>
      <trkpt lat="43.55812" lon="6.90571">
        <ele>319.3</ele>
        <time>2011-05-24T08:28:47Z</time>
      </trkpt>
      <trkpt lat="43.55801" lon="6.90576">
        <ele>316.89</ele>
        <time>2011-05-24T08:28:49Z</time>
      </trkpt>
      <trkpt lat="43.55789" lon="6.90578">
        <ele>314.97</ele>
        <time>2011-05-24T08:28:51Z</time>
      </trkpt>
      <trkpt lat="43.55763" lon="6.90594">
        <ele>312.09</ele>
        <time>2011-05-24T08:28:56Z</time>
      </trkpt>
      <trkpt lat="43.5575" lon="6.90598">
        <ele>310.64</ele>
        <time>2011-05-24T08:28:59Z</time>
      </trkpt>
      <trkpt lat="43.55742" lon="6.9059">
        <ele>309.2</ele>
        <time>2011-05-24T08:29:01Z</time>
      </trkpt>
      <trkpt lat="43.55736" lon="6.90579">
        <ele>307.76</ele>
        <time>2011-05-24T08:29:03Z</time>
      </trkpt>
      <trkpt lat="43.55729" lon="6.90571">
        <ele>304.39</ele>
        <time>2011-05-24T08:29:05Z</time>
      </trkpt>
      <trkpt lat="43.55725" lon="6.90568">
        <ele>306.32</ele>
        <time>2011-05-24T08:29:06Z</time>
      </trkpt>
      <trkpt lat="43.5571" lon="6.90568">
        <ele>301.99</ele>
        <time>2011-05-24T08:29:09Z</time>
      </trkpt>
      <trkpt lat="43.55701" lon="6.90574">
        <ele>303.43</ele>
        <time>2011-05-24T08:29:11Z</time>
      </trkpt>
      <trkpt lat="43.55692" lon="6.90581">
        <ele>301.99</ele>
        <time>2011-05-24T08:29:13Z</time>
      </trkpt>
      <trkpt lat="43.55677" lon="6.90575">
        <ele>298.15</ele>
        <time>2011-05-24T08:29:17Z</time>
      </trkpt>
      <trkpt lat="43.55675" lon="6.90568">
        <ele>298.15</ele>
        <time>2011-05-24T08:29:18Z</time>
      </trkpt>
      <trkpt lat="43.55662" lon="6.90542">
        <ele>295.26</ele>
        <time>2011-05-24T08:29:22Z</time>
      </trkpt>
      <trkpt lat="43.55643" lon="6.90527">
        <ele>293.34</ele>
        <time>2011-05-24T08:29:26Z</time>
      </trkpt>
      <trkpt lat="43.55634" lon="6.90522">
        <ele>291.9</ele>
        <time>2011-05-24T08:29:28Z</time>
      </trkpt>
      <trkpt lat="43.55627" lon="6.90513">
        <ele>289.01</ele>
        <time>2011-05-24T08:29:30Z</time>
      </trkpt>
      <trkpt lat="43.55593" lon="6.90506">
        <ele>283.73</ele>
        <time>2011-05-24T08:29:37Z</time>
      </trkpt>
      <trkpt lat="43.55588" lon="6.9051">
        <ele>285.17</ele>
        <time>2011-05-24T08:29:38Z</time>
      </trkpt>
      <trkpt lat="43.55579" lon="6.9052">
        <ele>282.77</ele>
        <time>2011-05-24T08:29:40Z</time>
      </trkpt>
      <trkpt lat="43.55571" lon="6.90532">
        <ele>281.8</ele>
        <time>2011-05-24T08:29:42Z</time>
      </trkpt>
      <trkpt lat="43.55558" lon="6.90554">
        <ele>278.92</ele>
        <time>2011-05-24T08:29:46Z</time>
      </trkpt>
      <trkpt lat="43.55545" lon="6.9055">
        <ele>277.48</ele>
        <time>2011-05-24T08:29:49Z</time>
      </trkpt>
      <trkpt lat="43.55536" lon="6.90527">
        <ele>275.56</ele>
        <time>2011-05-24T08:29:52Z</time>
      </trkpt>
      <trkpt lat="43.55528" lon="6.905">
        <ele>272.67</ele>
        <time>2011-05-24T08:29:56Z</time>
      </trkpt>
      <trkpt lat="43.55515" lon="6.90482">
        <ele>270.75</ele>
        <time>2011-05-24T08:30:00Z</time>
      </trkpt>
      <trkpt lat="43.55499" lon="6.90467">
        <ele>269.79</ele>
        <time>2011-05-24T08:30:04Z</time>
      </trkpt>
      <trkpt lat="43.55494" lon="6.90464">
        <ele>268.35</ele>
        <time>2011-05-24T08:30:05Z</time>
      </trkpt>
      <trkpt lat="43.55484" lon="6.90456">
        <ele>267.38</ele>
        <time>2011-05-24T08:30:07Z</time>
      </trkpt>
      <trkpt lat="43.55476" lon="6.90448">
        <ele>264.02</ele>
        <time>2011-05-24T08:30:09Z</time>
      </trkpt>
      <trkpt lat="43.55458" lon="6.90434">
        <ele>263.06</ele>
        <time>2011-05-24T08:30:13Z</time>
      </trkpt>
      <trkpt lat="43.55409" lon="6.90413">
        <ele>260.17</ele>
        <time>2011-05-24T08:30:22Z</time>
      </trkpt>
      <trkpt lat="43.55364" lon="6.90387">
        <ele>262.1</ele>
        <time>2011-05-24T08:30:30Z</time>
      </trkpt>
      <trkpt lat="43.55341" lon="6.90359">
        <ele>263.06</ele>
        <time>2011-05-24T08:30:37Z</time>
      </trkpt>
      <trkpt lat="43.55335" lon="6.90345">
        <ele>265.46</ele>
        <time>2011-05-24T08:30:40Z</time>
      </trkpt>
      <trkpt lat="43.55327" lon="6.90315">
        <ele>264.98</ele>
        <time>2011-05-24T08:30:47Z</time>
      </trkpt>
      <trkpt lat="43.55311" lon="6.90328">
        <ele>264.98</ele>
        <time>2011-05-24T08:30:53Z</time>
      </trkpt>
      <trkpt lat="43.55304" lon="6.9039">
        <ele>265.94</ele>
        <time>2011-05-24T08:31:08Z</time>
      </trkpt>
      <trkpt lat="43.55297" lon="6.90438">
        <ele>268.35</ele>
        <time>2011-05-24T08:31:22Z</time>
      </trkpt>
      <trkpt lat="43.55287" lon="6.90472">
        <ele>268.83</ele>
        <time>2011-05-24T08:31:34Z</time>
      </trkpt>
      <trkpt lat="43.55248" lon="6.90485">
        <ele>269.79</ele>
        <time>2011-05-24T08:31:49Z</time>
      </trkpt>
      <trkpt lat="43.5523" lon="6.90497">
        <ele>272.19</ele>
        <time>2011-05-24T08:31:57Z</time>
      </trkpt>
      <trkpt lat="43.55223" lon="6.90511">
        <ele>273.63</ele>
        <time>2011-05-24T08:32:04Z</time>
      </trkpt>
      <trkpt lat="43.55224" lon="6.90522">
        <ele>275.56</ele>
        <time>2011-05-24T08:32:09Z</time>
      </trkpt>
      <trkpt lat="43.55242" lon="6.90539">
        <ele>277.96</ele>
        <time>2011-05-24T08:32:23Z</time>
      </trkpt>
      <trkpt lat="43.55247" lon="6.90546">
        <ele>278.44</ele>
        <time>2011-05-24T08:32:28Z</time>
      </trkpt>
      <trkpt lat="43.55259" lon="6.90575">
        <ele>280.84</ele>
        <time>2011-05-24T08:32:46Z</time>
      </trkpt>
      <trkpt lat="43.55256" lon="6.90605">
        <ele>282.77</ele>
        <time>2011-05-24T08:33:02Z</time>
      </trkpt>
      <trkpt lat="43.55242" lon="6.90636">
        <ele>284.69</ele>
        <time>2011-05-24T08:33:20Z</time>
      </trkpt>
      <trkpt lat="43.55227" lon="6.90667">
        <ele>286.61</ele>
        <time>2011-05-24T08:33:37Z</time>
      </trkpt>
      <trkpt lat="43.55201" lon="6.90657">
        <ele>285.65</ele>
        <time>2011-05-24T08:33:49Z</time>
      </trkpt>
      <trkpt lat="43.5516" lon="6.90665">
        <ele>286.13</ele>
        <time>2011-05-24T08:34:00Z</time>
      </trkpt>
      <trkpt lat="43.55135" lon="6.90691">
        <ele>287.09</ele>
        <time>2011-05-24T08:34:14Z</time>
      </trkpt>
      <trkpt lat="43.55132" lon="6.90715">
        <ele>290.94</ele>
        <time>2011-05-24T08:34:24Z</time>
      </trkpt>
      <trkpt lat="43.55113" lon="6.9073">
        <ele>292.38</ele>
        <time>2011-05-24T08:34:37Z</time>
      </trkpt>
      <trkpt lat="43.5509" lon="6.90747">
        <ele>295.26</ele>
        <time>2011-05-24T08:34:56Z</time>
      </trkpt>
      <trkpt lat="43.55069" lon="6.90772">
        <ele>298.15</ele>
        <time>2011-05-24T08:35:15Z</time>
      </trkpt>
      <trkpt lat="43.55055" lon="6.90796">
        <ele>300.55</ele>
        <time>2011-05-24T08:35:31Z</time>
      </trkpt>
      <trkpt lat="43.5503" lon="6.90803">
        <ele>302.95</ele>
        <time>2011-05-24T08:35:50Z</time>
      </trkpt>
      <trkpt lat="43.5502" lon="6.90798">
        <ele>303.91</ele>
        <time>2011-05-24T08:35:58Z</time>
      </trkpt>
      <trkpt lat="43.55019" lon="6.90823">
        <ele>303.91</ele>
        <time>2011-05-24T08:36:15Z</time>
      </trkpt>
      <trkpt lat="43.55022" lon="6.90831">
        <ele>305.36</ele>
        <time>2011-05-24T08:36:21Z</time>
      </trkpt>
      <trkpt lat="43.55033" lon="6.90823">
        <ele>305.84</ele>
        <time>2011-05-24T08:36:31Z</time>
      </trkpt>
      <trkpt lat="43.55065" lon="6.90838">
        <ele>309.68</ele>
        <time>2011-05-24T08:36:52Z</time>
      </trkpt>
      <trkpt lat="43.5509" lon="6.90831">
        <ele>312.57</ele>
        <time>2011-05-24T08:37:09Z</time>
      </trkpt>
      <trkpt lat="43.55115" lon="6.90824">
        <ele>314.01</ele>
        <time>2011-05-24T08:37:27Z</time>
      </trkpt>
      <trkpt lat="43.55141" lon="6.90838">
        <ele>317.37</ele>
        <time>2011-05-24T08:37:45Z</time>
      </trkpt>
      <trkpt lat="43.55149" lon="6.90844">
        <ele>317.37</ele>
        <time>2011-05-24T08:37:51Z</time>
      </trkpt>
      <trkpt lat="43.55153" lon="6.90844">
        <ele>318.33</ele>
        <time>2011-05-24T08:37:54Z</time>
      </trkpt>
      <trkpt lat="43.55175" lon="6.90835">
        <ele>319.78</ele>
        <time>2011-05-24T08:38:11Z</time>
      </trkpt>
      <trkpt lat="43.55201" lon="6.90836">
        <ele>323.14</ele>
        <time>2011-05-24T08:38:29Z</time>
      </trkpt>
      <trkpt lat="43.55232" lon="6.90824">
        <ele>323.14</ele>
        <time>2011-05-24T08:38:49Z</time>
      </trkpt>
      <trkpt lat="43.55288" lon="6.90795">
        <ele>322.66</ele>
        <time>2011-05-24T08:39:01Z</time>
      </trkpt>
      <trkpt lat="43.55307" lon="6.90782">
        <ele>326.5</ele>
        <time>2011-05-24T08:39:14Z</time>
      </trkpt>
      <trkpt lat="43.5533" lon="6.90794">
        <ele>329.87</ele>
        <time>2011-05-24T08:39:30Z</time>
      </trkpt>
      <trkpt lat="43.55339" lon="6.90799">
        <ele>331.31</ele>
        <time>2011-05-24T08:39:37Z</time>
      </trkpt>
      <trkpt lat="43.55357" lon="6.90801">
        <ele>332.75</ele>
        <time>2011-05-24T08:39:52Z</time>
      </trkpt>
      <trkpt lat="43.55386" lon="6.90806">
        <ele>334.68</ele>
        <time>2011-05-24T08:40:14Z</time>
      </trkpt>
      <trkpt lat="43.55411" lon="6.90805">
        <ele>337.56</ele>
        <time>2011-05-24T08:40:31Z</time>
      </trkpt>
      <trkpt lat="43.55431" lon="6.908">
        <ele>339.48</ele>
        <time>2011-05-24T08:40:45Z</time>
      </trkpt>
      <trkpt lat="43.55454" lon="6.9079">
        <ele>342.37</ele>
        <time>2011-05-24T08:41:01Z</time>
      </trkpt>
      <trkpt lat="43.55482" lon="6.90794">
        <ele>344.77</ele>
        <time>2011-05-24T08:41:20Z</time>
      </trkpt>
      <trkpt lat="43.55507" lon="6.90799">
        <ele>347.17</ele>
        <time>2011-05-24T08:41:37Z</time>
      </trkpt>
      <trkpt lat="43.55534" lon="6.90806">
        <ele>349.1</ele>
        <time>2011-05-24T08:41:54Z</time>
      </trkpt>
      <trkpt lat="43.55535" lon="6.90805">
        <ele>348.13</ele>
        <time>2011-05-24T08:41:55Z</time>
      </trkpt>
      <trkpt lat="43.55542" lon="6.90791">
        <ele>349.1</ele>
        <time>2011-05-24T08:42:03Z</time>
      </trkpt>
      <trkpt lat="43.55544" lon="6.90789">
        <ele>351.02</ele>
        <time>2011-05-24T08:42:05Z</time>
      </trkpt>
      <trkpt lat="43.55549" lon="6.90801">
        <ele>350.06</ele>
        <time>2011-05-24T08:42:17Z</time>
      </trkpt>
      <trkpt lat="43.55549" lon="6.90797">
        <ele>350.06</ele>
        <time>2011-05-24T08:42:31Z</time>
      </trkpt>
      <trkpt lat="43.55547" lon="6.90798">
        <ele>350.06</ele>
        <time>2011-05-24T08:43:36Z</time>
      </trkpt>
      <trkpt lat="43.55547" lon="6.90798">
        <ele>347.17</ele>
        <time>2011-05-24T08:43:52Z</time>
      </trkpt>
      <trkpt lat="43.55547" lon="6.90798">
        <ele>350.54</ele>
        <time>2011-05-24T08:43:53Z</time>
      </trkpt>
      <trkpt lat="43.55548" lon="6.90797">
        <ele>347.65</ele>
        <time>2011-05-24T08:44:36Z</time>
      </trkpt>
      <trkpt lat="43.55548" lon="6.90797">
        <ele>348.13</ele>
        <time>2011-05-24T08:44:37Z</time>
      </trkpt>
      <trkpt lat="43.55548" lon="6.90797">
        <ele>351.5</ele>
        <time>2011-05-24T08:44:57Z</time>
      </trkpt>
      <trkpt lat="43.55548" lon="6.90797">
        <ele>348.13</ele>
        <time>2011-05-24T08:45:10Z</time>
      </trkpt>
      <trkpt lat="43.55548" lon="6.90796">
        <ele>351.02</ele>
        <time>2011-05-24T08:45:47Z</time>
      </trkpt>
      <trkpt lat="43.55548" lon="6.90796">
        <ele>347.65</ele>
        <time>2011-05-24T08:45:48Z</time>
      </trkpt>
      <trkpt lat="43.55548" lon="6.90796">
        <ele>351.02</ele>
        <time>2011-05-24T08:45:58Z</time>
      </trkpt>
      <trkpt lat="43.55548" lon="6.90796">
        <ele>350.54</ele>
        <time>2011-05-24T08:45:59Z</time>
      </trkpt>
      <trkpt lat="43.55548" lon="6.90796">
        <ele>349.58</ele>
        <time>2011-05-24T08:46:01Z</time>
      </trkpt>
      <trkpt lat="43.55547" lon="6.90795">
        <ele>349.58</ele>
        <time>2011-05-24T08:46:17Z</time>
      </trkpt>
      <trkpt lat="43.55548" lon="6.90797">
        <ele>346.69</ele>
        <time>2011-05-24T08:46:46Z</time>
      </trkpt>
      <trkpt lat="43.55548" lon="6.90798">
        <ele>350.06</ele>
        <time>2011-05-24T08:46:51Z</time>
      </trkpt>
      <trkpt lat="43.55548" lon="6.90798">
        <ele>348.62</ele>
        <time>2011-05-24T08:47:08Z</time>
      </trkpt>
      <trkpt lat="43.55548" lon="6.908">
        <ele>349.1</ele>
        <time>2011-05-24T08:47:23Z</time>
      </trkpt>
      <trkpt lat="43.55548" lon="6.908">
        <ele>349.58</ele>
        <time>2011-05-24T08:47:33Z</time>
      </trkpt>
      <trkpt lat="43.55548" lon="6.908">
        <ele>347.65</ele>
        <time>2011-05-24T08:47:57Z</time>
      </trkpt>
      <trkpt lat="43.55548" lon="6.908">
        <ele>350.54</ele>
        <time>2011-05-24T08:48:03Z</time>
      </trkpt>
      <trkpt lat="43.55548" lon="6.908">
        <ele>347.17</ele>
        <time>2011-05-24T08:48:09Z</time>
      </trkpt>
      <trkpt lat="43.55548" lon="6.908">
        <ele>349.58</ele>
        <time>2011-05-24T08:48:17Z</time>
      </trkpt>
      <trkpt lat="43.55548" lon="6.908">
        <ele>348.13</ele>
        <time>2011-05-24T08:48:20Z</time>
      </trkpt>
      <trkpt lat="43.55547" lon="6.90798">
        <ele>349.58</ele>
        <time>2011-05-24T08:49:03Z</time>
      </trkpt>
      <trkpt lat="43.55548" lon="6.90798">
        <ele>347.65</ele>
        <time>2011-05-24T08:49:45Z</time>
      </trkpt>
      <trkpt lat="43.55548" lon="6.90798">
        <ele>351.02</ele>
        <time>2011-05-24T08:49:53Z</time>
      </trkpt>
      <trkpt lat="43.55548" lon="6.90798">
        <ele>347.65</ele>
        <time>2011-05-24T08:49:54Z</time>
      </trkpt>
      <trkpt lat="43.55548" lon="6.90798">
        <ele>348.13</ele>
        <time>2011-05-24T08:50:01Z</time>
      </trkpt>
      <trkpt lat="43.55548" lon="6.90798">
        <ele>347.17</ele>
        <time>2011-05-24T08:50:15Z</time>
      </trkpt>
      <trkpt lat="43.55548" lon="6.90799">
        <ele>349.1</ele>
        <time>2011-05-24T08:50:34Z</time>
      </trkpt>
      <trkpt lat="43.55548" lon="6.90799">
        <ele>345.25</ele>
        <time>2011-05-24T08:50:40Z</time>
      </trkpt>
      <trkpt lat="43.55548" lon="6.90799">
        <ele>348.13</ele>
        <time>2011-05-24T08:50:42Z</time>
      </trkpt>
      <trkpt lat="43.55549" lon="6.90799">
        <ele>348.13</ele>
        <time>2011-05-24T08:51:25Z</time>
      </trkpt>
      <trkpt lat="43.55549" lon="6.90799">
        <ele>348.62</ele>
        <time>2011-05-24T08:51:45Z</time>
      </trkpt>
      <trkpt lat="43.55549" lon="6.90799">
        <ele>348.62</ele>
        <time>2011-05-24T08:52:03Z</time>
      </trkpt>
      <trkpt lat="43.55553" lon="6.90801">
        <ele>346.21</ele>
        <time>2011-05-24T08:53:00Z</time>
      </trkpt>
      <trkpt lat="43.55553" lon="6.90801">
        <ele>349.58</ele>
        <time>2011-05-24T08:53:02Z</time>
      </trkpt>
      <trkpt lat="43.55553" lon="6.90801">
        <ele>345.73</ele>
        <time>2011-05-24T08:53:03Z</time>
      </trkpt>
      <trkpt lat="43.55553" lon="6.90802">
        <ele>347.65</ele>
        <time>2011-05-24T08:53:04Z</time>
      </trkpt>
      <trkpt lat="43.55554" lon="6.90802">
        <ele>346.69</ele>
        <time>2011-05-24T08:53:14Z</time>
      </trkpt>
      <trkpt lat="43.55552" lon="6.90799">
        <ele>350.06</ele>
        <time>2011-05-24T08:53:54Z</time>
      </trkpt>
      <trkpt lat="43.55552" lon="6.90799">
        <ele>347.17</ele>
        <time>2011-05-24T08:53:57Z</time>
      </trkpt>
      <trkpt lat="43.55552" lon="6.90799">
        <ele>350.54</ele>
        <time>2011-05-24T08:54:08Z</time>
      </trkpt>
      <trkpt lat="43.55551" lon="6.90799">
        <ele>346.69</ele>
        <time>2011-05-24T08:54:11Z</time>
      </trkpt>
      <trkpt lat="43.55551" lon="6.90799">
        <ele>347.65</ele>
        <time>2011-05-24T08:54:12Z</time>
      </trkpt>
      <trkpt lat="43.55551" lon="6.90799">
        <ele>348.62</ele>
        <time>2011-05-24T08:54:14Z</time>
      </trkpt>
      <trkpt lat="43.55551" lon="6.90799">
        <ele>346.69</ele>
        <time>2011-05-24T08:54:16Z</time>
      </trkpt>
      <trkpt lat="43.55552" lon="6.90798">
        <ele>348.13</ele>
        <time>2011-05-24T08:54:30Z</time>
      </trkpt>
      <trkpt lat="43.55551" lon="6.908">
        <ele>346.21</ele>
        <time>2011-05-24T08:54:39Z</time>
      </trkpt>
      <trkpt lat="43.55546" lon="6.90812">
        <ele>346.69</ele>
        <time>2011-05-24T08:54:52Z</time>
      </trkpt>
      <trkpt lat="43.55547" lon="6.90811">
        <ele>345.73</ele>
        <time>2011-05-24T08:55:10Z</time>
      </trkpt>
      <trkpt lat="43.55547" lon="6.90811">
        <ele>345.73</ele>
        <time>2011-05-24T08:55:15Z</time>
      </trkpt>
      <trkpt lat="43.55547" lon="6.90811">
        <ele>347.65</ele>
        <time>2011-05-24T08:55:18Z</time>
      </trkpt>
      <trkpt lat="43.55547" lon="6.90812">
        <ele>344.29</ele>
        <time>2011-05-24T08:55:20Z</time>
      </trkpt>
      <trkpt lat="43.55547" lon="6.90814">
        <ele>347.65</ele>
        <time>2011-05-24T08:55:26Z</time>
      </trkpt>
      <trkpt lat="43.55546" lon="6.90807">
        <ele>347.17</ele>
        <time>2011-05-24T08:55:41Z</time>
      </trkpt>
      <trkpt lat="43.55546" lon="6.90799">
        <ele>347.65</ele>
        <time>2011-05-24T08:55:51Z</time>
      </trkpt>
      <trkpt lat="43.55546" lon="6.90798">
        <ele>348.62</ele>
        <time>2011-05-24T08:56:08Z</time>
      </trkpt>
      <trkpt lat="43.55547" lon="6.90794">
        <ele>348.62</ele>
        <time>2011-05-24T08:56:11Z</time>
      </trkpt>
      <trkpt lat="43.55551" lon="6.90781">
        <ele>347.65</ele>
        <time>2011-05-24T08:56:22Z</time>
      </trkpt>
      <trkpt lat="43.55552" lon="6.90777">
        <ele>351.02</ele>
        <time>2011-05-24T08:56:27Z</time>
      </trkpt>
      <trkpt lat="43.55552" lon="6.90777">
        <ele>347.65</ele>
        <time>2011-05-24T08:56:28Z</time>
      </trkpt>
      <trkpt lat="43.55552" lon="6.90775">
        <ele>347.17</ele>
        <time>2011-05-24T08:56:36Z</time>
      </trkpt>
      <trkpt lat="43.55552" lon="6.90775">
        <ele>350.06</ele>
        <time>2011-05-24T08:56:42Z</time>
      </trkpt>
      <trkpt lat="43.55552" lon="6.90775">
        <ele>347.17</ele>
        <time>2011-05-24T08:56:52Z</time>
      </trkpt>
      <trkpt lat="43.55552" lon="6.90775">
        <ele>350.06</ele>
        <time>2011-05-24T08:57:11Z</time>
      </trkpt>
      <trkpt lat="43.55552" lon="6.90775">
        <ele>349.58</ele>
        <time>2011-05-24T08:57:18Z</time>
      </trkpt>
      <trkpt lat="43.55552" lon="6.90775">
        <ele>349.1</ele>
        <time>2011-05-24T08:57:20Z</time>
      </trkpt>
    </trkseg>
  </trk>
</gpx>